<?xml version="1.0" encoding="UTF-8" standalone="no" ?>
<gpx xmlns="http://www.topografix.com/GPX/1/1" xmlns:xsi="http://www.w3.org/2001/XMLSchema-instance" xsi:schemaLocation="http://www.topografix.com/GPX/1/1 http://www.topografix.com/GPX/1/1/gpx.xsd" version="1.1" creator="VisuGPX - https://www.visugpx.com">
  <metadata>
    <name>Le lac d Arlet depuis les forges d Abel au lac d Arlet - Vallée d Aspe (64)</name>
    <desc><![CDATA[Soleil, tracé complet]]></desc>
  </metadata>
  <trk>
    <name><![CDATA[ACTIVE LOG]]></name>
    <trkseg>
      <trkpt lat="42.81404" lon="-0.57988">
        <ele>1222.934326</ele>
        <time>2011-05-17T08:14:06Z</time>
      </trkpt>
      <trkpt lat="42.81414" lon="-0.57988">
        <ele>1222.934326</ele>
        <time>2011-05-17T08:14:07Z</time>
      </trkpt>
      <trkpt lat="42.81415" lon="-0.5799">
        <ele>1227.260254</ele>
        <time>2011-05-17T08:14:12Z</time>
      </trkpt>
      <trkpt lat="42.81413" lon="-0.57992">
        <ele>1231.105713</ele>
        <time>2011-05-17T08:14:14Z</time>
      </trkpt>
      <trkpt lat="42.81409" lon="-0.57996">
        <ele>1236.392822</ele>
        <time>2011-05-17T08:14:17Z</time>
      </trkpt>
      <trkpt lat="42.81407" lon="-0.57997">
        <ele>1239.757324</ele>
        <time>2011-05-17T08:14:19Z</time>
      </trkpt>
      <trkpt lat="42.81403" lon="-0.57999">
        <ele>1243.121826</ele>
        <time>2011-05-17T08:14:22Z</time>
      </trkpt>
      <trkpt lat="42.81399" lon="-0.58001">
        <ele>1246.967285</ele>
        <time>2011-05-17T08:14:25Z</time>
      </trkpt>
      <trkpt lat="42.81397" lon="-0.58002">
        <ele>1250.332031</ele>
        <time>2011-05-17T08:14:28Z</time>
      </trkpt>
      <trkpt lat="42.81396" lon="-0.58003">
        <ele>1250.332031</ele>
        <time>2011-05-17T08:14:29Z</time>
      </trkpt>
      <trkpt lat="42.81393" lon="-0.58005">
        <ele>1254.177246</ele>
        <time>2011-05-17T08:14:32Z</time>
      </trkpt>
      <trkpt lat="42.81392" lon="-0.58007">
        <ele>1255.619141</ele>
        <time>2011-05-17T08:14:34Z</time>
      </trkpt>
      <trkpt lat="42.81392" lon="-0.58012">
        <ele>1258.50293</ele>
        <time>2011-05-17T08:14:37Z</time>
      </trkpt>
      <trkpt lat="42.81391" lon="-0.58017">
        <ele>1262.348389</ele>
        <time>2011-05-17T08:14:41Z</time>
      </trkpt>
      <trkpt lat="42.81392" lon="-0.58019">
        <ele>1263.309814</ele>
        <time>2011-05-17T08:14:43Z</time>
      </trkpt>
      <trkpt lat="42.81397" lon="-0.5802">
        <ele>1265.713135</ele>
        <time>2011-05-17T08:14:48Z</time>
      </trkpt>
      <trkpt lat="42.81399" lon="-0.58019">
        <ele>1267.155029</ele>
        <time>2011-05-17T08:14:50Z</time>
      </trkpt>
      <trkpt lat="42.81406" lon="-0.58017">
        <ele>1270.519531</ele>
        <time>2011-05-17T08:14:55Z</time>
      </trkpt>
      <trkpt lat="42.81407" lon="-0.58017">
        <ele>1270.519531</ele>
        <time>2011-05-17T08:14:56Z</time>
      </trkpt>
      <trkpt lat="42.81415" lon="-0.58015">
        <ele>1274.364746</ele>
        <time>2011-05-17T08:15:02Z</time>
      </trkpt>
      <trkpt lat="42.81419" lon="-0.58014">
        <ele>1275.325928</ele>
        <time>2011-05-17T08:15:06Z</time>
      </trkpt>
      <trkpt lat="42.81428" lon="-0.5801">
        <ele>1279.171387</ele>
        <time>2011-05-17T08:15:16Z</time>
      </trkpt>
      <trkpt lat="42.81431" lon="-0.57995">
        <ele>1281.094238</ele>
        <time>2011-05-17T08:15:29Z</time>
      </trkpt>
      <trkpt lat="42.81429" lon="-0.57991">
        <ele>1282.05542</ele>
        <time>2011-05-17T08:15:31Z</time>
      </trkpt>
      <trkpt lat="42.81431" lon="-0.57976">
        <ele>1285.900635</ele>
        <time>2011-05-17T08:15:37Z</time>
      </trkpt>
      <trkpt lat="42.81433" lon="-0.5797">
        <ele>1287.823242</ele>
        <time>2011-05-17T08:15:40Z</time>
      </trkpt>
      <trkpt lat="42.81435" lon="-0.57965">
        <ele>1291.187744</ele>
        <time>2011-05-17T08:15:44Z</time>
      </trkpt>
      <trkpt lat="42.81438" lon="-0.57958">
        <ele>1294.55249</ele>
        <time>2011-05-17T08:15:49Z</time>
      </trkpt>
      <trkpt lat="42.81441" lon="-0.57953">
        <ele>1297.917236</ele>
        <time>2011-05-17T08:15:53Z</time>
      </trkpt>
      <trkpt lat="42.81443" lon="-0.57948">
        <ele>1300.320557</ele>
        <time>2011-05-17T08:15:56Z</time>
      </trkpt>
      <trkpt lat="42.81445" lon="-0.57944">
        <ele>1302.24292</ele>
        <time>2011-05-17T08:15:59Z</time>
      </trkpt>
      <trkpt lat="42.81447" lon="-0.57941">
        <ele>1304.64624</ele>
        <time>2011-05-17T08:16:02Z</time>
      </trkpt>
      <trkpt lat="42.8145" lon="-0.57936">
        <ele>1306.568848</ele>
        <time>2011-05-17T08:16:06Z</time>
      </trkpt>
      <trkpt lat="42.81466" lon="-0.57928">
        <ele>1309.453125</ele>
        <time>2011-05-17T08:16:22Z</time>
      </trkpt>
      <trkpt lat="42.81481" lon="-0.57907">
        <ele>1310.414307</ele>
        <time>2011-05-17T08:16:41Z</time>
      </trkpt>
      <trkpt lat="42.81502" lon="-0.57899">
        <ele>1313.29834</ele>
        <time>2011-05-17T08:17:00Z</time>
      </trkpt>
      <trkpt lat="42.81522" lon="-0.57891">
        <ele>1314.259521</ele>
        <time>2011-05-17T08:17:18Z</time>
      </trkpt>
      <trkpt lat="42.81535" lon="-0.57871">
        <ele>1316.662842</ele>
        <time>2011-05-17T08:17:36Z</time>
      </trkpt>
      <trkpt lat="42.8155" lon="-0.57863">
        <ele>1317.624023</ele>
        <time>2011-05-17T08:17:52Z</time>
      </trkpt>
      <trkpt lat="42.81565" lon="-0.57864">
        <ele>1319.546875</ele>
        <time>2011-05-17T08:18:06Z</time>
      </trkpt>
      <trkpt lat="42.81554" lon="-0.57884">
        <ele>1320.98877</ele>
        <time>2011-05-17T08:18:25Z</time>
      </trkpt>
      <trkpt lat="42.81541" lon="-0.57899">
        <ele>1322.430664</ele>
        <time>2011-05-17T08:18:41Z</time>
      </trkpt>
      <trkpt lat="42.8153" lon="-0.57922">
        <ele>1322.430664</ele>
        <time>2011-05-17T08:18:59Z</time>
      </trkpt>
      <trkpt lat="42.8152" lon="-0.57942">
        <ele>1324.353516</ele>
        <time>2011-05-17T08:19:15Z</time>
      </trkpt>
      <trkpt lat="42.81509" lon="-0.57958">
        <ele>1325.314697</ele>
        <time>2011-05-17T08:19:31Z</time>
      </trkpt>
      <trkpt lat="42.81498" lon="-0.57981">
        <ele>1327.237549</ele>
        <time>2011-05-17T08:19:50Z</time>
      </trkpt>
      <trkpt lat="42.81494" lon="-0.58004">
        <ele>1329.159912</ele>
        <time>2011-05-17T08:20:06Z</time>
      </trkpt>
      <trkpt lat="42.81493" lon="-0.58006">
        <ele>1329.159912</ele>
        <time>2011-05-17T08:20:08Z</time>
      </trkpt>
      <trkpt lat="42.81491" lon="-0.58012">
        <ele>1329.159912</ele>
        <time>2011-05-17T08:20:13Z</time>
      </trkpt>
      <trkpt lat="42.81485" lon="-0.58026">
        <ele>1330.602051</ele>
        <time>2011-05-17T08:20:25Z</time>
      </trkpt>
      <trkpt lat="42.81484" lon="-0.5805">
        <ele>1333.005127</ele>
        <time>2011-05-17T08:20:42Z</time>
      </trkpt>
      <trkpt lat="42.81481" lon="-0.5807">
        <ele>1336.369873</ele>
        <time>2011-05-17T08:20:56Z</time>
      </trkpt>
      <trkpt lat="42.81479" lon="-0.58077">
        <ele>1336.850342</ele>
        <time>2011-05-17T08:21:01Z</time>
      </trkpt>
      <trkpt lat="42.81474" lon="-0.58092">
        <ele>1338.29248</ele>
        <time>2011-05-17T08:21:12Z</time>
      </trkpt>
      <trkpt lat="42.81473" lon="-0.58095">
        <ele>1338.29248</ele>
        <time>2011-05-17T08:21:14Z</time>
      </trkpt>
      <trkpt lat="42.81464" lon="-0.58117">
        <ele>1339.734375</ele>
        <time>2011-05-17T08:21:33Z</time>
      </trkpt>
      <trkpt lat="42.81461" lon="-0.58142">
        <ele>1342.137939</ele>
        <time>2011-05-17T08:21:50Z</time>
      </trkpt>
      <trkpt lat="42.81458" lon="-0.58159">
        <ele>1343.579834</ele>
        <time>2011-05-17T08:22:01Z</time>
      </trkpt>
      <trkpt lat="42.81443" lon="-0.58177">
        <ele>1344.060547</ele>
        <time>2011-05-17T08:22:17Z</time>
      </trkpt>
      <trkpt lat="42.81425" lon="-0.58188">
        <ele>1345.021729</ele>
        <time>2011-05-17T08:22:33Z</time>
      </trkpt>
      <trkpt lat="42.81417" lon="-0.58197">
        <ele>1345.502441</ele>
        <time>2011-05-17T08:22:43Z</time>
      </trkpt>
      <trkpt lat="42.814" lon="-0.58214">
        <ele>1346.944336</ele>
        <time>2011-05-17T08:22:59Z</time>
      </trkpt>
      <trkpt lat="42.81381" lon="-0.58222">
        <ele>1347.905762</ele>
        <time>2011-05-17T08:23:15Z</time>
      </trkpt>
      <trkpt lat="42.81375" lon="-0.58229">
        <ele>1348.866943</ele>
        <time>2011-05-17T08:23:22Z</time>
      </trkpt>
      <trkpt lat="42.81376" lon="-0.58244">
        <ele>1349.828369</ele>
        <time>2011-05-17T08:23:34Z</time>
      </trkpt>
      <trkpt lat="42.81396" lon="-0.58244">
        <ele>1352.231445</ele>
        <time>2011-05-17T08:23:53Z</time>
      </trkpt>
      <trkpt lat="42.81405" lon="-0.58241">
        <ele>1352.712158</ele>
        <time>2011-05-17T08:24:01Z</time>
      </trkpt>
      <trkpt lat="42.81405" lon="-0.58242">
        <ele>1353.673584</ele>
        <time>2011-05-17T08:24:15Z</time>
      </trkpt>
      <trkpt lat="42.81401" lon="-0.58224">
        <ele>1353.192871</ele>
        <time>2011-05-17T08:24:44Z</time>
      </trkpt>
      <trkpt lat="42.81399" lon="-0.58221">
        <ele>1354.634766</ele>
        <time>2011-05-17T08:25:38Z</time>
      </trkpt>
      <trkpt lat="42.81392" lon="-0.58246">
        <ele>1357.519043</ele>
        <time>2011-05-17T08:25:55Z</time>
      </trkpt>
      <trkpt lat="42.81383" lon="-0.58264">
        <ele>1358.960938</ele>
        <time>2011-05-17T08:26:11Z</time>
      </trkpt>
      <trkpt lat="42.81385" lon="-0.58273">
        <ele>1360.883545</ele>
        <time>2011-05-17T08:26:21Z</time>
      </trkpt>
      <trkpt lat="42.81386" lon="-0.58286">
        <ele>1363.286865</ele>
        <time>2011-05-17T08:26:37Z</time>
      </trkpt>
      <trkpt lat="42.81382" lon="-0.58302">
        <ele>1364.72876</ele>
        <time>2011-05-17T08:26:55Z</time>
      </trkpt>
      <trkpt lat="42.81377" lon="-0.58308">
        <ele>1368.093262</ele>
        <time>2011-05-17T08:27:11Z</time>
      </trkpt>
      <trkpt lat="42.81376" lon="-0.58315">
        <ele>1367.612549</ele>
        <time>2011-05-17T08:27:36Z</time>
      </trkpt>
      <trkpt lat="42.81384" lon="-0.58312">
        <ele>1367.612549</ele>
        <time>2011-05-17T08:28:11Z</time>
      </trkpt>
      <trkpt lat="42.81391" lon="-0.58309">
        <ele>1369.5354</ele>
        <time>2011-05-17T08:28:24Z</time>
      </trkpt>
      <trkpt lat="42.8139" lon="-0.58317">
        <ele>1371.457764</ele>
        <time>2011-05-17T08:28:35Z</time>
      </trkpt>
      <trkpt lat="42.81399" lon="-0.58323">
        <ele>1374.822754</ele>
        <time>2011-05-17T08:28:51Z</time>
      </trkpt>
      <trkpt lat="42.8139" lon="-0.58333">
        <ele>1377.226074</ele>
        <time>2011-05-17T08:29:05Z</time>
      </trkpt>
      <trkpt lat="42.8139" lon="-0.58343">
        <ele>1380.109863</ele>
        <time>2011-05-17T08:29:22Z</time>
      </trkpt>
      <trkpt lat="42.81384" lon="-0.58348">
        <ele>1381.071289</ele>
        <time>2011-05-17T08:29:36Z</time>
      </trkpt>
      <trkpt lat="42.81382" lon="-0.58359">
        <ele>1382.513184</ele>
        <time>2011-05-17T08:29:48Z</time>
      </trkpt>
      <trkpt lat="42.81383" lon="-0.58365">
        <ele>1382.993652</ele>
        <time>2011-05-17T08:29:54Z</time>
      </trkpt>
      <trkpt lat="42.81371" lon="-0.58368">
        <ele>1383.474365</ele>
        <time>2011-05-17T08:30:07Z</time>
      </trkpt>
      <trkpt lat="42.81362" lon="-0.58371">
        <ele>1385.877686</ele>
        <time>2011-05-17T08:30:20Z</time>
      </trkpt>
      <trkpt lat="42.81353" lon="-0.58372">
        <ele>1388.28125</ele>
        <time>2011-05-17T08:30:33Z</time>
      </trkpt>
      <trkpt lat="42.81344" lon="-0.58375">
        <ele>1390.203857</ele>
        <time>2011-05-17T08:30:47Z</time>
      </trkpt>
      <trkpt lat="42.81334" lon="-0.58386">
        <ele>1393.087646</ele>
        <time>2011-05-17T08:31:03Z</time>
      </trkpt>
      <trkpt lat="42.81333" lon="-0.58386">
        <ele>1394.049072</ele>
        <time>2011-05-17T08:31:05Z</time>
      </trkpt>
      <trkpt lat="42.81322" lon="-0.58392">
        <ele>1395.97168</ele>
        <time>2011-05-17T08:31:20Z</time>
      </trkpt>
      <trkpt lat="42.8131" lon="-0.5841">
        <ele>1397.413574</ele>
        <time>2011-05-17T08:31:41Z</time>
      </trkpt>
      <trkpt lat="42.81313" lon="-0.58425">
        <ele>1399.816895</ele>
        <time>2011-05-17T08:31:58Z</time>
      </trkpt>
      <trkpt lat="42.81314" lon="-0.58426">
        <ele>1399.336182</ele>
        <time>2011-05-17T08:32:29Z</time>
      </trkpt>
      <trkpt lat="42.81315" lon="-0.58425">
        <ele>1398.374756</ele>
        <time>2011-05-17T08:33:20Z</time>
      </trkpt>
      <trkpt lat="42.81314" lon="-0.58427">
        <ele>1400.297607</ele>
        <time>2011-05-17T08:33:43Z</time>
      </trkpt>
      <trkpt lat="42.81312" lon="-0.58426">
        <ele>1399.816895</ele>
        <time>2011-05-17T08:34:02Z</time>
      </trkpt>
      <trkpt lat="42.81316" lon="-0.58436">
        <ele>1401.258789</ele>
        <time>2011-05-17T08:34:15Z</time>
      </trkpt>
      <trkpt lat="42.81316" lon="-0.58441">
        <ele>1401.739502</ele>
        <time>2011-05-17T08:34:19Z</time>
      </trkpt>
      <trkpt lat="42.8131" lon="-0.58465">
        <ele>1402.219971</ele>
        <time>2011-05-17T08:34:38Z</time>
      </trkpt>
      <trkpt lat="42.81308" lon="-0.58469">
        <ele>1403.662109</ele>
        <time>2011-05-17T08:34:42Z</time>
      </trkpt>
      <trkpt lat="42.81306" lon="-0.58475">
        <ele>1405.104248</ele>
        <time>2011-05-17T08:34:47Z</time>
      </trkpt>
      <trkpt lat="42.81302" lon="-0.58492">
        <ele>1408.46875</ele>
        <time>2011-05-17T08:35:04Z</time>
      </trkpt>
      <trkpt lat="42.81301" lon="-0.58498">
        <ele>1409.910645</ele>
        <time>2011-05-17T08:35:11Z</time>
      </trkpt>
      <trkpt lat="42.81301" lon="-0.58504">
        <ele>1412.313965</ele>
        <time>2011-05-17T08:35:18Z</time>
      </trkpt>
      <trkpt lat="42.81299" lon="-0.58513">
        <ele>1412.794678</ele>
        <time>2011-05-17T08:35:29Z</time>
      </trkpt>
      <trkpt lat="42.81285" lon="-0.58519">
        <ele>1414.236572</ele>
        <time>2011-05-17T08:35:44Z</time>
      </trkpt>
      <trkpt lat="42.81268" lon="-0.5853">
        <ele>1415.678711</ele>
        <time>2011-05-17T08:36:03Z</time>
      </trkpt>
      <trkpt lat="42.81256" lon="-0.58538">
        <ele>1418.081787</ele>
        <time>2011-05-17T08:36:17Z</time>
      </trkpt>
      <trkpt lat="42.81237" lon="-0.58539">
        <ele>1420.485352</ele>
        <time>2011-05-17T08:36:35Z</time>
      </trkpt>
      <trkpt lat="42.81217" lon="-0.58543">
        <ele>1420.485352</ele>
        <time>2011-05-17T08:36:56Z</time>
      </trkpt>
      <trkpt lat="42.81199" lon="-0.58554">
        <ele>1423.369385</ele>
        <time>2011-05-17T08:37:15Z</time>
      </trkpt>
      <trkpt lat="42.81182" lon="-0.5857">
        <ele>1425.291748</ele>
        <time>2011-05-17T08:37:35Z</time>
      </trkpt>
      <trkpt lat="42.81167" lon="-0.58589">
        <ele>1426.733887</ele>
        <time>2011-05-17T08:37:55Z</time>
      </trkpt>
      <trkpt lat="42.81153" lon="-0.58612">
        <ele>1428.175781</ele>
        <time>2011-05-17T08:38:16Z</time>
      </trkpt>
      <trkpt lat="42.81142" lon="-0.58635">
        <ele>1430.098389</ele>
        <time>2011-05-17T08:38:36Z</time>
      </trkpt>
      <trkpt lat="42.81131" lon="-0.58665">
        <ele>1432.020996</ele>
        <time>2011-05-17T08:39:01Z</time>
      </trkpt>
      <trkpt lat="42.81122" lon="-0.58693">
        <ele>1434.905029</ele>
        <time>2011-05-17T08:39:24Z</time>
      </trkpt>
      <trkpt lat="42.81122" lon="-0.58698">
        <ele>1435.385498</ele>
        <time>2011-05-17T08:39:28Z</time>
      </trkpt>
      <trkpt lat="42.81123" lon="-0.587">
        <ele>1435.866211</ele>
        <time>2011-05-17T08:39:30Z</time>
      </trkpt>
      <trkpt lat="42.81128" lon="-0.58705">
        <ele>1435.385498</ele>
        <time>2011-05-17T08:39:36Z</time>
      </trkpt>
      <trkpt lat="42.81135" lon="-0.58704">
        <ele>1435.866211</ele>
        <time>2011-05-17T08:39:43Z</time>
      </trkpt>
      <trkpt lat="42.81155" lon="-0.5869">
        <ele>1437.30835</ele>
        <time>2011-05-17T08:40:03Z</time>
      </trkpt>
      <trkpt lat="42.81174" lon="-0.58679">
        <ele>1439.71167</ele>
        <time>2011-05-17T08:40:25Z</time>
      </trkpt>
      <trkpt lat="42.81193" lon="-0.58673">
        <ele>1441.634277</ele>
        <time>2011-05-17T08:40:44Z</time>
      </trkpt>
      <trkpt lat="42.81215" lon="-0.58671">
        <ele>1442.11499</ele>
        <time>2011-05-17T08:41:06Z</time>
      </trkpt>
      <trkpt lat="42.81237" lon="-0.58664">
        <ele>1443.076172</ele>
        <time>2011-05-17T08:41:29Z</time>
      </trkpt>
      <trkpt lat="42.81259" lon="-0.58661">
        <ele>1443.556885</ele>
        <time>2011-05-17T08:41:51Z</time>
      </trkpt>
      <trkpt lat="42.8128" lon="-0.58661">
        <ele>1444.998779</ele>
        <time>2011-05-17T08:42:13Z</time>
      </trkpt>
      <trkpt lat="42.81298" lon="-0.58666">
        <ele>1445.960205</ele>
        <time>2011-05-17T08:42:32Z</time>
      </trkpt>
      <trkpt lat="42.81298" lon="-0.58673">
        <ele>1446.921387</ele>
        <time>2011-05-17T08:42:38Z</time>
      </trkpt>
      <trkpt lat="42.81298" lon="-0.58677">
        <ele>1446.921387</ele>
        <time>2011-05-17T08:42:41Z</time>
      </trkpt>
      <trkpt lat="42.81281" lon="-0.58688">
        <ele>1448.363281</ele>
        <time>2011-05-17T08:43:02Z</time>
      </trkpt>
      <trkpt lat="42.8126" lon="-0.58693">
        <ele>1450.286133</ele>
        <time>2011-05-17T08:43:22Z</time>
      </trkpt>
      <trkpt lat="42.81242" lon="-0.58707">
        <ele>1451.728027</ele>
        <time>2011-05-17T08:43:43Z</time>
      </trkpt>
      <trkpt lat="42.81228" lon="-0.58723">
        <ele>1452.689453</ele>
        <time>2011-05-17T08:44:02Z</time>
      </trkpt>
      <trkpt lat="42.81211" lon="-0.58743">
        <ele>1454.131592</ele>
        <time>2011-05-17T08:44:25Z</time>
      </trkpt>
      <trkpt lat="42.81194" lon="-0.58759">
        <ele>1455.573486</ele>
        <time>2011-05-17T08:44:46Z</time>
      </trkpt>
      <trkpt lat="42.81178" lon="-0.58776">
        <ele>1455.573486</ele>
        <time>2011-05-17T08:45:06Z</time>
      </trkpt>
      <trkpt lat="42.81175" lon="-0.58793">
        <ele>1457.015381</ele>
        <time>2011-05-17T08:45:23Z</time>
      </trkpt>
      <trkpt lat="42.81182" lon="-0.58795">
        <ele>1457.496094</ele>
        <time>2011-05-17T08:45:30Z</time>
      </trkpt>
      <trkpt lat="42.81201" lon="-0.58785">
        <ele>1459.89917</ele>
        <time>2011-05-17T08:45:50Z</time>
      </trkpt>
      <trkpt lat="42.81219" lon="-0.58774">
        <ele>1460.860596</ele>
        <time>2011-05-17T08:46:10Z</time>
      </trkpt>
      <trkpt lat="42.81241" lon="-0.58762">
        <ele>1462.30249</ele>
        <time>2011-05-17T08:46:33Z</time>
      </trkpt>
      <trkpt lat="42.81263" lon="-0.58749">
        <ele>1462.783203</ele>
        <time>2011-05-17T08:46:57Z</time>
      </trkpt>
      <trkpt lat="42.81291" lon="-0.5874">
        <ele>1463.744385</ele>
        <time>2011-05-17T08:47:24Z</time>
      </trkpt>
      <trkpt lat="42.81292" lon="-0.58741">
        <ele>1464.705811</ele>
        <time>2011-05-17T08:47:25Z</time>
      </trkpt>
      <trkpt lat="42.81293" lon="-0.58746">
        <ele>1465.186523</ele>
        <time>2011-05-17T08:47:29Z</time>
      </trkpt>
      <trkpt lat="42.81293" lon="-0.5875">
        <ele>1465.186523</ele>
        <time>2011-05-17T08:47:32Z</time>
      </trkpt>
      <trkpt lat="42.81275" lon="-0.58764">
        <ele>1467.5896</ele>
        <time>2011-05-17T08:47:52Z</time>
      </trkpt>
      <trkpt lat="42.81254" lon="-0.58777">
        <ele>1468.55127</ele>
        <time>2011-05-17T08:48:13Z</time>
      </trkpt>
      <trkpt lat="42.8124" lon="-0.58795">
        <ele>1468.55127</ele>
        <time>2011-05-17T08:48:32Z</time>
      </trkpt>
      <trkpt lat="42.81223" lon="-0.58814">
        <ele>1470.95459</ele>
        <time>2011-05-17T08:48:53Z</time>
      </trkpt>
      <trkpt lat="42.81222" lon="-0.58827">
        <ele>1471.915771</ele>
        <time>2011-05-17T08:49:06Z</time>
      </trkpt>
      <trkpt lat="42.81225" lon="-0.5883">
        <ele>1472.877197</ele>
        <time>2011-05-17T08:49:10Z</time>
      </trkpt>
      <trkpt lat="42.81245" lon="-0.58827">
        <ele>1474.799805</ele>
        <time>2011-05-17T08:49:28Z</time>
      </trkpt>
      <trkpt lat="42.81267" lon="-0.58814">
        <ele>1476.241699</ele>
        <time>2011-05-17T08:49:51Z</time>
      </trkpt>
      <trkpt lat="42.8129" lon="-0.58801">
        <ele>1478.164307</ele>
        <time>2011-05-17T08:50:13Z</time>
      </trkpt>
      <trkpt lat="42.81314" lon="-0.58789">
        <ele>1479.606201</ele>
        <time>2011-05-17T08:50:36Z</time>
      </trkpt>
      <trkpt lat="42.81336" lon="-0.58773">
        <ele>1481.04834</ele>
        <time>2011-05-17T08:51:00Z</time>
      </trkpt>
      <trkpt lat="42.81349" lon="-0.58761">
        <ele>1482.490234</ele>
        <time>2011-05-17T08:51:17Z</time>
      </trkpt>
      <trkpt lat="42.81365" lon="-0.58742">
        <ele>1485.374268</ele>
        <time>2011-05-17T08:51:38Z</time>
      </trkpt>
      <trkpt lat="42.81381" lon="-0.58726">
        <ele>1487.777588</ele>
        <time>2011-05-17T08:51:58Z</time>
      </trkpt>
      <trkpt lat="42.81392" lon="-0.58711">
        <ele>1490.661377</ele>
        <time>2011-05-17T08:52:15Z</time>
      </trkpt>
      <trkpt lat="42.81399" lon="-0.58702">
        <ele>1492.584229</ele>
        <time>2011-05-17T08:52:24Z</time>
      </trkpt>
      <trkpt lat="42.81405" lon="-0.58699">
        <ele>1491.622803</ele>
        <time>2011-05-17T08:52:32Z</time>
      </trkpt>
      <trkpt lat="42.81414" lon="-0.58692">
        <ele>1494.987305</ele>
        <time>2011-05-17T08:52:43Z</time>
      </trkpt>
      <trkpt lat="42.81427" lon="-0.58683">
        <ele>1497.871338</ele>
        <time>2011-05-17T08:52:58Z</time>
      </trkpt>
      <trkpt lat="42.81439" lon="-0.58682">
        <ele>1497.871338</ele>
        <time>2011-05-17T08:53:12Z</time>
      </trkpt>
      <trkpt lat="42.8145" lon="-0.58681">
        <ele>1498.351807</ele>
        <time>2011-05-17T08:53:25Z</time>
      </trkpt>
      <trkpt lat="42.81453" lon="-0.58681">
        <ele>1497.871338</ele>
        <time>2011-05-17T08:53:28Z</time>
      </trkpt>
      <trkpt lat="42.8146" lon="-0.58679">
        <ele>1498.83252</ele>
        <time>2011-05-17T08:53:34Z</time>
      </trkpt>
      <trkpt lat="42.81478" lon="-0.58666">
        <ele>1499.793945</ele>
        <time>2011-05-17T08:53:54Z</time>
      </trkpt>
      <trkpt lat="42.81493" lon="-0.5865">
        <ele>1500.274902</ele>
        <time>2011-05-17T08:54:12Z</time>
      </trkpt>
      <trkpt lat="42.81511" lon="-0.58637">
        <ele>1500.755371</ele>
        <time>2011-05-17T08:54:31Z</time>
      </trkpt>
      <trkpt lat="42.81527" lon="-0.58618">
        <ele>1503.158691</ele>
        <time>2011-05-17T08:54:51Z</time>
      </trkpt>
      <trkpt lat="42.81533" lon="-0.58599">
        <ele>1504.600586</ele>
        <time>2011-05-17T08:55:05Z</time>
      </trkpt>
      <trkpt lat="42.81548" lon="-0.58579">
        <ele>1505.081299</ele>
        <time>2011-05-17T08:55:24Z</time>
      </trkpt>
      <trkpt lat="42.81562" lon="-0.58561">
        <ele>1505.562012</ele>
        <time>2011-05-17T08:55:43Z</time>
      </trkpt>
      <trkpt lat="42.81577" lon="-0.5855">
        <ele>1507.003906</ele>
        <time>2011-05-17T08:55:58Z</time>
      </trkpt>
      <trkpt lat="42.81594" lon="-0.58539">
        <ele>1507.965332</ele>
        <time>2011-05-17T08:56:15Z</time>
      </trkpt>
      <trkpt lat="42.81611" lon="-0.58529">
        <ele>1507.965332</ele>
        <time>2011-05-17T08:56:32Z</time>
      </trkpt>
      <trkpt lat="42.81629" lon="-0.58517">
        <ele>1508.445801</ele>
        <time>2011-05-17T08:56:49Z</time>
      </trkpt>
      <trkpt lat="42.81646" lon="-0.5851">
        <ele>1507.965332</ele>
        <time>2011-05-17T08:57:05Z</time>
      </trkpt>
      <trkpt lat="42.81666" lon="-0.58494">
        <ele>1505.081299</ele>
        <time>2011-05-17T08:57:26Z</time>
      </trkpt>
      <trkpt lat="42.81682" lon="-0.58475">
        <ele>1503.639404</ele>
        <time>2011-05-17T08:57:44Z</time>
      </trkpt>
      <trkpt lat="42.8169" lon="-0.58463">
        <ele>1502.677979</ele>
        <time>2011-05-17T08:57:54Z</time>
      </trkpt>
      <trkpt lat="42.81703" lon="-0.58444">
        <ele>1502.197266</ele>
        <time>2011-05-17T08:58:10Z</time>
      </trkpt>
      <trkpt lat="42.81724" lon="-0.58438">
        <ele>1501.716797</ele>
        <time>2011-05-17T08:58:29Z</time>
      </trkpt>
      <trkpt lat="42.81742" lon="-0.58442">
        <ele>1503.639404</ele>
        <time>2011-05-17T08:58:46Z</time>
      </trkpt>
      <trkpt lat="42.81745" lon="-0.58443">
        <ele>1503.639404</ele>
        <time>2011-05-17T08:58:49Z</time>
      </trkpt>
      <trkpt lat="42.81758" lon="-0.58441">
        <ele>1507.003906</ele>
        <time>2011-05-17T08:59:06Z</time>
      </trkpt>
      <trkpt lat="42.81769" lon="-0.58444">
        <ele>1508.926514</ele>
        <time>2011-05-17T08:59:19Z</time>
      </trkpt>
      <trkpt lat="42.81776" lon="-0.58447">
        <ele>1510.849121</ele>
        <time>2011-05-17T08:59:31Z</time>
      </trkpt>
      <trkpt lat="42.81778" lon="-0.58447">
        <ele>1512.291016</ele>
        <time>2011-05-17T08:59:34Z</time>
      </trkpt>
      <trkpt lat="42.8179" lon="-0.58448">
        <ele>1513.73291</ele>
        <time>2011-05-17T08:59:52Z</time>
      </trkpt>
      <trkpt lat="42.818" lon="-0.58452">
        <ele>1516.617188</ele>
        <time>2011-05-17T09:00:07Z</time>
      </trkpt>
      <trkpt lat="42.81814" lon="-0.58453">
        <ele>1518.059082</ele>
        <time>2011-05-17T09:00:22Z</time>
      </trkpt>
      <trkpt lat="42.81822" lon="-0.58451">
        <ele>1519.501221</ele>
        <time>2011-05-17T09:00:34Z</time>
      </trkpt>
      <trkpt lat="42.81829" lon="-0.58443">
        <ele>1521.904297</ele>
        <time>2011-05-17T09:00:50Z</time>
      </trkpt>
      <trkpt lat="42.81835" lon="-0.58436">
        <ele>1523.826904</ele>
        <time>2011-05-17T09:01:03Z</time>
      </trkpt>
      <trkpt lat="42.81842" lon="-0.58432">
        <ele>1525.268799</ele>
        <time>2011-05-17T09:01:16Z</time>
      </trkpt>
      <trkpt lat="42.81851" lon="-0.58427">
        <ele>1524.307617</ele>
        <time>2011-05-17T09:01:29Z</time>
      </trkpt>
      <trkpt lat="42.81859" lon="-0.58427">
        <ele>1527.672119</ele>
        <time>2011-05-17T09:01:43Z</time>
      </trkpt>
      <trkpt lat="42.81855" lon="-0.58434">
        <ele>1529.114014</ele>
        <time>2011-05-17T09:01:55Z</time>
      </trkpt>
      <trkpt lat="42.8185" lon="-0.58443">
        <ele>1530.556152</ele>
        <time>2011-05-17T09:02:08Z</time>
      </trkpt>
      <trkpt lat="42.81858" lon="-0.58448">
        <ele>1532.479004</ele>
        <time>2011-05-17T09:02:24Z</time>
      </trkpt>
      <trkpt lat="42.81872" lon="-0.58444">
        <ele>1534.882324</ele>
        <time>2011-05-17T09:02:41Z</time>
      </trkpt>
      <trkpt lat="42.81875" lon="-0.58445">
        <ele>1534.401611</ele>
        <time>2011-05-17T09:02:45Z</time>
      </trkpt>
      <trkpt lat="42.81887" lon="-0.58438">
        <ele>1537.2854</ele>
        <time>2011-05-17T09:03:02Z</time>
      </trkpt>
      <trkpt lat="42.81894" lon="-0.58426">
        <ele>1537.766113</ele>
        <time>2011-05-17T09:03:16Z</time>
      </trkpt>
      <trkpt lat="42.819" lon="-0.58414">
        <ele>1540.649902</ele>
        <time>2011-05-17T09:03:32Z</time>
      </trkpt>
      <trkpt lat="42.81906" lon="-0.58408">
        <ele>1543.053223</ele>
        <time>2011-05-17T09:03:46Z</time>
      </trkpt>
      <trkpt lat="42.81912" lon="-0.58398">
        <ele>1544.97583</ele>
        <time>2011-05-17T09:04:04Z</time>
      </trkpt>
      <trkpt lat="42.81917" lon="-0.58393">
        <ele>1546.898438</ele>
        <time>2011-05-17T09:04:16Z</time>
      </trkpt>
      <trkpt lat="42.81927" lon="-0.58385">
        <ele>1547.37915</ele>
        <time>2011-05-17T09:04:32Z</time>
      </trkpt>
      <trkpt lat="42.81934" lon="-0.58378">
        <ele>1550.263428</ele>
        <time>2011-05-17T09:04:45Z</time>
      </trkpt>
      <trkpt lat="42.81946" lon="-0.58372">
        <ele>1553.147217</ele>
        <time>2011-05-17T09:05:03Z</time>
      </trkpt>
      <trkpt lat="42.81956" lon="-0.58365">
        <ele>1556.992432</ele>
        <time>2011-05-17T09:05:22Z</time>
      </trkpt>
      <trkpt lat="42.81968" lon="-0.58366">
        <ele>1558.434326</ele>
        <time>2011-05-17T09:05:39Z</time>
      </trkpt>
      <trkpt lat="42.81972" lon="-0.58366">
        <ele>1559.876221</ele>
        <time>2011-05-17T09:05:44Z</time>
      </trkpt>
      <trkpt lat="42.81981" lon="-0.58364">
        <ele>1562.760254</ele>
        <time>2011-05-17T09:05:59Z</time>
      </trkpt>
      <trkpt lat="42.81986" lon="-0.58354">
        <ele>1563.721436</ele>
        <time>2011-05-17T09:06:15Z</time>
      </trkpt>
      <trkpt lat="42.81992" lon="-0.58348">
        <ele>1565.644531</ele>
        <time>2011-05-17T09:06:28Z</time>
      </trkpt>
      <trkpt lat="42.81998" lon="-0.58343">
        <ele>1568.047607</ele>
        <time>2011-05-17T09:06:41Z</time>
      </trkpt>
      <trkpt lat="42.81998" lon="-0.58355">
        <ele>1569.489746</ele>
        <time>2011-05-17T09:06:56Z</time>
      </trkpt>
      <trkpt lat="42.82004" lon="-0.5835">
        <ele>1571.892822</ele>
        <time>2011-05-17T09:07:12Z</time>
      </trkpt>
      <trkpt lat="42.8201" lon="-0.58347">
        <ele>1574.296143</ele>
        <time>2011-05-17T09:07:26Z</time>
      </trkpt>
      <trkpt lat="42.82018" lon="-0.58347">
        <ele>1576.699463</ele>
        <time>2011-05-17T09:07:42Z</time>
      </trkpt>
      <trkpt lat="42.82024" lon="-0.58349">
        <ele>1577.660645</ele>
        <time>2011-05-17T09:07:55Z</time>
      </trkpt>
      <trkpt lat="42.82026" lon="-0.58355">
        <ele>1581.025635</ele>
        <time>2011-05-17T09:08:10Z</time>
      </trkpt>
      <trkpt lat="42.82023" lon="-0.58358">
        <ele>1582.467529</ele>
        <time>2011-05-17T09:08:16Z</time>
      </trkpt>
      <trkpt lat="42.82018" lon="-0.58369">
        <ele>1584.390137</ele>
        <time>2011-05-17T09:08:32Z</time>
      </trkpt>
      <trkpt lat="42.82012" lon="-0.5838">
        <ele>1586.793213</ele>
        <time>2011-05-17T09:08:48Z</time>
      </trkpt>
      <trkpt lat="42.82015" lon="-0.58383">
        <ele>1589.677246</ele>
        <time>2011-05-17T09:09:03Z</time>
      </trkpt>
      <trkpt lat="42.82023" lon="-0.58384">
        <ele>1592.561279</ele>
        <time>2011-05-17T09:09:18Z</time>
      </trkpt>
      <trkpt lat="42.82032" lon="-0.58385">
        <ele>1595.445068</ele>
        <time>2011-05-17T09:09:34Z</time>
      </trkpt>
      <trkpt lat="42.8204" lon="-0.58384">
        <ele>1598.329102</ele>
        <time>2011-05-17T09:09:50Z</time>
      </trkpt>
      <trkpt lat="42.82047" lon="-0.5839">
        <ele>1599.77124</ele>
        <time>2011-05-17T09:10:05Z</time>
      </trkpt>
      <trkpt lat="42.82042" lon="-0.58396">
        <ele>1603.135742</ele>
        <time>2011-05-17T09:10:16Z</time>
      </trkpt>
      <trkpt lat="42.82038" lon="-0.5841">
        <ele>1604.577637</ele>
        <time>2011-05-17T09:10:34Z</time>
      </trkpt>
      <trkpt lat="42.82045" lon="-0.58408">
        <ele>1607.46167</ele>
        <time>2011-05-17T09:10:48Z</time>
      </trkpt>
      <trkpt lat="42.82047" lon="-0.58409">
        <ele>1607.46167</ele>
        <time>2011-05-17T09:11:08Z</time>
      </trkpt>
      <trkpt lat="42.82051" lon="-0.58409">
        <ele>1608.422852</ele>
        <time>2011-05-17T09:11:24Z</time>
      </trkpt>
      <trkpt lat="42.82056" lon="-0.58413">
        <ele>1609.864746</ele>
        <time>2011-05-17T09:11:38Z</time>
      </trkpt>
      <trkpt lat="42.82053" lon="-0.58425">
        <ele>1613.229736</ele>
        <time>2011-05-17T09:11:53Z</time>
      </trkpt>
      <trkpt lat="42.82053" lon="-0.58431">
        <ele>1614.671631</ele>
        <time>2011-05-17T09:12:04Z</time>
      </trkpt>
      <trkpt lat="42.82066" lon="-0.58426">
        <ele>1617.074951</ele>
        <time>2011-05-17T09:12:22Z</time>
      </trkpt>
      <trkpt lat="42.82068" lon="-0.58424">
        <ele>1617.55542</ele>
        <time>2011-05-17T09:12:25Z</time>
      </trkpt>
      <trkpt lat="42.82077" lon="-0.58422">
        <ele>1619.95874</ele>
        <time>2011-05-17T09:12:41Z</time>
      </trkpt>
      <trkpt lat="42.82084" lon="-0.58423">
        <ele>1622.362061</ele>
        <time>2011-05-17T09:12:57Z</time>
      </trkpt>
      <trkpt lat="42.82088" lon="-0.58421">
        <ele>1623.803955</ele>
        <time>2011-05-17T09:13:04Z</time>
      </trkpt>
      <trkpt lat="42.82097" lon="-0.58411">
        <ele>1624.765381</ele>
        <time>2011-05-17T09:13:23Z</time>
      </trkpt>
      <trkpt lat="42.82105" lon="-0.58418">
        <ele>1624.765381</ele>
        <time>2011-05-17T09:13:51Z</time>
      </trkpt>
      <trkpt lat="42.82116" lon="-0.58431">
        <ele>1621.881348</ele>
        <time>2011-05-17T09:14:09Z</time>
      </trkpt>
      <trkpt lat="42.82119" lon="-0.58435">
        <ele>1620.920166</ele>
        <time>2011-05-17T09:14:24Z</time>
      </trkpt>
      <trkpt lat="42.82119" lon="-0.58434">
        <ele>1620.920166</ele>
        <time>2011-05-17T09:15:18Z</time>
      </trkpt>
      <trkpt lat="42.8212" lon="-0.58437">
        <ele>1621.400635</ele>
        <time>2011-05-17T09:16:02Z</time>
      </trkpt>
      <trkpt lat="42.82123" lon="-0.58441">
        <ele>1621.400635</ele>
        <time>2011-05-17T09:16:18Z</time>
      </trkpt>
      <trkpt lat="42.82131" lon="-0.58455">
        <ele>1622.842773</ele>
        <time>2011-05-17T09:16:39Z</time>
      </trkpt>
      <trkpt lat="42.82133" lon="-0.58458">
        <ele>1622.842773</ele>
        <time>2011-05-17T09:16:42Z</time>
      </trkpt>
      <trkpt lat="42.82144" lon="-0.5848">
        <ele>1622.842773</ele>
        <time>2011-05-17T09:17:02Z</time>
      </trkpt>
      <trkpt lat="42.82152" lon="-0.58498">
        <ele>1623.323486</ele>
        <time>2011-05-17T09:17:17Z</time>
      </trkpt>
      <trkpt lat="42.82167" lon="-0.58503">
        <ele>1624.284668</ele>
        <time>2011-05-17T09:17:34Z</time>
      </trkpt>
      <trkpt lat="42.82172" lon="-0.585">
        <ele>1624.765381</ele>
        <time>2011-05-17T09:17:41Z</time>
      </trkpt>
      <trkpt lat="42.82184" lon="-0.585">
        <ele>1624.765381</ele>
        <time>2011-05-17T09:18:02Z</time>
      </trkpt>
      <trkpt lat="42.822" lon="-0.58509">
        <ele>1627.168701</ele>
        <time>2011-05-17T09:18:21Z</time>
      </trkpt>
      <trkpt lat="42.82218" lon="-0.58515">
        <ele>1630.052734</ele>
        <time>2011-05-17T09:18:39Z</time>
      </trkpt>
      <trkpt lat="42.82236" lon="-0.58511">
        <ele>1631.975342</ele>
        <time>2011-05-17T09:18:57Z</time>
      </trkpt>
      <trkpt lat="42.82257" lon="-0.58527">
        <ele>1632.936523</ele>
        <time>2011-05-17T09:19:19Z</time>
      </trkpt>
      <trkpt lat="42.82273" lon="-0.58547">
        <ele>1634.378662</ele>
        <time>2011-05-17T09:19:41Z</time>
      </trkpt>
      <trkpt lat="42.82289" lon="-0.58565">
        <ele>1634.378662</ele>
        <time>2011-05-17T09:20:02Z</time>
      </trkpt>
      <trkpt lat="42.82298" lon="-0.58589">
        <ele>1631.494629</ele>
        <time>2011-05-17T09:20:23Z</time>
      </trkpt>
      <trkpt lat="42.82305" lon="-0.58604">
        <ele>1628.61084</ele>
        <time>2011-05-17T09:20:37Z</time>
      </trkpt>
      <trkpt lat="42.82307" lon="-0.58605">
        <ele>1628.61084</ele>
        <time>2011-05-17T09:20:39Z</time>
      </trkpt>
      <trkpt lat="42.82317" lon="-0.58594">
        <ele>1629.091309</ele>
        <time>2011-05-17T09:20:56Z</time>
      </trkpt>
      <trkpt lat="42.82325" lon="-0.58584">
        <ele>1631.01416</ele>
        <time>2011-05-17T09:21:08Z</time>
      </trkpt>
      <trkpt lat="42.82346" lon="-0.58579">
        <ele>1632.456055</ele>
        <time>2011-05-17T09:21:30Z</time>
      </trkpt>
      <trkpt lat="42.82355" lon="-0.58575">
        <ele>1634.378662</ele>
        <time>2011-05-17T09:21:40Z</time>
      </trkpt>
      <trkpt lat="42.82353" lon="-0.58564">
        <ele>1634.859375</ele>
        <time>2011-05-17T09:21:51Z</time>
      </trkpt>
      <trkpt lat="42.82342" lon="-0.58549">
        <ele>1638.223877</ele>
        <time>2011-05-17T09:22:10Z</time>
      </trkpt>
      <trkpt lat="42.8234" lon="-0.58538">
        <ele>1636.781738</ele>
        <time>2011-05-17T09:22:19Z</time>
      </trkpt>
      <trkpt lat="42.82337" lon="-0.58527">
        <ele>1635.339844</ele>
        <time>2011-05-17T09:22:27Z</time>
      </trkpt>
      <trkpt lat="42.8234" lon="-0.58496">
        <ele>1634.378662</ele>
        <time>2011-05-17T09:22:49Z</time>
      </trkpt>
      <trkpt lat="42.8235" lon="-0.58472">
        <ele>1635.339844</ele>
        <time>2011-05-17T09:23:08Z</time>
      </trkpt>
      <trkpt lat="42.82352" lon="-0.5847">
        <ele>1636.30127</ele>
        <time>2011-05-17T09:23:10Z</time>
      </trkpt>
      <trkpt lat="42.8236" lon="-0.58448">
        <ele>1637.262451</ele>
        <time>2011-05-17T09:23:28Z</time>
      </trkpt>
      <trkpt lat="42.82369" lon="-0.58428">
        <ele>1639.185059</ele>
        <time>2011-05-17T09:23:47Z</time>
      </trkpt>
      <trkpt lat="42.8237" lon="-0.58424">
        <ele>1639.185059</ele>
        <time>2011-05-17T09:23:51Z</time>
      </trkpt>
      <trkpt lat="42.82381" lon="-0.58403">
        <ele>1641.107666</ele>
        <time>2011-05-17T09:24:11Z</time>
      </trkpt>
      <trkpt lat="42.82389" lon="-0.58395">
        <ele>1641.588379</ele>
        <time>2011-05-17T09:24:22Z</time>
      </trkpt>
      <trkpt lat="42.82398" lon="-0.58385">
        <ele>1643.030273</ele>
        <time>2011-05-17T09:24:35Z</time>
      </trkpt>
      <trkpt lat="42.82402" lon="-0.58375">
        <ele>1643.510986</ele>
        <time>2011-05-17T09:24:43Z</time>
      </trkpt>
      <trkpt lat="42.82409" lon="-0.58355">
        <ele>1645.914551</ele>
        <time>2011-05-17T09:25:03Z</time>
      </trkpt>
      <trkpt lat="42.82407" lon="-0.58346">
        <ele>1649.279053</ele>
        <time>2011-05-17T09:25:14Z</time>
      </trkpt>
      <trkpt lat="42.82415" lon="-0.58322">
        <ele>1649.759766</ele>
        <time>2011-05-17T09:25:35Z</time>
      </trkpt>
      <trkpt lat="42.82425" lon="-0.58304">
        <ele>1650.720947</ele>
        <time>2011-05-17T09:25:52Z</time>
      </trkpt>
      <trkpt lat="42.82438" lon="-0.58296">
        <ele>1653.60498</ele>
        <time>2011-05-17T09:26:08Z</time>
      </trkpt>
      <trkpt lat="42.82446" lon="-0.58284">
        <ele>1654.085693</ele>
        <time>2011-05-17T09:26:23Z</time>
      </trkpt>
      <trkpt lat="42.82453" lon="-0.58273">
        <ele>1656.969482</ele>
        <time>2011-05-17T09:26:38Z</time>
      </trkpt>
      <trkpt lat="42.82453" lon="-0.58259">
        <ele>1659.853271</ele>
        <time>2011-05-17T09:26:54Z</time>
      </trkpt>
      <trkpt lat="42.82458" lon="-0.58247">
        <ele>1662.256836</ele>
        <time>2011-05-17T09:27:10Z</time>
      </trkpt>
      <trkpt lat="42.8246" lon="-0.58243">
        <ele>1662.737549</ele>
        <time>2011-05-17T09:27:27Z</time>
      </trkpt>
      <trkpt lat="42.82467" lon="-0.58235">
        <ele>1665.140869</ele>
        <time>2011-05-17T09:28:31Z</time>
      </trkpt>
      <trkpt lat="42.82471" lon="-0.58224">
        <ele>1668.024658</ele>
        <time>2011-05-17T09:28:45Z</time>
      </trkpt>
      <trkpt lat="42.82474" lon="-0.5821">
        <ele>1669.947266</ele>
        <time>2011-05-17T09:29:01Z</time>
      </trkpt>
      <trkpt lat="42.82469" lon="-0.5819">
        <ele>1672.350586</ele>
        <time>2011-05-17T09:29:21Z</time>
      </trkpt>
      <trkpt lat="42.82472" lon="-0.58178">
        <ele>1672.831299</ele>
        <time>2011-05-17T09:29:32Z</time>
      </trkpt>
      <trkpt lat="42.82476" lon="-0.58155">
        <ele>1674.273193</ele>
        <time>2011-05-17T09:29:51Z</time>
      </trkpt>
      <trkpt lat="42.82475" lon="-0.58137">
        <ele>1676.196045</ele>
        <time>2011-05-17T09:30:07Z</time>
      </trkpt>
      <trkpt lat="42.82473" lon="-0.5812">
        <ele>1678.118652</ele>
        <time>2011-05-17T09:30:23Z</time>
      </trkpt>
      <trkpt lat="42.82471" lon="-0.58101">
        <ele>1680.04126</ele>
        <time>2011-05-17T09:30:41Z</time>
      </trkpt>
      <trkpt lat="42.82469" lon="-0.58081">
        <ele>1683.886475</ele>
        <time>2011-05-17T09:30:59Z</time>
      </trkpt>
      <trkpt lat="42.82471" lon="-0.58058">
        <ele>1686.289795</ele>
        <time>2011-05-17T09:31:19Z</time>
      </trkpt>
      <trkpt lat="42.82466" lon="-0.58041">
        <ele>1687.250977</ele>
        <time>2011-05-17T09:31:36Z</time>
      </trkpt>
      <trkpt lat="42.82457" lon="-0.58024">
        <ele>1688.693115</ele>
        <time>2011-05-17T09:31:55Z</time>
      </trkpt>
      <trkpt lat="42.82456" lon="-0.58004">
        <ele>1692.057861</ele>
        <time>2011-05-17T09:32:13Z</time>
      </trkpt>
      <trkpt lat="42.82465" lon="-0.57979">
        <ele>1690.615479</ele>
        <time>2011-05-17T09:32:36Z</time>
      </trkpt>
      <trkpt lat="42.82467" lon="-0.57956">
        <ele>1692.057861</ele>
        <time>2011-05-17T09:32:55Z</time>
      </trkpt>
      <trkpt lat="42.82467" lon="-0.57932">
        <ele>1693.980469</ele>
        <time>2011-05-17T09:33:15Z</time>
      </trkpt>
      <trkpt lat="42.82472" lon="-0.57908">
        <ele>1694.460938</ele>
        <time>2011-05-17T09:33:36Z</time>
      </trkpt>
      <trkpt lat="42.82472" lon="-0.57903">
        <ele>1694.94165</ele>
        <time>2011-05-17T09:33:41Z</time>
      </trkpt>
      <trkpt lat="42.82472" lon="-0.57888">
        <ele>1696.864258</ele>
        <time>2011-05-17T09:33:54Z</time>
      </trkpt>
      <trkpt lat="42.82471" lon="-0.57865">
        <ele>1697.825684</ele>
        <time>2011-05-17T09:34:13Z</time>
      </trkpt>
      <trkpt lat="42.82472" lon="-0.5785">
        <ele>1698.306152</ele>
        <time>2011-05-17T09:34:27Z</time>
      </trkpt>
      <trkpt lat="42.8247" lon="-0.57839">
        <ele>1699.748291</ele>
        <time>2011-05-17T09:34:41Z</time>
      </trkpt>
      <trkpt lat="42.8247" lon="-0.57822">
        <ele>1700.229004</ele>
        <time>2011-05-17T09:34:57Z</time>
      </trkpt>
      <trkpt lat="42.82476" lon="-0.57806">
        <ele>1702.63208</ele>
        <time>2011-05-17T09:35:15Z</time>
      </trkpt>
      <trkpt lat="42.82484" lon="-0.57787">
        <ele>1704.554688</ele>
        <time>2011-05-17T09:35:34Z</time>
      </trkpt>
      <trkpt lat="42.82486" lon="-0.57773">
        <ele>1707.919434</ele>
        <time>2011-05-17T09:35:48Z</time>
      </trkpt>
      <trkpt lat="42.82495" lon="-0.57761">
        <ele>1709.842041</ele>
        <time>2011-05-17T09:36:06Z</time>
      </trkpt>
      <trkpt lat="42.82502" lon="-0.57776">
        <ele>1711.28418</ele>
        <time>2011-05-17T09:36:24Z</time>
      </trkpt>
      <trkpt lat="42.825" lon="-0.57793">
        <ele>1712.726074</ele>
        <time>2011-05-17T09:36:41Z</time>
      </trkpt>
      <trkpt lat="42.82506" lon="-0.57813">
        <ele>1715.129395</ele>
        <time>2011-05-17T09:37:02Z</time>
      </trkpt>
      <trkpt lat="42.82514" lon="-0.57833">
        <ele>1717.532471</ele>
        <time>2011-05-17T09:37:23Z</time>
      </trkpt>
      <trkpt lat="42.82521" lon="-0.57843">
        <ele>1718.013184</ele>
        <time>2011-05-17T09:37:41Z</time>
      </trkpt>
      <trkpt lat="42.82528" lon="-0.5786">
        <ele>1719.935791</ele>
        <time>2011-05-17T09:37:59Z</time>
      </trkpt>
      <trkpt lat="42.82531" lon="-0.57878">
        <ele>1723.300537</ele>
        <time>2011-05-17T09:38:17Z</time>
      </trkpt>
      <trkpt lat="42.8254" lon="-0.57895">
        <ele>1725.223145</ele>
        <time>2011-05-17T09:38:37Z</time>
      </trkpt>
      <trkpt lat="42.8255" lon="-0.5791">
        <ele>1728.107178</ele>
        <time>2011-05-17T09:38:56Z</time>
      </trkpt>
      <trkpt lat="42.82557" lon="-0.57922">
        <ele>1730.029785</ele>
        <time>2011-05-17T09:39:10Z</time>
      </trkpt>
      <trkpt lat="42.82557" lon="-0.57939">
        <ele>1732.433105</ele>
        <time>2011-05-17T09:39:27Z</time>
      </trkpt>
      <trkpt lat="42.82566" lon="-0.57943">
        <ele>1735.316895</ele>
        <time>2011-05-17T09:39:45Z</time>
      </trkpt>
      <trkpt lat="42.8258" lon="-0.57934">
        <ele>1737.720215</ele>
        <time>2011-05-17T09:40:03Z</time>
      </trkpt>
      <trkpt lat="42.82595" lon="-0.57926">
        <ele>1739.642822</ele>
        <time>2011-05-17T09:40:22Z</time>
      </trkpt>
      <trkpt lat="42.82595" lon="-0.57925">
        <ele>1739.162109</ele>
        <time>2011-05-17T09:40:23Z</time>
      </trkpt>
      <trkpt lat="42.826" lon="-0.57919">
        <ele>1741.084961</ele>
        <time>2011-05-17T09:40:31Z</time>
      </trkpt>
      <trkpt lat="42.82607" lon="-0.57912">
        <ele>1744.449463</ele>
        <time>2011-05-17T09:40:45Z</time>
      </trkpt>
      <trkpt lat="42.82608" lon="-0.57913">
        <ele>1744.930176</ele>
        <time>2011-05-17T09:40:46Z</time>
      </trkpt>
      <trkpt lat="42.8261" lon="-0.5792">
        <ele>1744.930176</ele>
        <time>2011-05-17T09:41:05Z</time>
      </trkpt>
      <trkpt lat="42.8261" lon="-0.5792">
        <ele>1744.930176</ele>
        <time>2011-05-17T09:41:53Z</time>
      </trkpt>
      <trkpt lat="42.82611" lon="-0.57921">
        <ele>1744.449463</ele>
        <time>2011-05-17T09:42:23Z</time>
      </trkpt>
      <trkpt lat="42.82612" lon="-0.57922">
        <ele>1745.891602</ele>
        <time>2011-05-17T09:42:58Z</time>
      </trkpt>
      <trkpt lat="42.82624" lon="-0.57935">
        <ele>1747.814209</ele>
        <time>2011-05-17T09:43:17Z</time>
      </trkpt>
      <trkpt lat="42.8263" lon="-0.57944">
        <ele>1751.178711</ele>
        <time>2011-05-17T09:43:28Z</time>
      </trkpt>
      <trkpt lat="42.82636" lon="-0.57958">
        <ele>1753.101318</ele>
        <time>2011-05-17T09:43:45Z</time>
      </trkpt>
      <trkpt lat="42.82645" lon="-0.57968">
        <ele>1755.023926</ele>
        <time>2011-05-17T09:44:01Z</time>
      </trkpt>
      <trkpt lat="42.82654" lon="-0.57982">
        <ele>1757.42749</ele>
        <time>2011-05-17T09:44:20Z</time>
      </trkpt>
      <trkpt lat="42.82661" lon="-0.5799">
        <ele>1760.791992</ele>
        <time>2011-05-17T09:44:34Z</time>
      </trkpt>
      <trkpt lat="42.82671" lon="-0.57985">
        <ele>1763.195312</ele>
        <time>2011-05-17T09:44:52Z</time>
      </trkpt>
      <trkpt lat="42.8268" lon="-0.57982">
        <ele>1766.559814</ele>
        <time>2011-05-17T09:45:06Z</time>
      </trkpt>
      <trkpt lat="42.82684" lon="-0.57999">
        <ele>1768.963135</ele>
        <time>2011-05-17T09:45:25Z</time>
      </trkpt>
      <trkpt lat="42.82688" lon="-0.58016">
        <ele>1770.885742</ele>
        <time>2011-05-17T09:45:43Z</time>
      </trkpt>
      <trkpt lat="42.82692" lon="-0.58038">
        <ele>1772.808594</ele>
        <time>2011-05-17T09:46:04Z</time>
      </trkpt>
      <trkpt lat="42.82696" lon="-0.58059">
        <ele>1774.731201</ele>
        <time>2011-05-17T09:46:23Z</time>
      </trkpt>
      <trkpt lat="42.82696" lon="-0.58081">
        <ele>1777.134521</ele>
        <time>2011-05-17T09:46:43Z</time>
      </trkpt>
      <trkpt lat="42.82696" lon="-0.58102">
        <ele>1780.499023</ele>
        <time>2011-05-17T09:47:03Z</time>
      </trkpt>
      <trkpt lat="42.82696" lon="-0.5812">
        <ele>1782.421631</ele>
        <time>2011-05-17T09:47:21Z</time>
      </trkpt>
      <trkpt lat="42.82698" lon="-0.58135">
        <ele>1784.344238</ele>
        <time>2011-05-17T09:47:38Z</time>
      </trkpt>
      <trkpt lat="42.82709" lon="-0.58135">
        <ele>1786.747314</ele>
        <time>2011-05-17T09:47:54Z</time>
      </trkpt>
      <trkpt lat="42.8272" lon="-0.58128">
        <ele>1789.150879</ele>
        <time>2011-05-17T09:48:10Z</time>
      </trkpt>
      <trkpt lat="42.82733" lon="-0.58122">
        <ele>1791.073486</ele>
        <time>2011-05-17T09:48:29Z</time>
      </trkpt>
      <trkpt lat="42.82745" lon="-0.58118">
        <ele>1792.515625</ele>
        <time>2011-05-17T09:48:46Z</time>
      </trkpt>
      <trkpt lat="42.82759" lon="-0.58109">
        <ele>1795.399414</ele>
        <time>2011-05-17T09:49:06Z</time>
      </trkpt>
      <trkpt lat="42.82771" lon="-0.58101">
        <ele>1797.322021</ele>
        <time>2011-05-17T09:49:24Z</time>
      </trkpt>
      <trkpt lat="42.82781" lon="-0.58094">
        <ele>1800.206055</ele>
        <time>2011-05-17T09:49:41Z</time>
      </trkpt>
      <trkpt lat="42.82788" lon="-0.58081">
        <ele>1802.128418</ele>
        <time>2011-05-17T09:49:59Z</time>
      </trkpt>
      <trkpt lat="42.82796" lon="-0.58074">
        <ele>1804.051514</ele>
        <time>2011-05-17T09:50:14Z</time>
      </trkpt>
      <trkpt lat="42.82801" lon="-0.58068">
        <ele>1807.416016</ele>
        <time>2011-05-17T09:50:26Z</time>
      </trkpt>
      <trkpt lat="42.82812" lon="-0.58059">
        <ele>1808.85791</ele>
        <time>2011-05-17T09:50:43Z</time>
      </trkpt>
      <trkpt lat="42.82822" lon="-0.58049">
        <ele>1810.780518</ele>
        <time>2011-05-17T09:51:01Z</time>
      </trkpt>
      <trkpt lat="42.82828" lon="-0.58039">
        <ele>1811.26123</ele>
        <time>2011-05-17T09:51:16Z</time>
      </trkpt>
      <trkpt lat="42.82829" lon="-0.58028">
        <ele>1814.625732</ele>
        <time>2011-05-17T09:51:30Z</time>
      </trkpt>
      <trkpt lat="42.82832" lon="-0.58015">
        <ele>1816.067627</ele>
        <time>2011-05-17T09:51:45Z</time>
      </trkpt>
      <trkpt lat="42.82831" lon="-0.57998">
        <ele>1818.470947</ele>
        <time>2011-05-17T09:52:02Z</time>
      </trkpt>
      <trkpt lat="42.8283" lon="-0.57983">
        <ele>1820.393799</ele>
        <time>2011-05-17T09:52:20Z</time>
      </trkpt>
      <trkpt lat="42.82829" lon="-0.57967">
        <ele>1823.758301</ele>
        <time>2011-05-17T09:52:38Z</time>
      </trkpt>
      <trkpt lat="42.82833" lon="-0.57951">
        <ele>1826.161621</ele>
        <time>2011-05-17T09:52:56Z</time>
      </trkpt>
      <trkpt lat="42.82839" lon="-0.57935">
        <ele>1828.564941</ele>
        <time>2011-05-17T09:53:13Z</time>
      </trkpt>
      <trkpt lat="42.82847" lon="-0.57918">
        <ele>1831.44873</ele>
        <time>2011-05-17T09:53:33Z</time>
      </trkpt>
      <trkpt lat="42.82852" lon="-0.57904">
        <ele>1832.410156</ele>
        <time>2011-05-17T09:53:49Z</time>
      </trkpt>
      <trkpt lat="42.82854" lon="-0.57893">
        <ele>1835.293945</ele>
        <time>2011-05-17T09:54:05Z</time>
      </trkpt>
      <trkpt lat="42.82859" lon="-0.57886">
        <ele>1837.69751</ele>
        <time>2011-05-17T09:54:17Z</time>
      </trkpt>
      <trkpt lat="42.82868" lon="-0.57881">
        <ele>1840.10083</ele>
        <time>2011-05-17T09:54:36Z</time>
      </trkpt>
      <trkpt lat="42.82871" lon="-0.57876">
        <ele>1839.139404</ele>
        <time>2011-05-17T09:54:55Z</time>
      </trkpt>
      <trkpt lat="42.82876" lon="-0.57879">
        <ele>1841.062012</ele>
        <time>2011-05-17T09:55:11Z</time>
      </trkpt>
      <trkpt lat="42.82875" lon="-0.57899">
        <ele>1842.984619</ele>
        <time>2011-05-17T09:55:30Z</time>
      </trkpt>
      <trkpt lat="42.82882" lon="-0.57914">
        <ele>1845.868652</ele>
        <time>2011-05-17T09:55:46Z</time>
      </trkpt>
      <trkpt lat="42.82889" lon="-0.57931">
        <ele>1849.233154</ele>
        <time>2011-05-17T09:56:04Z</time>
      </trkpt>
      <trkpt lat="42.82895" lon="-0.57948">
        <ele>1851.155762</ele>
        <time>2011-05-17T09:56:23Z</time>
      </trkpt>
      <trkpt lat="42.829" lon="-0.57963">
        <ele>1854.040039</ele>
        <time>2011-05-17T09:56:38Z</time>
      </trkpt>
      <trkpt lat="42.82905" lon="-0.57963">
        <ele>1855.481934</ele>
        <time>2011-05-17T09:56:48Z</time>
      </trkpt>
      <trkpt lat="42.8291" lon="-0.57948">
        <ele>1858.365723</ele>
        <time>2011-05-17T09:57:04Z</time>
      </trkpt>
      <trkpt lat="42.82914" lon="-0.57942">
        <ele>1861.249756</ele>
        <time>2011-05-17T09:57:15Z</time>
      </trkpt>
      <trkpt lat="42.82916" lon="-0.57933">
        <ele>1861.730469</ele>
        <time>2011-05-17T09:57:42Z</time>
      </trkpt>
      <trkpt lat="42.8292" lon="-0.57923">
        <ele>1863.652832</ele>
        <time>2011-05-17T09:57:52Z</time>
      </trkpt>
      <trkpt lat="42.82923" lon="-0.57917">
        <ele>1864.614258</ele>
        <time>2011-05-17T09:57:57Z</time>
      </trkpt>
      <trkpt lat="42.82929" lon="-0.579">
        <ele>1867.97876</ele>
        <time>2011-05-17T09:58:13Z</time>
      </trkpt>
      <trkpt lat="42.82936" lon="-0.57888">
        <ele>1869.901611</ele>
        <time>2011-05-17T09:58:27Z</time>
      </trkpt>
      <trkpt lat="42.8294" lon="-0.57873">
        <ele>1871.343506</ele>
        <time>2011-05-17T09:58:40Z</time>
      </trkpt>
      <trkpt lat="42.82949" lon="-0.57857">
        <ele>1874.708252</ele>
        <time>2011-05-17T09:58:57Z</time>
      </trkpt>
      <trkpt lat="42.82954" lon="-0.5785">
        <ele>1879.033936</ele>
        <time>2011-05-17T09:59:19Z</time>
      </trkpt>
      <trkpt lat="42.82954" lon="-0.5785">
        <ele>1877.111572</ele>
        <time>2011-05-17T09:59:20Z</time>
      </trkpt>
      <trkpt lat="42.82956" lon="-0.57844">
        <ele>1877.111572</ele>
        <time>2011-05-17T09:59:30Z</time>
      </trkpt>
      <trkpt lat="42.82964" lon="-0.57836">
        <ele>1879.995361</ele>
        <time>2011-05-17T09:59:41Z</time>
      </trkpt>
      <trkpt lat="42.82967" lon="-0.5783">
        <ele>1881.437256</ele>
        <time>2011-05-17T09:59:47Z</time>
      </trkpt>
      <trkpt lat="42.82979" lon="-0.57811">
        <ele>1883.840576</ele>
        <time>2011-05-17T10:00:06Z</time>
      </trkpt>
      <trkpt lat="42.82984" lon="-0.57797">
        <ele>1886.724609</ele>
        <time>2011-05-17T10:00:21Z</time>
      </trkpt>
      <trkpt lat="42.82988" lon="-0.57784">
        <ele>1889.608643</ele>
        <time>2011-05-17T10:00:36Z</time>
      </trkpt>
      <trkpt lat="42.82994" lon="-0.57763">
        <ele>1892.492676</ele>
        <time>2011-05-17T10:00:54Z</time>
      </trkpt>
      <trkpt lat="42.82998" lon="-0.57752">
        <ele>1895.857178</ele>
        <time>2011-05-17T10:01:07Z</time>
      </trkpt>
      <trkpt lat="42.83003" lon="-0.57742">
        <ele>1898.740967</ele>
        <time>2011-05-17T10:01:24Z</time>
      </trkpt>
      <trkpt lat="42.83002" lon="-0.5774">
        <ele>1898.740967</ele>
        <time>2011-05-17T10:02:02Z</time>
      </trkpt>
      <trkpt lat="42.83004" lon="-0.57738">
        <ele>1899.22168</ele>
        <time>2011-05-17T10:02:22Z</time>
      </trkpt>
      <trkpt lat="42.83004" lon="-0.57737">
        <ele>1899.702393</ele>
        <time>2011-05-17T10:03:10Z</time>
      </trkpt>
      <trkpt lat="42.83006" lon="-0.57734">
        <ele>1900.663818</ele>
        <time>2011-05-17T10:04:02Z</time>
      </trkpt>
      <trkpt lat="42.83012" lon="-0.57713">
        <ele>1902.105713</ele>
        <time>2011-05-17T10:04:21Z</time>
      </trkpt>
      <trkpt lat="42.83017" lon="-0.577">
        <ele>1904.509033</ele>
        <time>2011-05-17T10:04:36Z</time>
      </trkpt>
      <trkpt lat="42.83019" lon="-0.577">
        <ele>1905.470459</ele>
        <time>2011-05-17T10:04:55Z</time>
      </trkpt>
      <trkpt lat="42.83017" lon="-0.57702">
        <ele>1904.509033</ele>
        <time>2011-05-17T10:05:43Z</time>
      </trkpt>
      <trkpt lat="42.83016" lon="-0.57703">
        <ele>1904.989746</ele>
        <time>2011-05-17T10:06:10Z</time>
      </trkpt>
      <trkpt lat="42.83018" lon="-0.57708">
        <ele>1904.509033</ele>
        <time>2011-05-17T10:06:37Z</time>
      </trkpt>
      <trkpt lat="42.83017" lon="-0.5772">
        <ele>1905.470459</ele>
        <time>2011-05-17T10:06:47Z</time>
      </trkpt>
      <trkpt lat="42.83015" lon="-0.57747">
        <ele>1906.912354</ele>
        <time>2011-05-17T10:07:08Z</time>
      </trkpt>
      <trkpt lat="42.83015" lon="-0.57755">
        <ele>1907.393066</ele>
        <time>2011-05-17T10:07:29Z</time>
      </trkpt>
      <trkpt lat="42.83017" lon="-0.57781">
        <ele>1908.834961</ele>
        <time>2011-05-17T10:07:48Z</time>
      </trkpt>
      <trkpt lat="42.83014" lon="-0.57797">
        <ele>1912.199463</ele>
        <time>2011-05-17T10:08:03Z</time>
      </trkpt>
      <trkpt lat="42.83013" lon="-0.57807">
        <ele>1913.641357</ele>
        <time>2011-05-17T10:08:23Z</time>
      </trkpt>
      <trkpt lat="42.83013" lon="-0.57832">
        <ele>1914.602783</ele>
        <time>2011-05-17T10:08:42Z</time>
      </trkpt>
      <trkpt lat="42.83021" lon="-0.5785">
        <ele>1915.083496</ele>
        <time>2011-05-17T10:09:14Z</time>
      </trkpt>
      <trkpt lat="42.83035" lon="-0.57871">
        <ele>1913.641357</ele>
        <time>2011-05-17T10:09:33Z</time>
      </trkpt>
      <trkpt lat="42.83047" lon="-0.5789">
        <ele>1912.199463</ele>
        <time>2011-05-17T10:09:53Z</time>
      </trkpt>
      <trkpt lat="42.83052" lon="-0.57907">
        <ele>1912.199463</ele>
        <time>2011-05-17T10:10:16Z</time>
      </trkpt>
      <trkpt lat="42.83054" lon="-0.57908">
        <ele>1911.718994</ele>
        <time>2011-05-17T10:10:18Z</time>
      </trkpt>
      <trkpt lat="42.83057" lon="-0.57914">
        <ele>1910.757568</ele>
        <time>2011-05-17T10:10:23Z</time>
      </trkpt>
      <trkpt lat="42.8306" lon="-0.57919">
        <ele>1911.238281</ele>
        <time>2011-05-17T10:10:28Z</time>
      </trkpt>
      <trkpt lat="42.83071" lon="-0.5793">
        <ele>1907.393066</ele>
        <time>2011-05-17T10:10:42Z</time>
      </trkpt>
      <trkpt lat="42.83082" lon="-0.57938">
        <ele>1905.470459</ele>
        <time>2011-05-17T10:10:55Z</time>
      </trkpt>
      <trkpt lat="42.83099" lon="-0.5796">
        <ele>1906.431641</ele>
        <time>2011-05-17T10:11:16Z</time>
      </trkpt>
      <trkpt lat="42.83102" lon="-0.57967">
        <ele>1906.912354</ele>
        <time>2011-05-17T10:11:21Z</time>
      </trkpt>
      <trkpt lat="42.83104" lon="-0.5797">
        <ele>1906.431641</ele>
        <time>2011-05-17T10:11:24Z</time>
      </trkpt>
      <trkpt lat="42.83109" lon="-0.57975">
        <ele>1906.912354</ele>
        <time>2011-05-17T10:11:29Z</time>
      </trkpt>
      <trkpt lat="42.8311" lon="-0.57977">
        <ele>1907.393066</ele>
        <time>2011-05-17T10:11:31Z</time>
      </trkpt>
      <trkpt lat="42.83122" lon="-0.57995">
        <ele>1909.315674</ele>
        <time>2011-05-17T10:11:49Z</time>
      </trkpt>
      <trkpt lat="42.83125" lon="-0.58002">
        <ele>1909.315674</ele>
        <time>2011-05-17T10:11:55Z</time>
      </trkpt>
      <trkpt lat="42.83126" lon="-0.58013">
        <ele>1910.276855</ele>
        <time>2011-05-17T10:12:04Z</time>
      </trkpt>
      <trkpt lat="42.83128" lon="-0.58024">
        <ele>1909.315674</ele>
        <time>2011-05-17T10:12:12Z</time>
      </trkpt>
      <trkpt lat="42.83128" lon="-0.58038">
        <ele>1908.354248</ele>
        <time>2011-05-17T10:12:29Z</time>
      </trkpt>
      <trkpt lat="42.83135" lon="-0.58043">
        <ele>1907.393066</ele>
        <time>2011-05-17T10:12:45Z</time>
      </trkpt>
      <trkpt lat="42.83142" lon="-0.58049">
        <ele>1904.989746</ele>
        <time>2011-05-17T10:12:55Z</time>
      </trkpt>
      <trkpt lat="42.83154" lon="-0.58069">
        <ele>1904.509033</ele>
        <time>2011-05-17T10:13:12Z</time>
      </trkpt>
      <trkpt lat="42.83164" lon="-0.5808">
        <ele>1908.354248</ele>
        <time>2011-05-17T10:13:26Z</time>
      </trkpt>
      <trkpt lat="42.83172" lon="-0.58083">
        <ele>1910.276855</ele>
        <time>2011-05-17T10:13:42Z</time>
      </trkpt>
      <trkpt lat="42.83182" lon="-0.58091">
        <ele>1908.834961</ele>
        <time>2011-05-17T10:13:58Z</time>
      </trkpt>
      <trkpt lat="42.83186" lon="-0.58103">
        <ele>1908.354248</ele>
        <time>2011-05-17T10:14:07Z</time>
      </trkpt>
      <trkpt lat="42.83197" lon="-0.58112">
        <ele>1907.873779</ele>
        <time>2011-05-17T10:14:23Z</time>
      </trkpt>
      <trkpt lat="42.83198" lon="-0.58112">
        <ele>1907.873779</ele>
        <time>2011-05-17T10:14:24Z</time>
      </trkpt>
      <trkpt lat="42.8321" lon="-0.58127">
        <ele>1909.315674</ele>
        <time>2011-05-17T10:14:42Z</time>
      </trkpt>
      <trkpt lat="42.83222" lon="-0.58152">
        <ele>1908.354248</ele>
        <time>2011-05-17T10:15:02Z</time>
      </trkpt>
      <trkpt lat="42.83237" lon="-0.5818">
        <ele>1907.393066</ele>
        <time>2011-05-17T10:15:22Z</time>
      </trkpt>
      <trkpt lat="42.83251" lon="-0.58189">
        <ele>1907.873779</ele>
        <time>2011-05-17T10:15:34Z</time>
      </trkpt>
      <trkpt lat="42.83272" lon="-0.58198">
        <ele>1908.354248</ele>
        <time>2011-05-17T10:15:52Z</time>
      </trkpt>
      <trkpt lat="42.83285" lon="-0.58214">
        <ele>1905.950928</ele>
        <time>2011-05-17T10:16:10Z</time>
      </trkpt>
      <trkpt lat="42.83292" lon="-0.58225">
        <ele>1904.509033</ele>
        <time>2011-05-17T10:16:24Z</time>
      </trkpt>
      <trkpt lat="42.83293" lon="-0.58226">
        <ele>1903.547852</ele>
        <time>2011-05-17T10:16:25Z</time>
      </trkpt>
      <trkpt lat="42.83305" lon="-0.58245">
        <ele>1901.144531</ele>
        <time>2011-05-17T10:16:43Z</time>
      </trkpt>
      <trkpt lat="42.83322" lon="-0.5826">
        <ele>1899.22168</ele>
        <time>2011-05-17T10:17:01Z</time>
      </trkpt>
      <trkpt lat="42.83338" lon="-0.58273">
        <ele>1901.625244</ele>
        <time>2011-05-17T10:17:20Z</time>
      </trkpt>
      <trkpt lat="42.83347" lon="-0.58286">
        <ele>1898.740967</ele>
        <time>2011-05-17T10:17:37Z</time>
      </trkpt>
      <trkpt lat="42.83359" lon="-0.583">
        <ele>1896.818359</ele>
        <time>2011-05-17T10:17:54Z</time>
      </trkpt>
      <trkpt lat="42.83362" lon="-0.58303">
        <ele>1895.857178</ele>
        <time>2011-05-17T10:17:58Z</time>
      </trkpt>
      <trkpt lat="42.83371" lon="-0.5832">
        <ele>1892.492676</ele>
        <time>2011-05-17T10:18:17Z</time>
      </trkpt>
      <trkpt lat="42.83375" lon="-0.58325">
        <ele>1892.492676</ele>
        <time>2011-05-17T10:18:24Z</time>
      </trkpt>
      <trkpt lat="42.83389" lon="-0.58341">
        <ele>1893.453857</ele>
        <time>2011-05-17T10:18:42Z</time>
      </trkpt>
      <trkpt lat="42.83404" lon="-0.58355">
        <ele>1893.453857</ele>
        <time>2011-05-17T10:19:01Z</time>
      </trkpt>
      <trkpt lat="42.83409" lon="-0.5837">
        <ele>1893.93457</ele>
        <time>2011-05-17T10:19:14Z</time>
      </trkpt>
      <trkpt lat="42.83414" lon="-0.58377">
        <ele>1893.93457</ele>
        <time>2011-05-17T10:19:21Z</time>
      </trkpt>
      <trkpt lat="42.83422" lon="-0.58384">
        <ele>1893.453857</ele>
        <time>2011-05-17T10:19:35Z</time>
      </trkpt>
      <trkpt lat="42.83425" lon="-0.584">
        <ele>1893.93457</ele>
        <time>2011-05-17T10:19:52Z</time>
      </trkpt>
      <trkpt lat="42.83424" lon="-0.58403">
        <ele>1894.895752</ele>
        <time>2011-05-17T10:20:12Z</time>
      </trkpt>
      <trkpt lat="42.83425" lon="-0.58403">
        <ele>1894.415039</ele>
        <time>2011-05-17T10:20:31Z</time>
      </trkpt>
      <trkpt lat="42.83423" lon="-0.58406">
        <ele>1894.415039</ele>
        <time>2011-05-17T10:20:52Z</time>
      </trkpt>
      <trkpt lat="42.83422" lon="-0.58406">
        <ele>1894.415039</ele>
        <time>2011-05-17T10:21:00Z</time>
      </trkpt>
      <trkpt lat="42.83418" lon="-0.58409">
        <ele>1894.895752</ele>
        <time>2011-05-17T10:21:04Z</time>
      </trkpt>
      <trkpt lat="42.83402" lon="-0.58427">
        <ele>1895.376465</ele>
        <time>2011-05-17T10:21:23Z</time>
      </trkpt>
      <trkpt lat="42.83385" lon="-0.58437">
        <ele>1897.299072</ele>
        <time>2011-05-17T10:21:42Z</time>
      </trkpt>
      <trkpt lat="42.83368" lon="-0.58444">
        <ele>1900.18335</ele>
        <time>2011-05-17T10:22:00Z</time>
      </trkpt>
      <trkpt lat="42.83358" lon="-0.58456">
        <ele>1900.18335</ele>
        <time>2011-05-17T10:22:14Z</time>
      </trkpt>
      <trkpt lat="42.83357" lon="-0.58478">
        <ele>1902.105713</ele>
        <time>2011-05-17T10:22:31Z</time>
      </trkpt>
      <trkpt lat="42.83356" lon="-0.58486">
        <ele>1902.586426</ele>
        <time>2011-05-17T10:22:37Z</time>
      </trkpt>
      <trkpt lat="42.83352" lon="-0.58496">
        <ele>1904.989746</ele>
        <time>2011-05-17T10:22:57Z</time>
      </trkpt>
      <trkpt lat="42.83349" lon="-0.58503">
        <ele>1904.509033</ele>
        <time>2011-05-17T10:23:16Z</time>
      </trkpt>
      <trkpt lat="42.83347" lon="-0.58505">
        <ele>1903.547852</ele>
        <time>2011-05-17T10:23:18Z</time>
      </trkpt>
      <trkpt lat="42.83335" lon="-0.58533">
        <ele>1901.625244</ele>
        <time>2011-05-17T10:23:38Z</time>
      </trkpt>
      <trkpt lat="42.83328" lon="-0.58549">
        <ele>1898.260254</ele>
        <time>2011-05-17T10:23:49Z</time>
      </trkpt>
      <trkpt lat="42.83327" lon="-0.5855">
        <ele>1898.260254</ele>
        <time>2011-05-17T10:23:50Z</time>
      </trkpt>
      <trkpt lat="42.83315" lon="-0.58576">
        <ele>1897.779785</ele>
        <time>2011-05-17T10:24:08Z</time>
      </trkpt>
      <trkpt lat="42.83301" lon="-0.58602">
        <ele>1897.299072</ele>
        <time>2011-05-17T10:24:27Z</time>
      </trkpt>
      <trkpt lat="42.83291" lon="-0.58629">
        <ele>1895.857178</ele>
        <time>2011-05-17T10:24:45Z</time>
      </trkpt>
      <trkpt lat="42.83289" lon="-0.58659">
        <ele>1895.376465</ele>
        <time>2011-05-17T10:25:03Z</time>
      </trkpt>
      <trkpt lat="42.83287" lon="-0.58701">
        <ele>1892.973145</ele>
        <time>2011-05-17T10:25:28Z</time>
      </trkpt>
      <trkpt lat="42.83287" lon="-0.58703">
        <ele>1892.492676</ele>
        <time>2011-05-17T10:25:29Z</time>
      </trkpt>
      <trkpt lat="42.83284" lon="-0.58733">
        <ele>1892.011963</ele>
        <time>2011-05-17T10:25:48Z</time>
      </trkpt>
      <trkpt lat="42.83289" lon="-0.58753">
        <ele>1891.050537</ele>
        <time>2011-05-17T10:26:02Z</time>
      </trkpt>
      <trkpt lat="42.83298" lon="-0.58778">
        <ele>1889.12793</ele>
        <time>2011-05-17T10:26:19Z</time>
      </trkpt>
      <trkpt lat="42.83298" lon="-0.58817">
        <ele>1889.12793</ele>
        <time>2011-05-17T10:26:43Z</time>
      </trkpt>
      <trkpt lat="42.83294" lon="-0.58848">
        <ele>1888.647461</ele>
        <time>2011-05-17T10:27:05Z</time>
      </trkpt>
      <trkpt lat="42.83292" lon="-0.58874">
        <ele>1887.686035</ele>
        <time>2011-05-17T10:27:23Z</time>
      </trkpt>
      <trkpt lat="42.83289" lon="-0.58903">
        <ele>1886.244141</ele>
        <time>2011-05-17T10:27:43Z</time>
      </trkpt>
      <trkpt lat="42.83287" lon="-0.58926">
        <ele>1884.802246</ele>
        <time>2011-05-17T10:28:03Z</time>
      </trkpt>
      <trkpt lat="42.83285" lon="-0.58945">
        <ele>1882.87915</ele>
        <time>2011-05-17T10:28:31Z</time>
      </trkpt>
      <trkpt lat="42.83278" lon="-0.58971">
        <ele>1881.437256</ele>
        <time>2011-05-17T10:28:47Z</time>
      </trkpt>
      <trkpt lat="42.83271" lon="-0.59001">
        <ele>1881.437256</ele>
        <time>2011-05-17T10:29:05Z</time>
      </trkpt>
      <trkpt lat="42.83263" lon="-0.59023">
        <ele>1882.87915</ele>
        <time>2011-05-17T10:29:21Z</time>
      </trkpt>
      <trkpt lat="42.83255" lon="-0.59048">
        <ele>1882.87915</ele>
        <time>2011-05-17T10:29:39Z</time>
      </trkpt>
      <trkpt lat="42.83256" lon="-0.59079">
        <ele>1883.359863</ele>
        <time>2011-05-17T10:29:59Z</time>
      </trkpt>
      <trkpt lat="42.83257" lon="-0.59107">
        <ele>1882.398682</ele>
        <time>2011-05-17T10:30:18Z</time>
      </trkpt>
      <trkpt lat="42.83258" lon="-0.59121">
        <ele>1881.917969</ele>
        <time>2011-05-17T10:30:29Z</time>
      </trkpt>
      <trkpt lat="42.83255" lon="-0.59127">
        <ele>1880.956787</ele>
        <time>2011-05-17T10:30:35Z</time>
      </trkpt>
      <trkpt lat="42.83242" lon="-0.59135">
        <ele>1879.995361</ele>
        <time>2011-05-17T10:30:53Z</time>
      </trkpt>
      <trkpt lat="42.83233" lon="-0.59148">
        <ele>1878.553467</ele>
        <time>2011-05-17T10:31:07Z</time>
      </trkpt>
      <trkpt lat="42.83226" lon="-0.59162">
        <ele>1875.669434</ele>
        <time>2011-05-17T10:31:19Z</time>
      </trkpt>
      <trkpt lat="42.83225" lon="-0.59169">
        <ele>1876.150146</ele>
        <time>2011-05-17T10:31:24Z</time>
      </trkpt>
      <trkpt lat="42.8322" lon="-0.59193">
        <ele>1873.266357</ele>
        <time>2011-05-17T10:31:40Z</time>
      </trkpt>
      <trkpt lat="42.83225" lon="-0.59204">
        <ele>1874.227539</ele>
        <time>2011-05-17T10:31:48Z</time>
      </trkpt>
      <trkpt lat="42.83228" lon="-0.59213">
        <ele>1875.669434</ele>
        <time>2011-05-17T10:31:56Z</time>
      </trkpt>
      <trkpt lat="42.83237" lon="-0.59236">
        <ele>1875.188721</ele>
        <time>2011-05-17T10:32:13Z</time>
      </trkpt>
      <trkpt lat="42.8324" lon="-0.59267">
        <ele>1873.266357</ele>
        <time>2011-05-17T10:32:34Z</time>
      </trkpt>
      <trkpt lat="42.8324" lon="-0.5927">
        <ele>1871.824219</ele>
        <time>2011-05-17T10:32:36Z</time>
      </trkpt>
      <trkpt lat="42.83249" lon="-0.59304">
        <ele>1871.824219</ele>
        <time>2011-05-17T10:32:58Z</time>
      </trkpt>
      <trkpt lat="42.83252" lon="-0.5933">
        <ele>1871.824219</ele>
        <time>2011-05-17T10:33:17Z</time>
      </trkpt>
      <trkpt lat="42.83255" lon="-0.59341">
        <ele>1871.824219</ele>
        <time>2011-05-17T10:33:33Z</time>
      </trkpt>
      <trkpt lat="42.83256" lon="-0.59352">
        <ele>1871.824219</ele>
        <time>2011-05-17T10:34:14Z</time>
      </trkpt>
      <trkpt lat="42.83261" lon="-0.59378">
        <ele>1869.901611</ele>
        <time>2011-05-17T10:34:32Z</time>
      </trkpt>
      <trkpt lat="42.83277" lon="-0.59397">
        <ele>1872.304932</ele>
        <time>2011-05-17T10:34:51Z</time>
      </trkpt>
      <trkpt lat="42.83279" lon="-0.59399">
        <ele>1872.785645</ele>
        <time>2011-05-17T10:35:07Z</time>
      </trkpt>
      <trkpt lat="42.83279" lon="-0.59399">
        <ele>1872.785645</ele>
        <time>2011-05-17T10:35:16Z</time>
      </trkpt>
      <trkpt lat="42.83271" lon="-0.59406">
        <ele>1873.266357</ele>
        <time>2011-05-17T10:35:32Z</time>
      </trkpt>
      <trkpt lat="42.83278" lon="-0.594">
        <ele>1873.266357</ele>
        <time>2011-05-17T10:36:12Z</time>
      </trkpt>
      <trkpt lat="42.83277" lon="-0.59403">
        <ele>1873.746826</ele>
        <time>2011-05-17T10:36:25Z</time>
      </trkpt>
      <trkpt lat="42.83277" lon="-0.59404">
        <ele>1873.266357</ele>
        <time>2011-05-17T10:36:26Z</time>
      </trkpt>
      <trkpt lat="42.83268" lon="-0.59438">
        <ele>1871.824219</ele>
        <time>2011-05-17T10:36:50Z</time>
      </trkpt>
      <trkpt lat="42.8327" lon="-0.59448">
        <ele>1871.343506</ele>
        <time>2011-05-17T10:36:58Z</time>
      </trkpt>
      <trkpt lat="42.83269" lon="-0.59455">
        <ele>1869.421143</ele>
        <time>2011-05-17T10:37:03Z</time>
      </trkpt>
      <trkpt lat="42.8327" lon="-0.5948">
        <ele>1869.901611</ele>
        <time>2011-05-17T10:37:20Z</time>
      </trkpt>
      <trkpt lat="42.83275" lon="-0.59504">
        <ele>1869.901611</ele>
        <time>2011-05-17T10:37:39Z</time>
      </trkpt>
      <trkpt lat="42.83283" lon="-0.59527">
        <ele>1872.785645</ele>
        <time>2011-05-17T10:37:57Z</time>
      </trkpt>
      <trkpt lat="42.83293" lon="-0.59548">
        <ele>1875.669434</ele>
        <time>2011-05-17T10:38:18Z</time>
      </trkpt>
      <trkpt lat="42.833" lon="-0.59569">
        <ele>1875.188721</ele>
        <time>2011-05-17T10:38:35Z</time>
      </trkpt>
      <trkpt lat="42.83312" lon="-0.59581">
        <ele>1878.553467</ele>
        <time>2011-05-17T10:38:52Z</time>
      </trkpt>
      <trkpt lat="42.83312" lon="-0.59582">
        <ele>1878.553467</ele>
        <time>2011-05-17T10:38:53Z</time>
      </trkpt>
      <trkpt lat="42.83321" lon="-0.59594">
        <ele>1880.956787</ele>
        <time>2011-05-17T10:39:10Z</time>
      </trkpt>
      <trkpt lat="42.8333" lon="-0.59598">
        <ele>1882.398682</ele>
        <time>2011-05-17T10:39:20Z</time>
      </trkpt>
      <trkpt lat="42.83345" lon="-0.59608">
        <ele>1886.244141</ele>
        <time>2011-05-17T10:39:42Z</time>
      </trkpt>
      <trkpt lat="42.83349" lon="-0.59623">
        <ele>1886.244141</ele>
        <time>2011-05-17T10:39:57Z</time>
      </trkpt>
      <trkpt lat="42.8335" lon="-0.59629">
        <ele>1886.724609</ele>
        <time>2011-05-17T10:40:02Z</time>
      </trkpt>
      <trkpt lat="42.83348" lon="-0.59636">
        <ele>1886.724609</ele>
        <time>2011-05-17T10:40:07Z</time>
      </trkpt>
      <trkpt lat="42.83338" lon="-0.59649">
        <ele>1885.282715</ele>
        <time>2011-05-17T10:40:28Z</time>
      </trkpt>
      <trkpt lat="42.83327" lon="-0.59666">
        <ele>1885.282715</ele>
        <time>2011-05-17T10:40:46Z</time>
      </trkpt>
      <trkpt lat="42.83329" lon="-0.59693">
        <ele>1886.244141</ele>
        <time>2011-05-17T10:41:05Z</time>
      </trkpt>
      <trkpt lat="42.8334" lon="-0.59715">
        <ele>1885.763428</ele>
        <time>2011-05-17T10:41:22Z</time>
      </trkpt>
      <trkpt lat="42.83352" lon="-0.59737">
        <ele>1883.840576</ele>
        <time>2011-05-17T10:41:40Z</time>
      </trkpt>
      <trkpt lat="42.83371" lon="-0.59762">
        <ele>1883.359863</ele>
        <time>2011-05-17T10:42:01Z</time>
      </trkpt>
      <trkpt lat="42.83394" lon="-0.59779">
        <ele>1882.398682</ele>
        <time>2011-05-17T10:42:22Z</time>
      </trkpt>
      <trkpt lat="42.83414" lon="-0.59793">
        <ele>1881.437256</ele>
        <time>2011-05-17T10:42:42Z</time>
      </trkpt>
      <trkpt lat="42.83427" lon="-0.59811">
        <ele>1883.359863</ele>
        <time>2011-05-17T10:42:59Z</time>
      </trkpt>
      <trkpt lat="42.83433" lon="-0.59818">
        <ele>1883.359863</ele>
        <time>2011-05-17T10:43:14Z</time>
      </trkpt>
      <trkpt lat="42.83449" lon="-0.59837">
        <ele>1886.244141</ele>
        <time>2011-05-17T10:43:36Z</time>
      </trkpt>
      <trkpt lat="42.83453" lon="-0.59854">
        <ele>1888.647461</ele>
        <time>2011-05-17T10:43:53Z</time>
      </trkpt>
      <trkpt lat="42.83456" lon="-0.59868">
        <ele>1889.12793</ele>
        <time>2011-05-17T10:44:09Z</time>
      </trkpt>
      <trkpt lat="42.8346" lon="-0.59874">
        <ele>1890.569824</ele>
        <time>2011-05-17T10:44:25Z</time>
      </trkpt>
      <trkpt lat="42.83466" lon="-0.59885">
        <ele>1891.050537</ele>
        <time>2011-05-17T10:44:41Z</time>
      </trkpt>
      <trkpt lat="42.83468" lon="-0.59895">
        <ele>1891.53125</ele>
        <time>2011-05-17T10:45:02Z</time>
      </trkpt>
      <trkpt lat="42.8347" lon="-0.59908">
        <ele>1891.53125</ele>
        <time>2011-05-17T10:45:22Z</time>
      </trkpt>
      <trkpt lat="42.83468" lon="-0.59912">
        <ele>1892.492676</ele>
        <time>2011-05-17T10:45:51Z</time>
      </trkpt>
      <trkpt lat="42.83475" lon="-0.59919">
        <ele>1892.011963</ele>
        <time>2011-05-17T10:46:04Z</time>
      </trkpt>
      <trkpt lat="42.83476" lon="-0.59919">
        <ele>1892.492676</ele>
        <time>2011-05-17T10:46:05Z</time>
      </trkpt>
      <trkpt lat="42.83486" lon="-0.59932">
        <ele>1895.376465</ele>
        <time>2011-05-17T10:46:21Z</time>
      </trkpt>
      <trkpt lat="42.83501" lon="-0.59949">
        <ele>1892.492676</ele>
        <time>2011-05-17T10:46:41Z</time>
      </trkpt>
      <trkpt lat="42.83511" lon="-0.5996">
        <ele>1892.492676</ele>
        <time>2011-05-17T10:46:57Z</time>
      </trkpt>
      <trkpt lat="42.83513" lon="-0.59961">
        <ele>1892.011963</ele>
        <time>2011-05-17T10:47:01Z</time>
      </trkpt>
      <trkpt lat="42.8352" lon="-0.59971">
        <ele>1891.050537</ele>
        <time>2011-05-17T10:47:13Z</time>
      </trkpt>
      <trkpt lat="42.83526" lon="-0.59977">
        <ele>1888.647461</ele>
        <time>2011-05-17T10:47:20Z</time>
      </trkpt>
      <trkpt lat="42.83524" lon="-0.60003">
        <ele>1885.763428</ele>
        <time>2011-05-17T10:47:37Z</time>
      </trkpt>
      <trkpt lat="42.83517" lon="-0.60027">
        <ele>1884.321533</ele>
        <time>2011-05-17T10:47:55Z</time>
      </trkpt>
      <trkpt lat="42.83504" lon="-0.60047">
        <ele>1883.359863</ele>
        <time>2011-05-17T10:48:12Z</time>
      </trkpt>
      <trkpt lat="42.83497" lon="-0.60064">
        <ele>1885.763428</ele>
        <time>2011-05-17T10:48:26Z</time>
      </trkpt>
      <trkpt lat="42.83498" lon="-0.60072">
        <ele>1885.282715</ele>
        <time>2011-05-17T10:48:34Z</time>
      </trkpt>
      <trkpt lat="42.83511" lon="-0.6009">
        <ele>1886.724609</ele>
        <time>2011-05-17T10:48:51Z</time>
      </trkpt>
      <trkpt lat="42.83523" lon="-0.601">
        <ele>1889.12793</ele>
        <time>2011-05-17T10:49:10Z</time>
      </trkpt>
      <trkpt lat="42.83535" lon="-0.60109">
        <ele>1890.089355</ele>
        <time>2011-05-17T10:49:28Z</time>
      </trkpt>
      <trkpt lat="42.8354" lon="-0.60118">
        <ele>1892.011963</ele>
        <time>2011-05-17T10:49:41Z</time>
      </trkpt>
      <trkpt lat="42.8354" lon="-0.60137">
        <ele>1892.973145</ele>
        <time>2011-05-17T10:49:57Z</time>
      </trkpt>
      <trkpt lat="42.83541" lon="-0.60143">
        <ele>1894.415039</ele>
        <time>2011-05-17T10:50:03Z</time>
      </trkpt>
      <trkpt lat="42.83541" lon="-0.60146">
        <ele>1893.93457</ele>
        <time>2011-05-17T10:50:05Z</time>
      </trkpt>
      <trkpt lat="42.83546" lon="-0.60163">
        <ele>1895.857178</ele>
        <time>2011-05-17T10:50:21Z</time>
      </trkpt>
      <trkpt lat="42.83547" lon="-0.60179">
        <ele>1897.779785</ele>
        <time>2011-05-17T10:50:37Z</time>
      </trkpt>
      <trkpt lat="42.83545" lon="-0.60189">
        <ele>1898.740967</ele>
        <time>2011-05-17T10:50:54Z</time>
      </trkpt>
      <trkpt lat="42.83544" lon="-0.60196">
        <ele>1900.663818</ele>
        <time>2011-05-17T10:51:12Z</time>
      </trkpt>
      <trkpt lat="42.83544" lon="-0.60196">
        <ele>1900.663818</ele>
        <time>2011-05-17T10:51:19Z</time>
      </trkpt>
      <trkpt lat="42.83543" lon="-0.60199">
        <ele>1900.663818</ele>
        <time>2011-05-17T10:51:34Z</time>
      </trkpt>
      <trkpt lat="42.83543" lon="-0.60206">
        <ele>1903.067139</ele>
        <time>2011-05-17T10:52:11Z</time>
      </trkpt>
      <trkpt lat="42.83546" lon="-0.60218">
        <ele>1904.989746</ele>
        <time>2011-05-17T10:52:26Z</time>
      </trkpt>
      <trkpt lat="42.83548" lon="-0.60224">
        <ele>1907.873779</ele>
        <time>2011-05-17T10:52:32Z</time>
      </trkpt>
      <trkpt lat="42.83552" lon="-0.60237">
        <ele>1908.834961</ele>
        <time>2011-05-17T10:52:48Z</time>
      </trkpt>
      <trkpt lat="42.83558" lon="-0.60249">
        <ele>1911.718994</ele>
        <time>2011-05-17T10:53:03Z</time>
      </trkpt>
      <trkpt lat="42.83564" lon="-0.60267">
        <ele>1913.641357</ele>
        <time>2011-05-17T10:53:20Z</time>
      </trkpt>
      <trkpt lat="42.83567" lon="-0.60272">
        <ele>1915.564209</ele>
        <time>2011-05-17T10:53:25Z</time>
      </trkpt>
      <trkpt lat="42.83573" lon="-0.60294">
        <ele>1917.006348</ele>
        <time>2011-05-17T10:53:44Z</time>
      </trkpt>
      <trkpt lat="42.83577" lon="-0.60312">
        <ele>1918.928955</ele>
        <time>2011-05-17T10:53:59Z</time>
      </trkpt>
      <trkpt lat="42.83577" lon="-0.60314">
        <ele>1918.928955</ele>
        <time>2011-05-17T10:54:01Z</time>
      </trkpt>
      <trkpt lat="42.83583" lon="-0.60337">
        <ele>1921.332031</ele>
        <time>2011-05-17T10:54:19Z</time>
      </trkpt>
      <trkpt lat="42.83586" lon="-0.60347">
        <ele>1922.293457</ele>
        <time>2011-05-17T10:54:28Z</time>
      </trkpt>
      <trkpt lat="42.83589" lon="-0.60357">
        <ele>1925.177246</ele>
        <time>2011-05-17T10:54:40Z</time>
      </trkpt>
      <trkpt lat="42.83593" lon="-0.60373">
        <ele>1927.580566</ele>
        <time>2011-05-17T10:54:58Z</time>
      </trkpt>
      <trkpt lat="42.83598" lon="-0.60389">
        <ele>1929.983887</ele>
        <time>2011-05-17T10:55:15Z</time>
      </trkpt>
      <trkpt lat="42.83602" lon="-0.60402">
        <ele>1931.425781</ele>
        <time>2011-05-17T10:55:30Z</time>
      </trkpt>
      <trkpt lat="42.8361" lon="-0.60416">
        <ele>1933.348633</ele>
        <time>2011-05-17T10:55:47Z</time>
      </trkpt>
      <trkpt lat="42.8361" lon="-0.60418">
        <ele>1934.310059</ele>
        <time>2011-05-17T10:55:49Z</time>
      </trkpt>
      <trkpt lat="42.83618" lon="-0.60432">
        <ele>1937.674561</ele>
        <time>2011-05-17T10:56:04Z</time>
      </trkpt>
      <trkpt lat="42.83627" lon="-0.60446">
        <ele>1937.674561</ele>
        <time>2011-05-17T10:56:21Z</time>
      </trkpt>
      <trkpt lat="42.83637" lon="-0.60466">
        <ele>1938.635986</ele>
        <time>2011-05-17T10:56:40Z</time>
      </trkpt>
      <trkpt lat="42.83646" lon="-0.60481">
        <ele>1942.000488</ele>
        <time>2011-05-17T10:56:57Z</time>
      </trkpt>
      <trkpt lat="42.83649" lon="-0.60488">
        <ele>1943.923096</ele>
        <time>2011-05-17T10:57:04Z</time>
      </trkpt>
      <trkpt lat="42.83657" lon="-0.60509">
        <ele>1946.326416</ele>
        <time>2011-05-17T10:57:24Z</time>
      </trkpt>
      <trkpt lat="42.83664" lon="-0.60524">
        <ele>1948.729736</ele>
        <time>2011-05-17T10:57:40Z</time>
      </trkpt>
      <trkpt lat="42.83669" lon="-0.60542">
        <ele>1951.133057</ele>
        <time>2011-05-17T10:57:58Z</time>
      </trkpt>
      <trkpt lat="42.83675" lon="-0.60555">
        <ele>1953.536377</ele>
        <time>2011-05-17T10:58:13Z</time>
      </trkpt>
      <trkpt lat="42.83682" lon="-0.60572">
        <ele>1955.939453</ele>
        <time>2011-05-17T10:58:30Z</time>
      </trkpt>
      <trkpt lat="42.83688" lon="-0.60591">
        <ele>1958.823486</ele>
        <time>2011-05-17T10:58:48Z</time>
      </trkpt>
      <trkpt lat="42.83694" lon="-0.60604">
        <ele>1960.265381</ele>
        <time>2011-05-17T10:59:02Z</time>
      </trkpt>
      <trkpt lat="42.83707" lon="-0.60621">
        <ele>1961.70752</ele>
        <time>2011-05-17T10:59:22Z</time>
      </trkpt>
      <trkpt lat="42.83712" lon="-0.60629">
        <ele>1961.70752</ele>
        <time>2011-05-17T10:59:42Z</time>
      </trkpt>
      <trkpt lat="42.83717" lon="-0.60634">
        <ele>1962.668701</ele>
        <time>2011-05-17T11:00:25Z</time>
      </trkpt>
      <trkpt lat="42.83724" lon="-0.60647">
        <ele>1963.629883</ele>
        <time>2011-05-17T11:00:42Z</time>
      </trkpt>
      <trkpt lat="42.83727" lon="-0.60656">
        <ele>1964.11084</ele>
        <time>2011-05-17T11:01:30Z</time>
      </trkpt>
      <trkpt lat="42.8374" lon="-0.60676">
        <ele>1965.072266</ele>
        <time>2011-05-17T11:01:48Z</time>
      </trkpt>
      <trkpt lat="42.83753" lon="-0.60689">
        <ele>1965.552979</ele>
        <time>2011-05-17T11:02:04Z</time>
      </trkpt>
      <trkpt lat="42.83764" lon="-0.60709">
        <ele>1966.51416</ele>
        <time>2011-05-17T11:02:25Z</time>
      </trkpt>
      <trkpt lat="42.83764" lon="-0.6073">
        <ele>1967.956055</ele>
        <time>2011-05-17T11:02:44Z</time>
      </trkpt>
      <trkpt lat="42.83763" lon="-0.60728">
        <ele>1966.51416</ele>
        <time>2011-05-17T11:03:11Z</time>
      </trkpt>
      <trkpt lat="42.83762" lon="-0.60722">
        <ele>1967.956055</ele>
        <time>2011-05-17T11:03:39Z</time>
      </trkpt>
      <trkpt lat="42.83761" lon="-0.60713">
        <ele>1967.956055</ele>
        <time>2011-05-17T11:04:01Z</time>
      </trkpt>
      <trkpt lat="42.83763" lon="-0.60727">
        <ele>1967.956055</ele>
        <time>2011-05-17T11:04:27Z</time>
      </trkpt>
      <trkpt lat="42.83763" lon="-0.60725">
        <ele>1968.436768</ele>
        <time>2011-05-17T11:04:45Z</time>
      </trkpt>
      <trkpt lat="42.83763" lon="-0.60721">
        <ele>1967.956055</ele>
        <time>2011-05-17T11:05:09Z</time>
      </trkpt>
      <trkpt lat="42.83763" lon="-0.60724">
        <ele>1969.398193</ele>
        <time>2011-05-17T11:05:31Z</time>
      </trkpt>
      <trkpt lat="42.83765" lon="-0.60726">
        <ele>1967.475342</ele>
        <time>2011-05-17T11:05:58Z</time>
      </trkpt>
      <trkpt lat="42.8377" lon="-0.60721">
        <ele>1967.475342</ele>
        <time>2011-05-17T11:06:04Z</time>
      </trkpt>
      <trkpt lat="42.83778" lon="-0.60704">
        <ele>1966.994873</ele>
        <time>2011-05-17T11:06:19Z</time>
      </trkpt>
      <trkpt lat="42.83778" lon="-0.60704">
        <ele>1966.033447</ele>
        <time>2011-05-17T11:06:20Z</time>
      </trkpt>
      <trkpt lat="42.83781" lon="-0.60706">
        <ele>1968.436768</ele>
        <time>2011-05-17T11:06:23Z</time>
      </trkpt>
      <trkpt lat="42.83795" lon="-0.60715">
        <ele>1968.436768</ele>
        <time>2011-05-17T11:06:43Z</time>
      </trkpt>
      <trkpt lat="42.83812" lon="-0.60724">
        <ele>1969.398193</ele>
        <time>2011-05-17T11:07:00Z</time>
      </trkpt>
      <trkpt lat="42.83825" lon="-0.60732">
        <ele>1970.840088</ele>
        <time>2011-05-17T11:07:15Z</time>
      </trkpt>
      <trkpt lat="42.83842" lon="-0.60739">
        <ele>1972.762695</ele>
        <time>2011-05-17T11:07:32Z</time>
      </trkpt>
      <trkpt lat="42.83846" lon="-0.60741">
        <ele>1972.762695</ele>
        <time>2011-05-17T11:07:37Z</time>
      </trkpt>
      <trkpt lat="42.83849" lon="-0.60741">
        <ele>1973.243408</ele>
        <time>2011-05-17T11:07:40Z</time>
      </trkpt>
      <trkpt lat="42.83866" lon="-0.60749">
        <ele>1975.165771</ele>
        <time>2011-05-17T11:07:57Z</time>
      </trkpt>
      <trkpt lat="42.83871" lon="-0.60753">
        <ele>1975.165771</ele>
        <time>2011-05-17T11:08:03Z</time>
      </trkpt>
      <trkpt lat="42.83881" lon="-0.60768">
        <ele>1976.127197</ele>
        <time>2011-05-17T11:08:17Z</time>
      </trkpt>
      <trkpt lat="42.83892" lon="-0.60786">
        <ele>1978.049805</ele>
        <time>2011-05-17T11:08:34Z</time>
      </trkpt>
      <trkpt lat="42.83899" lon="-0.60796">
        <ele>1979.491699</ele>
        <time>2011-05-17T11:08:45Z</time>
      </trkpt>
      <trkpt lat="42.83915" lon="-0.60802">
        <ele>1983.337158</ele>
        <time>2011-05-17T11:09:02Z</time>
      </trkpt>
      <trkpt lat="42.83927" lon="-0.60806">
        <ele>1984.779297</ele>
        <time>2011-05-17T11:09:17Z</time>
      </trkpt>
      <trkpt lat="42.8393" lon="-0.60804">
        <ele>1985.740479</ele>
        <time>2011-05-17T11:09:21Z</time>
      </trkpt>
      <trkpt lat="42.83941" lon="-0.60801">
        <ele>1987.182373</ele>
        <time>2011-05-17T11:09:33Z</time>
      </trkpt>
      <trkpt lat="42.83958" lon="-0.60799">
        <ele>1989.585693</ele>
        <time>2011-05-17T11:09:51Z</time>
      </trkpt>
      <trkpt lat="42.83959" lon="-0.60798">
        <ele>1990.066406</ele>
        <time>2011-05-17T11:09:52Z</time>
      </trkpt>
      <trkpt lat="42.83974" lon="-0.60794">
        <ele>1991.508301</ele>
        <time>2011-05-17T11:10:08Z</time>
      </trkpt>
      <trkpt lat="42.83988" lon="-0.60788">
        <ele>1993.911621</ele>
        <time>2011-05-17T11:10:24Z</time>
      </trkpt>
      <trkpt lat="42.83993" lon="-0.60786">
        <ele>1994.872803</ele>
        <time>2011-05-17T11:10:30Z</time>
      </trkpt>
      <trkpt lat="42.84009" lon="-0.60785">
        <ele>1999.198975</ele>
        <time>2011-05-17T11:10:48Z</time>
      </trkpt>
      <trkpt lat="42.84015" lon="-0.60794">
        <ele>2000.640869</ele>
        <time>2011-05-17T11:11:03Z</time>
      </trkpt>
      <trkpt lat="42.84016" lon="-0.60792">
        <ele>2000.640869</ele>
        <time>2011-05-17T11:11:05Z</time>
      </trkpt>
      <trkpt lat="42.84017" lon="-0.6079">
        <ele>2000.640869</ele>
        <time>2011-05-17T11:11:07Z</time>
      </trkpt>
      <trkpt lat="42.84026" lon="-0.60781">
        <ele>2000.640869</ele>
        <time>2011-05-17T11:11:20Z</time>
      </trkpt>
      <trkpt lat="42.84044" lon="-0.60774">
        <ele>2001.602295</ele>
        <time>2011-05-17T11:11:39Z</time>
      </trkpt>
      <trkpt lat="42.84056" lon="-0.60784">
        <ele>2002.563477</ele>
        <time>2011-05-17T11:11:54Z</time>
      </trkpt>
      <trkpt lat="42.84067" lon="-0.60797">
        <ele>2005.927979</ele>
        <time>2011-05-17T11:12:12Z</time>
      </trkpt>
      <trkpt lat="42.84076" lon="-0.60809">
        <ele>2008.812012</ele>
        <time>2011-05-17T11:12:28Z</time>
      </trkpt>
      <trkpt lat="42.84088" lon="-0.60817">
        <ele>2011.696045</ele>
        <time>2011-05-17T11:12:43Z</time>
      </trkpt>
      <trkpt lat="42.84097" lon="-0.60831">
        <ele>2012.176758</ele>
        <time>2011-05-17T11:13:00Z</time>
      </trkpt>
      <trkpt lat="42.84103" lon="-0.60841">
        <ele>2014.099365</ele>
        <time>2011-05-17T11:13:15Z</time>
      </trkpt>
      <trkpt lat="42.84105" lon="-0.60845">
        <ele>2014.580078</ele>
        <time>2011-05-17T11:13:18Z</time>
      </trkpt>
      <trkpt lat="42.84112" lon="-0.60866">
        <ele>2014.580078</ele>
        <time>2011-05-17T11:13:35Z</time>
      </trkpt>
      <trkpt lat="42.84114" lon="-0.60868">
        <ele>2016.021973</ele>
        <time>2011-05-17T11:13:37Z</time>
      </trkpt>
      <trkpt lat="42.84125" lon="-0.60878">
        <ele>2017.463867</ele>
        <time>2011-05-17T11:13:51Z</time>
      </trkpt>
      <trkpt lat="42.84127" lon="-0.60883">
        <ele>2017.94458</ele>
        <time>2011-05-17T11:13:55Z</time>
      </trkpt>
      <trkpt lat="42.84139" lon="-0.60889">
        <ele>2018.425293</ele>
        <time>2011-05-17T11:14:07Z</time>
      </trkpt>
      <trkpt lat="42.84148" lon="-0.60906">
        <ele>2020.3479</ele>
        <time>2011-05-17T11:14:24Z</time>
      </trkpt>
      <trkpt lat="42.84156" lon="-0.60918">
        <ele>2022.270508</ele>
        <time>2011-05-17T11:14:37Z</time>
      </trkpt>
      <trkpt lat="42.84165" lon="-0.60933">
        <ele>2023.231934</ele>
        <time>2011-05-17T11:14:53Z</time>
      </trkpt>
      <trkpt lat="42.84166" lon="-0.60937">
        <ele>2024.193115</ele>
        <time>2011-05-17T11:14:57Z</time>
      </trkpt>
      <trkpt lat="42.84162" lon="-0.60951">
        <ele>2026.596436</ele>
        <time>2011-05-17T11:15:11Z</time>
      </trkpt>
      <trkpt lat="42.84158" lon="-0.60964">
        <ele>2029.480469</ele>
        <time>2011-05-17T11:15:24Z</time>
      </trkpt>
      <trkpt lat="42.84156" lon="-0.60969">
        <ele>2029.961182</ele>
        <time>2011-05-17T11:15:28Z</time>
      </trkpt>
      <trkpt lat="42.84155" lon="-0.60975">
        <ele>2029.961182</ele>
        <time>2011-05-17T11:15:32Z</time>
      </trkpt>
      <trkpt lat="42.84145" lon="-0.60987">
        <ele>2029.961182</ele>
        <time>2011-05-17T11:15:47Z</time>
      </trkpt>
      <trkpt lat="42.84142" lon="-0.6099">
        <ele>2029.961182</ele>
        <time>2011-05-17T11:16:06Z</time>
      </trkpt>
      <trkpt lat="42.84139" lon="-0.60987">
        <ele>2030.922607</ele>
        <time>2011-05-17T11:16:19Z</time>
      </trkpt>
      <trkpt lat="42.84139" lon="-0.60986">
        <ele>2030.922607</ele>
        <time>2011-05-17T11:16:32Z</time>
      </trkpt>
      <trkpt lat="42.84139" lon="-0.60979">
        <ele>2031.403076</ele>
        <time>2011-05-17T11:17:00Z</time>
      </trkpt>
      <trkpt lat="42.84139" lon="-0.60972">
        <ele>2030.922607</ele>
        <time>2011-05-17T11:17:19Z</time>
      </trkpt>
      <trkpt lat="42.8414" lon="-0.60971">
        <ele>2030.441895</ele>
        <time>2011-05-17T11:17:47Z</time>
      </trkpt>
      <trkpt lat="42.84142" lon="-0.60964">
        <ele>2030.441895</ele>
        <time>2011-05-17T11:18:06Z</time>
      </trkpt>
      <trkpt lat="42.84139" lon="-0.60948">
        <ele>2028.999756</ele>
        <time>2011-05-17T11:18:20Z</time>
      </trkpt>
      <trkpt lat="42.84125" lon="-0.60927">
        <ele>2027.077148</ele>
        <time>2011-05-17T11:18:38Z</time>
      </trkpt>
      <trkpt lat="42.84112" lon="-0.6091">
        <ele>2026.115723</ele>
        <time>2011-05-17T11:18:55Z</time>
      </trkpt>
      <trkpt lat="42.84105" lon="-0.609">
        <ele>2024.193115</ele>
        <time>2011-05-17T11:19:09Z</time>
      </trkpt>
      <trkpt lat="42.84094" lon="-0.6088">
        <ele>2022.751221</ele>
        <time>2011-05-17T11:19:27Z</time>
      </trkpt>
      <trkpt lat="42.84094" lon="-0.60876">
        <ele>2021.789795</ele>
        <time>2011-05-17T11:19:30Z</time>
      </trkpt>
      <trkpt lat="42.84091" lon="-0.60854">
        <ele>2017.94458</ele>
        <time>2011-05-17T11:19:47Z</time>
      </trkpt>
      <trkpt lat="42.84088" lon="-0.60842">
        <ele>2016.021973</ele>
        <time>2011-05-17T11:19:57Z</time>
      </trkpt>
      <trkpt lat="42.84079" lon="-0.60826">
        <ele>2013.138184</ele>
        <time>2011-05-17T11:20:13Z</time>
      </trkpt>
      <trkpt lat="42.84073" lon="-0.6082">
        <ele>2010.253906</ele>
        <time>2011-05-17T11:20:24Z</time>
      </trkpt>
      <trkpt lat="42.84072" lon="-0.60818">
        <ele>2009.292725</ele>
        <time>2011-05-17T11:20:29Z</time>
      </trkpt>
      <trkpt lat="42.84065" lon="-0.60816">
        <ele>2008.331299</ele>
        <time>2011-05-17T11:20:38Z</time>
      </trkpt>
      <trkpt lat="42.84055" lon="-0.60811">
        <ele>2006.889404</ele>
        <time>2011-05-17T11:20:49Z</time>
      </trkpt>
      <trkpt lat="42.84049" lon="-0.60805">
        <ele>2004.486084</ele>
        <time>2011-05-17T11:20:58Z</time>
      </trkpt>
      <trkpt lat="42.84048" lon="-0.60801">
        <ele>2004.005615</ele>
        <time>2011-05-17T11:21:01Z</time>
      </trkpt>
      <trkpt lat="42.8404" lon="-0.60782">
        <ele>2002.082764</ele>
        <time>2011-05-17T11:21:18Z</time>
      </trkpt>
      <trkpt lat="42.84036" lon="-0.60776">
        <ele>2001.121582</ele>
        <time>2011-05-17T11:21:25Z</time>
      </trkpt>
      <trkpt lat="42.84033" lon="-0.60774">
        <ele>2001.602295</ele>
        <time>2011-05-17T11:21:28Z</time>
      </trkpt>
      <trkpt lat="42.84019" lon="-0.60781">
        <ele>2000.640869</ele>
        <time>2011-05-17T11:21:43Z</time>
      </trkpt>
      <trkpt lat="42.84013" lon="-0.60786">
        <ele>1998.718262</ele>
        <time>2011-05-17T11:21:56Z</time>
      </trkpt>
      <trkpt lat="42.84009" lon="-0.60784">
        <ele>1997.75708</ele>
        <time>2011-05-17T11:22:02Z</time>
      </trkpt>
      <trkpt lat="42.8399" lon="-0.60781">
        <ele>1995.834229</ele>
        <time>2011-05-17T11:22:19Z</time>
      </trkpt>
      <trkpt lat="42.83987" lon="-0.60783">
        <ele>1994.872803</ele>
        <time>2011-05-17T11:22:24Z</time>
      </trkpt>
      <trkpt lat="42.83979" lon="-0.60787">
        <ele>1992.469727</ele>
        <time>2011-05-17T11:22:40Z</time>
      </trkpt>
      <trkpt lat="42.83971" lon="-0.60788">
        <ele>1991.027588</ele>
        <time>2011-05-17T11:22:49Z</time>
      </trkpt>
      <trkpt lat="42.83954" lon="-0.60795">
        <ele>1989.10498</ele>
        <time>2011-05-17T11:23:07Z</time>
      </trkpt>
      <trkpt lat="42.83941" lon="-0.60798">
        <ele>1988.143799</ele>
        <time>2011-05-17T11:23:21Z</time>
      </trkpt>
      <trkpt lat="42.83927" lon="-0.60804">
        <ele>1986.221191</ele>
        <time>2011-05-17T11:23:36Z</time>
      </trkpt>
      <trkpt lat="42.83922" lon="-0.60805">
        <ele>1985.259766</ele>
        <time>2011-05-17T11:23:42Z</time>
      </trkpt>
      <trkpt lat="42.83907" lon="-0.60801">
        <ele>1982.856445</ele>
        <time>2011-05-17T11:23:57Z</time>
      </trkpt>
      <trkpt lat="42.83898" lon="-0.60801">
        <ele>1980.934082</ele>
        <time>2011-05-17T11:24:07Z</time>
      </trkpt>
      <trkpt lat="42.83883" lon="-0.60787">
        <ele>1979.972412</ele>
        <time>2011-05-17T11:24:24Z</time>
      </trkpt>
      <trkpt lat="42.83866" lon="-0.60777">
        <ele>1976.60791</ele>
        <time>2011-05-17T11:24:39Z</time>
      </trkpt>
      <trkpt lat="42.83847" lon="-0.60774">
        <ele>1974.685303</ele>
        <time>2011-05-17T11:24:54Z</time>
      </trkpt>
      <trkpt lat="42.83832" lon="-0.60767">
        <ele>1973.243408</ele>
        <time>2011-05-17T11:25:09Z</time>
      </trkpt>
      <trkpt lat="42.83831" lon="-0.60766">
        <ele>1973.243408</ele>
        <time>2011-05-17T11:25:10Z</time>
      </trkpt>
      <trkpt lat="42.83827" lon="-0.60766">
        <ele>1972.281982</ele>
        <time>2011-05-17T11:25:13Z</time>
      </trkpt>
      <trkpt lat="42.83822" lon="-0.60763">
        <ele>1971.80127</ele>
        <time>2011-05-17T11:25:18Z</time>
      </trkpt>
      <trkpt lat="42.83808" lon="-0.60754">
        <ele>1970.840088</ele>
        <time>2011-05-17T11:25:32Z</time>
      </trkpt>
      <trkpt lat="42.83795" lon="-0.60752">
        <ele>1970.840088</ele>
        <time>2011-05-17T11:25:46Z</time>
      </trkpt>
      <trkpt lat="42.83792" lon="-0.60752">
        <ele>1970.840088</ele>
        <time>2011-05-17T11:25:49Z</time>
      </trkpt>
      <trkpt lat="42.83785" lon="-0.60743">
        <ele>1970.359375</ele>
        <time>2011-05-17T11:25:58Z</time>
      </trkpt>
      <trkpt lat="42.83771" lon="-0.60728">
        <ele>1968.91748</ele>
        <time>2011-05-17T11:26:15Z</time>
      </trkpt>
      <trkpt lat="42.83762" lon="-0.60725">
        <ele>1969.398193</ele>
        <time>2011-05-17T11:26:30Z</time>
      </trkpt>
      <trkpt lat="42.83763" lon="-0.60724">
        <ele>1969.398193</ele>
        <time>2011-05-17T11:27:04Z</time>
      </trkpt>
      <trkpt lat="42.83764" lon="-0.60727">
        <ele>1972.281982</ele>
        <time>2011-05-17T11:29:35Z</time>
      </trkpt>
      <trkpt lat="42.83764" lon="-0.60727">
        <ele>1968.91748</ele>
        <time>2011-05-17T11:32:16Z</time>
      </trkpt>
      <trkpt lat="42.83765" lon="-0.60729">
        <ele>1968.91748</ele>
        <time>2011-05-17T11:36:32Z</time>
      </trkpt>
      <trkpt lat="42.83764" lon="-0.6073">
        <ele>1971.80127</ele>
        <time>2011-05-17T11:45:14Z</time>
      </trkpt>
      <trkpt lat="42.83764" lon="-0.60729">
        <ele>1971.80127</ele>
        <time>2011-05-17T11:49:00Z</time>
      </trkpt>
      <trkpt lat="42.83764" lon="-0.60729">
        <ele>1971.80127</ele>
        <time>2011-05-17T11:51:06Z</time>
      </trkpt>
      <trkpt lat="42.83763" lon="-0.6073">
        <ele>1971.80127</ele>
        <time>2011-05-17T11:56:37Z</time>
      </trkpt>
      <trkpt lat="42.83764" lon="-0.6073">
        <ele>1972.281982</ele>
        <time>2011-05-17T11:56:53Z</time>
      </trkpt>
      <trkpt lat="42.83764" lon="-0.60726">
        <ele>1970.840088</ele>
        <time>2011-05-17T11:57:11Z</time>
      </trkpt>
      <trkpt lat="42.83764" lon="-0.60714">
        <ele>1970.840088</ele>
        <time>2011-05-17T11:57:25Z</time>
      </trkpt>
      <trkpt lat="42.83763" lon="-0.60709">
        <ele>1970.359375</ele>
        <time>2011-05-17T11:57:29Z</time>
      </trkpt>
      <trkpt lat="42.83761" lon="-0.60703">
        <ele>1970.359375</ele>
        <time>2011-05-17T11:57:34Z</time>
      </trkpt>
      <trkpt lat="42.83748" lon="-0.60687">
        <ele>1969.398193</ele>
        <time>2011-05-17T11:57:53Z</time>
      </trkpt>
      <trkpt lat="42.83744" lon="-0.60684">
        <ele>1968.91748</ele>
        <time>2011-05-17T11:58:07Z</time>
      </trkpt>
      <trkpt lat="42.83737" lon="-0.60675">
        <ele>1969.398193</ele>
        <time>2011-05-17T11:58:19Z</time>
      </trkpt>
      <trkpt lat="42.83725" lon="-0.60654">
        <ele>1968.436768</ele>
        <time>2011-05-17T11:58:38Z</time>
      </trkpt>
      <trkpt lat="42.8372" lon="-0.60641">
        <ele>1966.51416</ele>
        <time>2011-05-17T11:58:49Z</time>
      </trkpt>
      <trkpt lat="42.83717" lon="-0.60637">
        <ele>1966.033447</ele>
        <time>2011-05-17T11:58:53Z</time>
      </trkpt>
      <trkpt lat="42.83698" lon="-0.60615">
        <ele>1965.072266</ele>
        <time>2011-05-17T11:59:16Z</time>
      </trkpt>
      <trkpt lat="42.83688" lon="-0.60602">
        <ele>1962.668701</ele>
        <time>2011-05-17T11:59:32Z</time>
      </trkpt>
      <trkpt lat="42.83688" lon="-0.60601">
        <ele>1962.668701</ele>
        <time>2011-05-17T11:59:33Z</time>
      </trkpt>
      <trkpt lat="42.83681" lon="-0.60578">
        <ele>1959.784668</ele>
        <time>2011-05-17T11:59:52Z</time>
      </trkpt>
      <trkpt lat="42.8368" lon="-0.60573">
        <ele>1958.342773</ele>
        <time>2011-05-17T11:59:56Z</time>
      </trkpt>
      <trkpt lat="42.83675" lon="-0.60557">
        <ele>1956.420166</ele>
        <time>2011-05-17T12:00:09Z</time>
      </trkpt>
      <trkpt lat="42.83673" lon="-0.60553">
        <ele>1954.978271</ele>
        <time>2011-05-17T12:00:13Z</time>
      </trkpt>
      <trkpt lat="42.83672" lon="-0.60549">
        <ele>1954.01709</ele>
        <time>2011-05-17T12:00:16Z</time>
      </trkpt>
      <trkpt lat="42.83664" lon="-0.60529">
        <ele>1953.055664</ele>
        <time>2011-05-17T12:00:33Z</time>
      </trkpt>
      <trkpt lat="42.83662" lon="-0.60526">
        <ele>1951.61377</ele>
        <time>2011-05-17T12:00:36Z</time>
      </trkpt>
      <trkpt lat="42.83661" lon="-0.60523">
        <ele>1951.61377</ele>
        <time>2011-05-17T12:00:39Z</time>
      </trkpt>
      <trkpt lat="42.83659" lon="-0.60518">
        <ele>1950.171875</ele>
        <time>2011-05-17T12:00:43Z</time>
      </trkpt>
      <trkpt lat="42.83652" lon="-0.60497">
        <ele>1948.729736</ele>
        <time>2011-05-17T12:01:02Z</time>
      </trkpt>
      <trkpt lat="42.83647" lon="-0.60487">
        <ele>1946.806885</ele>
        <time>2011-05-17T12:01:20Z</time>
      </trkpt>
      <trkpt lat="42.83644" lon="-0.60478">
        <ele>1945.845703</ele>
        <time>2011-05-17T12:01:32Z</time>
      </trkpt>
      <trkpt lat="42.83634" lon="-0.60462">
        <ele>1942.96167</ele>
        <time>2011-05-17T12:01:48Z</time>
      </trkpt>
      <trkpt lat="42.8363" lon="-0.60456">
        <ele>1942.481201</ele>
        <time>2011-05-17T12:01:54Z</time>
      </trkpt>
      <trkpt lat="42.8362" lon="-0.60441">
        <ele>1941.039062</ele>
        <time>2011-05-17T12:02:12Z</time>
      </trkpt>
      <trkpt lat="42.83617" lon="-0.60433">
        <ele>1937.193848</ele>
        <time>2011-05-17T12:02:19Z</time>
      </trkpt>
      <trkpt lat="42.83616" lon="-0.6043">
        <ele>1938.155273</ele>
        <time>2011-05-17T12:02:22Z</time>
      </trkpt>
      <trkpt lat="42.83604" lon="-0.60409">
        <ele>1935.751953</ele>
        <time>2011-05-17T12:02:43Z</time>
      </trkpt>
      <trkpt lat="42.83595" lon="-0.60387">
        <ele>1933.348633</ele>
        <time>2011-05-17T12:03:04Z</time>
      </trkpt>
      <trkpt lat="42.83592" lon="-0.60378">
        <ele>1929.983887</ele>
        <time>2011-05-17T12:03:13Z</time>
      </trkpt>
      <trkpt lat="42.83587" lon="-0.60358">
        <ele>1927.100098</ele>
        <time>2011-05-17T12:03:31Z</time>
      </trkpt>
      <trkpt lat="42.83581" lon="-0.60342">
        <ele>1925.177246</ele>
        <time>2011-05-17T12:03:48Z</time>
      </trkpt>
      <trkpt lat="42.83576" lon="-0.60318">
        <ele>1922.77417</ele>
        <time>2011-05-17T12:04:07Z</time>
      </trkpt>
      <trkpt lat="42.83572" lon="-0.60298">
        <ele>1920.37085</ele>
        <time>2011-05-17T12:04:24Z</time>
      </trkpt>
      <trkpt lat="42.83563" lon="-0.60271">
        <ele>1917.486816</ele>
        <time>2011-05-17T12:04:44Z</time>
      </trkpt>
      <trkpt lat="42.83555" lon="-0.60248">
        <ele>1914.12207</ele>
        <time>2011-05-17T12:05:03Z</time>
      </trkpt>
      <trkpt lat="42.83554" lon="-0.60246">
        <ele>1913.160889</ele>
        <time>2011-05-17T12:05:05Z</time>
      </trkpt>
      <trkpt lat="42.83551" lon="-0.60241">
        <ele>1912.680176</ele>
        <time>2011-05-17T12:05:18Z</time>
      </trkpt>
      <trkpt lat="42.83551" lon="-0.60239">
        <ele>1912.199463</ele>
        <time>2011-05-17T12:05:20Z</time>
      </trkpt>
      <trkpt lat="42.83548" lon="-0.60233">
        <ele>1911.238281</ele>
        <time>2011-05-17T12:05:26Z</time>
      </trkpt>
      <trkpt lat="42.83547" lon="-0.6023">
        <ele>1910.757568</ele>
        <time>2011-05-17T12:05:29Z</time>
      </trkpt>
      <trkpt lat="42.8354" lon="-0.60214">
        <ele>1907.393066</ele>
        <time>2011-05-17T12:05:44Z</time>
      </trkpt>
      <trkpt lat="42.8354" lon="-0.60204">
        <ele>1904.509033</ele>
        <time>2011-05-17T12:05:54Z</time>
      </trkpt>
      <trkpt lat="42.8354" lon="-0.602">
        <ele>1904.509033</ele>
        <time>2011-05-17T12:05:57Z</time>
      </trkpt>
      <trkpt lat="42.83544" lon="-0.60176">
        <ele>1900.663818</ele>
        <time>2011-05-17T12:06:17Z</time>
      </trkpt>
      <trkpt lat="42.83544" lon="-0.60162">
        <ele>1898.740967</ele>
        <time>2011-05-17T12:06:29Z</time>
      </trkpt>
      <trkpt lat="42.83541" lon="-0.6015">
        <ele>1897.779785</ele>
        <time>2011-05-17T12:06:40Z</time>
      </trkpt>
      <trkpt lat="42.83538" lon="-0.60127">
        <ele>1896.337891</ele>
        <time>2011-05-17T12:06:57Z</time>
      </trkpt>
      <trkpt lat="42.83536" lon="-0.60113">
        <ele>1893.93457</ele>
        <time>2011-05-17T12:07:10Z</time>
      </trkpt>
      <trkpt lat="42.83525" lon="-0.60102">
        <ele>1892.973145</ele>
        <time>2011-05-17T12:07:26Z</time>
      </trkpt>
      <trkpt lat="42.83516" lon="-0.60097">
        <ele>1892.011963</ele>
        <time>2011-05-17T12:07:41Z</time>
      </trkpt>
      <trkpt lat="42.83507" lon="-0.60089">
        <ele>1890.089355</ele>
        <time>2011-05-17T12:07:55Z</time>
      </trkpt>
      <trkpt lat="42.83501" lon="-0.60085">
        <ele>1889.12793</ele>
        <time>2011-05-17T12:08:03Z</time>
      </trkpt>
      <trkpt lat="42.83496" lon="-0.60063">
        <ele>1889.12793</ele>
        <time>2011-05-17T12:08:22Z</time>
      </trkpt>
      <trkpt lat="42.83497" lon="-0.60058">
        <ele>1889.12793</ele>
        <time>2011-05-17T12:08:26Z</time>
      </trkpt>
      <trkpt lat="42.835" lon="-0.60052">
        <ele>1887.686035</ele>
        <time>2011-05-17T12:08:44Z</time>
      </trkpt>
      <trkpt lat="42.83501" lon="-0.6005">
        <ele>1887.205322</ele>
        <time>2011-05-17T12:11:10Z</time>
      </trkpt>
      <trkpt lat="42.83502" lon="-0.60048">
        <ele>1886.244141</ele>
        <time>2011-05-17T12:11:25Z</time>
      </trkpt>
      <trkpt lat="42.83504" lon="-0.60045">
        <ele>1886.724609</ele>
        <time>2011-05-17T12:11:28Z</time>
      </trkpt>
      <trkpt lat="42.83521" lon="-0.60024">
        <ele>1887.686035</ele>
        <time>2011-05-17T12:11:51Z</time>
      </trkpt>
      <trkpt lat="42.83524" lon="-0.60009">
        <ele>1889.12793</ele>
        <time>2011-05-17T12:12:04Z</time>
      </trkpt>
      <trkpt lat="42.83525" lon="-0.60002">
        <ele>1888.166748</ele>
        <time>2011-05-17T12:12:09Z</time>
      </trkpt>
      <trkpt lat="42.83527" lon="-0.59982">
        <ele>1890.089355</ele>
        <time>2011-05-17T12:12:26Z</time>
      </trkpt>
      <trkpt lat="42.83518" lon="-0.59969">
        <ele>1893.93457</ele>
        <time>2011-05-17T12:12:41Z</time>
      </trkpt>
      <trkpt lat="42.83507" lon="-0.59956">
        <ele>1895.857178</ele>
        <time>2011-05-17T12:12:58Z</time>
      </trkpt>
      <trkpt lat="42.8349" lon="-0.59935">
        <ele>1897.299072</ele>
        <time>2011-05-17T12:13:21Z</time>
      </trkpt>
      <trkpt lat="42.83487" lon="-0.59929">
        <ele>1897.299072</ele>
        <time>2011-05-17T12:13:27Z</time>
      </trkpt>
      <trkpt lat="42.83488" lon="-0.59918">
        <ele>1897.299072</ele>
        <time>2011-05-17T12:13:47Z</time>
      </trkpt>
      <trkpt lat="42.83483" lon="-0.59919">
        <ele>1896.818359</ele>
        <time>2011-05-17T12:13:58Z</time>
      </trkpt>
      <trkpt lat="42.83471" lon="-0.59902">
        <ele>1895.857178</ele>
        <time>2011-05-17T12:14:17Z</time>
      </trkpt>
      <trkpt lat="42.83471" lon="-0.59901">
        <ele>1895.376465</ele>
        <time>2011-05-17T12:14:18Z</time>
      </trkpt>
      <trkpt lat="42.8347" lon="-0.59892">
        <ele>1895.857178</ele>
        <time>2011-05-17T12:14:27Z</time>
      </trkpt>
      <trkpt lat="42.83464" lon="-0.59878">
        <ele>1893.93457</ele>
        <time>2011-05-17T12:14:39Z</time>
      </trkpt>
      <trkpt lat="42.8346" lon="-0.59874">
        <ele>1893.453857</ele>
        <time>2011-05-17T12:14:59Z</time>
      </trkpt>
      <trkpt lat="42.83458" lon="-0.59872">
        <ele>1892.973145</ele>
        <time>2011-05-17T12:15:10Z</time>
      </trkpt>
      <trkpt lat="42.83455" lon="-0.59859">
        <ele>1891.53125</ele>
        <time>2011-05-17T12:15:20Z</time>
      </trkpt>
      <trkpt lat="42.83451" lon="-0.5984">
        <ele>1889.12793</ele>
        <time>2011-05-17T12:15:36Z</time>
      </trkpt>
      <trkpt lat="42.83441" lon="-0.59827">
        <ele>1887.686035</ele>
        <time>2011-05-17T12:15:53Z</time>
      </trkpt>
      <trkpt lat="42.83439" lon="-0.59825">
        <ele>1887.205322</ele>
        <time>2011-05-17T12:15:56Z</time>
      </trkpt>
      <trkpt lat="42.83429" lon="-0.59816">
        <ele>1886.244141</ele>
        <time>2011-05-17T12:16:08Z</time>
      </trkpt>
      <trkpt lat="42.83413" lon="-0.59793">
        <ele>1884.802246</ele>
        <time>2011-05-17T12:16:30Z</time>
      </trkpt>
      <trkpt lat="42.83394" lon="-0.59776">
        <ele>1884.321533</ele>
        <time>2011-05-17T12:16:51Z</time>
      </trkpt>
      <trkpt lat="42.83376" lon="-0.59763">
        <ele>1884.802246</ele>
        <time>2011-05-17T12:17:11Z</time>
      </trkpt>
      <trkpt lat="42.83366" lon="-0.59757">
        <ele>1884.802246</ele>
        <time>2011-05-17T12:17:21Z</time>
      </trkpt>
      <trkpt lat="42.83353" lon="-0.59733">
        <ele>1885.763428</ele>
        <time>2011-05-17T12:17:43Z</time>
      </trkpt>
      <trkpt lat="42.83343" lon="-0.59715">
        <ele>1887.686035</ele>
        <time>2011-05-17T12:18:01Z</time>
      </trkpt>
      <trkpt lat="42.83332" lon="-0.59692">
        <ele>1888.647461</ele>
        <time>2011-05-17T12:18:20Z</time>
      </trkpt>
      <trkpt lat="42.8333" lon="-0.59664">
        <ele>1887.686035</ele>
        <time>2011-05-17T12:18:39Z</time>
      </trkpt>
      <trkpt lat="42.83345" lon="-0.59641">
        <ele>1888.166748</ele>
        <time>2011-05-17T12:18:58Z</time>
      </trkpt>
      <trkpt lat="42.8335" lon="-0.5962">
        <ele>1888.166748</ele>
        <time>2011-05-17T12:19:15Z</time>
      </trkpt>
      <trkpt lat="42.83336" lon="-0.59602">
        <ele>1885.763428</ele>
        <time>2011-05-17T12:19:35Z</time>
      </trkpt>
      <trkpt lat="42.83316" lon="-0.59589">
        <ele>1882.398682</ele>
        <time>2011-05-17T12:19:56Z</time>
      </trkpt>
      <trkpt lat="42.83312" lon="-0.59582">
        <ele>1880.956787</ele>
        <time>2011-05-17T12:20:04Z</time>
      </trkpt>
      <trkpt lat="42.833" lon="-0.59561">
        <ele>1877.111572</ele>
        <time>2011-05-17T12:20:23Z</time>
      </trkpt>
      <trkpt lat="42.83298" lon="-0.59555">
        <ele>1877.592041</ele>
        <time>2011-05-17T12:20:27Z</time>
      </trkpt>
      <trkpt lat="42.83291" lon="-0.59541">
        <ele>1876.630859</ele>
        <time>2011-05-17T12:20:39Z</time>
      </trkpt>
      <trkpt lat="42.83284" lon="-0.59524">
        <ele>1874.708252</ele>
        <time>2011-05-17T12:20:56Z</time>
      </trkpt>
      <trkpt lat="42.83276" lon="-0.59502">
        <ele>1872.304932</ele>
        <time>2011-05-17T12:21:14Z</time>
      </trkpt>
      <trkpt lat="42.83272" lon="-0.59475">
        <ele>1872.785645</ele>
        <time>2011-05-17T12:21:32Z</time>
      </trkpt>
      <trkpt lat="42.83272" lon="-0.5945">
        <ele>1872.785645</ele>
        <time>2011-05-17T12:21:48Z</time>
      </trkpt>
      <trkpt lat="42.83272" lon="-0.59448">
        <ele>1873.746826</ele>
        <time>2011-05-17T12:21:50Z</time>
      </trkpt>
      <trkpt lat="42.8327" lon="-0.59441">
        <ele>1874.227539</ele>
        <time>2011-05-17T12:21:55Z</time>
      </trkpt>
      <trkpt lat="42.83277" lon="-0.59416">
        <ele>1876.150146</ele>
        <time>2011-05-17T12:22:13Z</time>
      </trkpt>
      <trkpt lat="42.83277" lon="-0.59393">
        <ele>1874.227539</ele>
        <time>2011-05-17T12:22:28Z</time>
      </trkpt>
      <trkpt lat="42.83276" lon="-0.59391">
        <ele>1873.746826</ele>
        <time>2011-05-17T12:22:30Z</time>
      </trkpt>
      <trkpt lat="42.8326" lon="-0.59373">
        <ele>1872.304932</ele>
        <time>2011-05-17T12:22:50Z</time>
      </trkpt>
      <trkpt lat="42.83254" lon="-0.59345">
        <ele>1873.266357</ele>
        <time>2011-05-17T12:23:09Z</time>
      </trkpt>
      <trkpt lat="42.83252" lon="-0.59314">
        <ele>1874.708252</ele>
        <time>2011-05-17T12:23:29Z</time>
      </trkpt>
      <trkpt lat="42.83247" lon="-0.59288">
        <ele>1874.708252</ele>
        <time>2011-05-17T12:23:47Z</time>
      </trkpt>
      <trkpt lat="42.83242" lon="-0.59258">
        <ele>1876.150146</ele>
        <time>2011-05-17T12:24:08Z</time>
      </trkpt>
      <trkpt lat="42.83239" lon="-0.59236">
        <ele>1877.592041</ele>
        <time>2011-05-17T12:24:25Z</time>
      </trkpt>
      <trkpt lat="42.83225" lon="-0.59206">
        <ele>1877.592041</ele>
        <time>2011-05-17T12:24:48Z</time>
      </trkpt>
      <trkpt lat="42.83226" lon="-0.59182">
        <ele>1877.111572</ele>
        <time>2011-05-17T12:25:06Z</time>
      </trkpt>
      <trkpt lat="42.83227" lon="-0.59178">
        <ele>1878.553467</ele>
        <time>2011-05-17T12:25:10Z</time>
      </trkpt>
      <trkpt lat="42.8323" lon="-0.59156">
        <ele>1879.514648</ele>
        <time>2011-05-17T12:25:26Z</time>
      </trkpt>
      <trkpt lat="42.83235" lon="-0.59149">
        <ele>1880.476074</ele>
        <time>2011-05-17T12:25:33Z</time>
      </trkpt>
      <trkpt lat="42.83245" lon="-0.59138">
        <ele>1883.359863</ele>
        <time>2011-05-17T12:25:49Z</time>
      </trkpt>
      <trkpt lat="42.83258" lon="-0.59125">
        <ele>1882.87915</ele>
        <time>2011-05-17T12:26:04Z</time>
      </trkpt>
      <trkpt lat="42.83261" lon="-0.59115">
        <ele>1883.840576</ele>
        <time>2011-05-17T12:26:13Z</time>
      </trkpt>
      <trkpt lat="42.8326" lon="-0.59087">
        <ele>1884.802246</ele>
        <time>2011-05-17T12:26:33Z</time>
      </trkpt>
      <trkpt lat="42.83259" lon="-0.59056">
        <ele>1885.282715</ele>
        <time>2011-05-17T12:26:54Z</time>
      </trkpt>
      <trkpt lat="42.83264" lon="-0.59028">
        <ele>1884.802246</ele>
        <time>2011-05-17T12:27:13Z</time>
      </trkpt>
      <trkpt lat="42.83271" lon="-0.59009">
        <ele>1884.321533</ele>
        <time>2011-05-17T12:27:27Z</time>
      </trkpt>
      <trkpt lat="42.83277" lon="-0.58984">
        <ele>1883.840576</ele>
        <time>2011-05-17T12:27:45Z</time>
      </trkpt>
      <trkpt lat="42.83283" lon="-0.58957">
        <ele>1883.359863</ele>
        <time>2011-05-17T12:28:03Z</time>
      </trkpt>
      <trkpt lat="42.83289" lon="-0.58935">
        <ele>1885.763428</ele>
        <time>2011-05-17T12:28:20Z</time>
      </trkpt>
      <trkpt lat="42.8329" lon="-0.5892">
        <ele>1887.686035</ele>
        <time>2011-05-17T12:28:31Z</time>
      </trkpt>
      <trkpt lat="42.83293" lon="-0.58895">
        <ele>1889.12793</ele>
        <time>2011-05-17T12:28:50Z</time>
      </trkpt>
      <trkpt lat="42.83294" lon="-0.5888">
        <ele>1889.608643</ele>
        <time>2011-05-17T12:29:00Z</time>
      </trkpt>
      <trkpt lat="42.83297" lon="-0.58851">
        <ele>1890.089355</ele>
        <time>2011-05-17T12:29:20Z</time>
      </trkpt>
      <trkpt lat="42.833" lon="-0.58834">
        <ele>1890.569824</ele>
        <time>2011-05-17T12:29:33Z</time>
      </trkpt>
      <trkpt lat="42.83304" lon="-0.58807">
        <ele>1891.050537</ele>
        <time>2011-05-17T12:29:52Z</time>
      </trkpt>
      <trkpt lat="42.83302" lon="-0.58781">
        <ele>1892.011963</ele>
        <time>2011-05-17T12:30:11Z</time>
      </trkpt>
      <trkpt lat="42.833" lon="-0.58767">
        <ele>1892.492676</ele>
        <time>2011-05-17T12:30:28Z</time>
      </trkpt>
      <trkpt lat="42.833" lon="-0.58767">
        <ele>1892.973145</ele>
        <time>2011-05-17T12:31:18Z</time>
      </trkpt>
      <trkpt lat="42.83299" lon="-0.58766">
        <ele>1892.492676</ele>
        <time>2011-05-17T12:31:48Z</time>
      </trkpt>
      <trkpt lat="42.83299" lon="-0.58765">
        <ele>1892.492676</ele>
        <time>2011-05-17T12:32:04Z</time>
      </trkpt>
      <trkpt lat="42.83293" lon="-0.58751">
        <ele>1893.93457</ele>
        <time>2011-05-17T12:32:24Z</time>
      </trkpt>
      <trkpt lat="42.83289" lon="-0.58739">
        <ele>1894.895752</ele>
        <time>2011-05-17T12:32:34Z</time>
      </trkpt>
      <trkpt lat="42.83288" lon="-0.58727">
        <ele>1896.337891</ele>
        <time>2011-05-17T12:32:46Z</time>
      </trkpt>
      <trkpt lat="42.83291" lon="-0.58701">
        <ele>1896.337891</ele>
        <time>2011-05-17T12:33:05Z</time>
      </trkpt>
      <trkpt lat="42.83292" lon="-0.58669">
        <ele>1898.260254</ele>
        <time>2011-05-17T12:33:27Z</time>
      </trkpt>
      <trkpt lat="42.83292" lon="-0.58639">
        <ele>1897.779785</ele>
        <time>2011-05-17T12:33:48Z</time>
      </trkpt>
      <trkpt lat="42.83293" lon="-0.58636">
        <ele>1899.22168</ele>
        <time>2011-05-17T12:33:51Z</time>
      </trkpt>
      <trkpt lat="42.83299" lon="-0.58614">
        <ele>1898.740967</ele>
        <time>2011-05-17T12:34:08Z</time>
      </trkpt>
      <trkpt lat="42.833" lon="-0.58612">
        <ele>1898.740967</ele>
        <time>2011-05-17T12:34:10Z</time>
      </trkpt>
      <trkpt lat="42.83308" lon="-0.58595">
        <ele>1900.663818</ele>
        <time>2011-05-17T12:34:24Z</time>
      </trkpt>
      <trkpt lat="42.83319" lon="-0.58572">
        <ele>1902.586426</ele>
        <time>2011-05-17T12:34:44Z</time>
      </trkpt>
      <trkpt lat="42.83328" lon="-0.58554">
        <ele>1903.067139</ele>
        <time>2011-05-17T12:34:59Z</time>
      </trkpt>
      <trkpt lat="42.83338" lon="-0.58534">
        <ele>1904.509033</ele>
        <time>2011-05-17T12:35:17Z</time>
      </trkpt>
      <trkpt lat="42.83339" lon="-0.58533">
        <ele>1904.989746</ele>
        <time>2011-05-17T12:35:18Z</time>
      </trkpt>
      <trkpt lat="42.83348" lon="-0.58514">
        <ele>1905.950928</ele>
        <time>2011-05-17T12:35:35Z</time>
      </trkpt>
      <trkpt lat="42.83352" lon="-0.58508">
        <ele>1906.431641</ele>
        <time>2011-05-17T12:35:41Z</time>
      </trkpt>
      <trkpt lat="42.83359" lon="-0.58484">
        <ele>1906.431641</ele>
        <time>2011-05-17T12:36:00Z</time>
      </trkpt>
      <trkpt lat="42.8336" lon="-0.58461">
        <ele>1905.950928</ele>
        <time>2011-05-17T12:36:16Z</time>
      </trkpt>
      <trkpt lat="42.83365" lon="-0.58447">
        <ele>1904.509033</ele>
        <time>2011-05-17T12:36:26Z</time>
      </trkpt>
      <trkpt lat="42.83381" lon="-0.58439">
        <ele>1902.105713</ele>
        <time>2011-05-17T12:36:42Z</time>
      </trkpt>
      <trkpt lat="42.83396" lon="-0.58434">
        <ele>1901.144531</ele>
        <time>2011-05-17T12:36:56Z</time>
      </trkpt>
      <trkpt lat="42.83398" lon="-0.58432">
        <ele>1900.18335</ele>
        <time>2011-05-17T12:36:58Z</time>
      </trkpt>
      <trkpt lat="42.83401" lon="-0.58428">
        <ele>1898.740967</ele>
        <time>2011-05-17T12:37:02Z</time>
      </trkpt>
      <trkpt lat="42.83413" lon="-0.58418">
        <ele>1897.779785</ele>
        <time>2011-05-17T12:37:16Z</time>
      </trkpt>
      <trkpt lat="42.83425" lon="-0.58395">
        <ele>1897.779785</ele>
        <time>2011-05-17T12:37:36Z</time>
      </trkpt>
      <trkpt lat="42.8342" lon="-0.58377">
        <ele>1897.299072</ele>
        <time>2011-05-17T12:37:48Z</time>
      </trkpt>
      <trkpt lat="42.83406" lon="-0.58358">
        <ele>1896.818359</ele>
        <time>2011-05-17T12:38:07Z</time>
      </trkpt>
      <trkpt lat="42.83405" lon="-0.58355">
        <ele>1897.299072</ele>
        <time>2011-05-17T12:38:09Z</time>
      </trkpt>
      <trkpt lat="42.8339" lon="-0.5834">
        <ele>1897.779785</ele>
        <time>2011-05-17T12:38:27Z</time>
      </trkpt>
      <trkpt lat="42.83386" lon="-0.58338">
        <ele>1896.337891</ele>
        <time>2011-05-17T12:38:31Z</time>
      </trkpt>
      <trkpt lat="42.83378" lon="-0.58331">
        <ele>1895.376465</ele>
        <time>2011-05-17T12:38:40Z</time>
      </trkpt>
      <trkpt lat="42.83369" lon="-0.58315">
        <ele>1898.260254</ele>
        <time>2011-05-17T12:38:56Z</time>
      </trkpt>
      <trkpt lat="42.83359" lon="-0.58298">
        <ele>1900.663818</ele>
        <time>2011-05-17T12:39:14Z</time>
      </trkpt>
      <trkpt lat="42.83348" lon="-0.58284">
        <ele>1902.586426</ele>
        <time>2011-05-17T12:39:29Z</time>
      </trkpt>
      <trkpt lat="42.83346" lon="-0.58282">
        <ele>1903.067139</ele>
        <time>2011-05-17T12:39:32Z</time>
      </trkpt>
      <trkpt lat="42.83337" lon="-0.5827">
        <ele>1904.509033</ele>
        <time>2011-05-17T12:39:47Z</time>
      </trkpt>
      <trkpt lat="42.83333" lon="-0.58265">
        <ele>1904.028564</ele>
        <time>2011-05-17T12:39:52Z</time>
      </trkpt>
      <trkpt lat="42.83315" lon="-0.58252">
        <ele>1903.067139</ele>
        <time>2011-05-17T12:40:11Z</time>
      </trkpt>
      <trkpt lat="42.83301" lon="-0.58237">
        <ele>1904.989746</ele>
        <time>2011-05-17T12:40:29Z</time>
      </trkpt>
      <trkpt lat="42.83297" lon="-0.58231">
        <ele>1905.950928</ele>
        <time>2011-05-17T12:40:36Z</time>
      </trkpt>
      <trkpt lat="42.83288" lon="-0.58219">
        <ele>1908.354248</ele>
        <time>2011-05-17T12:40:52Z</time>
      </trkpt>
      <trkpt lat="42.83281" lon="-0.58204">
        <ele>1909.315674</ele>
        <time>2011-05-17T12:41:07Z</time>
      </trkpt>
      <trkpt lat="42.83264" lon="-0.58193">
        <ele>1910.757568</ele>
        <time>2011-05-17T12:41:26Z</time>
      </trkpt>
      <trkpt lat="42.83246" lon="-0.58183">
        <ele>1909.796143</ele>
        <time>2011-05-17T12:41:44Z</time>
      </trkpt>
      <trkpt lat="42.83231" lon="-0.58168">
        <ele>1910.757568</ele>
        <time>2011-05-17T12:42:01Z</time>
      </trkpt>
      <trkpt lat="42.8322" lon="-0.58147">
        <ele>1911.238281</ele>
        <time>2011-05-17T12:42:18Z</time>
      </trkpt>
      <trkpt lat="42.8321" lon="-0.58124">
        <ele>1911.238281</ele>
        <time>2011-05-17T12:42:36Z</time>
      </trkpt>
      <trkpt lat="42.83209" lon="-0.58119">
        <ele>1911.238281</ele>
        <time>2011-05-17T12:42:39Z</time>
      </trkpt>
      <trkpt lat="42.83193" lon="-0.58108">
        <ele>1910.757568</ele>
        <time>2011-05-17T12:42:56Z</time>
      </trkpt>
      <trkpt lat="42.8318" lon="-0.58088">
        <ele>1911.718994</ele>
        <time>2011-05-17T12:43:15Z</time>
      </trkpt>
      <trkpt lat="42.83168" lon="-0.58082">
        <ele>1912.680176</ele>
        <time>2011-05-17T12:43:31Z</time>
      </trkpt>
      <trkpt lat="42.83163" lon="-0.58079">
        <ele>1910.757568</ele>
        <time>2011-05-17T12:43:43Z</time>
      </trkpt>
      <trkpt lat="42.83155" lon="-0.58071">
        <ele>1908.354248</ele>
        <time>2011-05-17T12:43:55Z</time>
      </trkpt>
      <trkpt lat="42.83141" lon="-0.58049">
        <ele>1907.873779</ele>
        <time>2011-05-17T12:44:16Z</time>
      </trkpt>
      <trkpt lat="42.83132" lon="-0.58042">
        <ele>1911.238281</ele>
        <time>2011-05-17T12:44:31Z</time>
      </trkpt>
      <trkpt lat="42.83127" lon="-0.58033">
        <ele>1913.160889</ele>
        <time>2011-05-17T12:44:44Z</time>
      </trkpt>
      <trkpt lat="42.83128" lon="-0.58025">
        <ele>1914.12207</ele>
        <time>2011-05-17T12:44:51Z</time>
      </trkpt>
      <trkpt lat="42.83128" lon="-0.5802">
        <ele>1914.12207</ele>
        <time>2011-05-17T12:44:55Z</time>
      </trkpt>
      <trkpt lat="42.83125" lon="-0.5801">
        <ele>1914.12207</ele>
        <time>2011-05-17T12:45:03Z</time>
      </trkpt>
      <trkpt lat="42.83124" lon="-0.58">
        <ele>1913.641357</ele>
        <time>2011-05-17T12:45:10Z</time>
      </trkpt>
      <trkpt lat="42.83113" lon="-0.57979">
        <ele>1911.238281</ele>
        <time>2011-05-17T12:45:30Z</time>
      </trkpt>
      <trkpt lat="42.83096" lon="-0.57956">
        <ele>1910.276855</ele>
        <time>2011-05-17T12:45:52Z</time>
      </trkpt>
      <trkpt lat="42.83079" lon="-0.57936">
        <ele>1910.757568</ele>
        <time>2011-05-17T12:46:12Z</time>
      </trkpt>
      <trkpt lat="42.83069" lon="-0.57927">
        <ele>1913.160889</ele>
        <time>2011-05-17T12:46:26Z</time>
      </trkpt>
      <trkpt lat="42.8306" lon="-0.57917">
        <ele>1915.083496</ele>
        <time>2011-05-17T12:46:39Z</time>
      </trkpt>
      <trkpt lat="42.83052" lon="-0.57903">
        <ele>1916.525635</ele>
        <time>2011-05-17T12:46:54Z</time>
      </trkpt>
      <trkpt lat="42.83051" lon="-0.57902">
        <ele>1916.044922</ele>
        <time>2011-05-17T12:46:55Z</time>
      </trkpt>
      <trkpt lat="42.83049" lon="-0.57891">
        <ele>1917.006348</ele>
        <time>2011-05-17T12:47:03Z</time>
      </trkpt>
      <trkpt lat="42.83036" lon="-0.57869">
        <ele>1917.486816</ele>
        <time>2011-05-17T12:47:23Z</time>
      </trkpt>
      <trkpt lat="42.83033" lon="-0.57864">
        <ele>1918.928955</ele>
        <time>2011-05-17T12:47:39Z</time>
      </trkpt>
      <trkpt lat="42.83031" lon="-0.5786">
        <ele>1920.37085</ele>
        <time>2011-05-17T12:48:13Z</time>
      </trkpt>
      <trkpt lat="42.8302" lon="-0.57845">
        <ele>1918.928955</ele>
        <time>2011-05-17T12:48:31Z</time>
      </trkpt>
      <trkpt lat="42.83012" lon="-0.57821">
        <ele>1918.928955</ele>
        <time>2011-05-17T12:48:51Z</time>
      </trkpt>
      <trkpt lat="42.83011" lon="-0.5782">
        <ele>1918.928955</ele>
        <time>2011-05-17T12:49:14Z</time>
      </trkpt>
      <trkpt lat="42.83011" lon="-0.5782">
        <ele>1918.928955</ele>
        <time>2011-05-17T12:49:33Z</time>
      </trkpt>
      <trkpt lat="42.83012" lon="-0.57821">
        <ele>1917.967529</ele>
        <time>2011-05-17T12:50:25Z</time>
      </trkpt>
      <trkpt lat="42.83011" lon="-0.57821">
        <ele>1918.448242</ele>
        <time>2011-05-17T12:51:54Z</time>
      </trkpt>
      <trkpt lat="42.83011" lon="-0.57821">
        <ele>1918.448242</ele>
        <time>2011-05-17T12:52:37Z</time>
      </trkpt>
      <trkpt lat="42.8301" lon="-0.57821">
        <ele>1918.928955</ele>
        <time>2011-05-17T12:53:25Z</time>
      </trkpt>
      <trkpt lat="42.8301" lon="-0.5782">
        <ele>1917.486816</ele>
        <time>2011-05-17T12:55:50Z</time>
      </trkpt>
      <trkpt lat="42.8301" lon="-0.5782">
        <ele>1917.967529</ele>
        <time>2011-05-17T12:56:15Z</time>
      </trkpt>
      <trkpt lat="42.83011" lon="-0.57819">
        <ele>1917.967529</ele>
        <time>2011-05-17T13:00:44Z</time>
      </trkpt>
      <trkpt lat="42.83014" lon="-0.57804">
        <ele>1916.525635</ele>
        <time>2011-05-17T13:00:59Z</time>
      </trkpt>
      <trkpt lat="42.83016" lon="-0.57785">
        <ele>1915.564209</ele>
        <time>2011-05-17T13:01:17Z</time>
      </trkpt>
      <trkpt lat="42.83019" lon="-0.57776">
        <ele>1913.160889</ele>
        <time>2011-05-17T13:01:31Z</time>
      </trkpt>
      <trkpt lat="42.83019" lon="-0.57773">
        <ele>1913.160889</ele>
        <time>2011-05-17T13:01:34Z</time>
      </trkpt>
      <trkpt lat="42.83017" lon="-0.57766">
        <ele>1912.680176</ele>
        <time>2011-05-17T13:01:39Z</time>
      </trkpt>
      <trkpt lat="42.83017" lon="-0.5774">
        <ele>1911.238281</ele>
        <time>2011-05-17T13:01:59Z</time>
      </trkpt>
      <trkpt lat="42.8302" lon="-0.57711">
        <ele>1908.834961</ele>
        <time>2011-05-17T13:02:20Z</time>
      </trkpt>
      <trkpt lat="42.83013" lon="-0.57701">
        <ele>1908.354248</ele>
        <time>2011-05-17T13:02:37Z</time>
      </trkpt>
      <trkpt lat="42.83013" lon="-0.57716">
        <ele>1906.431641</ele>
        <time>2011-05-17T13:02:50Z</time>
      </trkpt>
      <trkpt lat="42.83008" lon="-0.5773">
        <ele>1904.028564</ele>
        <time>2011-05-17T13:03:02Z</time>
      </trkpt>
      <trkpt lat="42.82999" lon="-0.57746">
        <ele>1902.105713</ele>
        <time>2011-05-17T13:03:21Z</time>
      </trkpt>
      <trkpt lat="42.82996" lon="-0.57756">
        <ele>1898.740967</ele>
        <time>2011-05-17T13:03:35Z</time>
      </trkpt>
      <trkpt lat="42.82991" lon="-0.57768">
        <ele>1895.376465</ele>
        <time>2011-05-17T13:03:48Z</time>
      </trkpt>
      <trkpt lat="42.82988" lon="-0.57777">
        <ele>1893.453857</ele>
        <time>2011-05-17T13:03:57Z</time>
      </trkpt>
      <trkpt lat="42.82983" lon="-0.57796">
        <ele>1890.089355</ele>
        <time>2011-05-17T13:04:17Z</time>
      </trkpt>
      <trkpt lat="42.82983" lon="-0.57797">
        <ele>1889.608643</ele>
        <time>2011-05-17T13:04:18Z</time>
      </trkpt>
      <trkpt lat="42.82975" lon="-0.57814">
        <ele>1887.205322</ele>
        <time>2011-05-17T13:04:37Z</time>
      </trkpt>
      <trkpt lat="42.82964" lon="-0.57832">
        <ele>1883.359863</ele>
        <time>2011-05-17T13:04:57Z</time>
      </trkpt>
      <trkpt lat="42.82952" lon="-0.57848">
        <ele>1879.995361</ele>
        <time>2011-05-17T13:05:16Z</time>
      </trkpt>
      <trkpt lat="42.82943" lon="-0.57865">
        <ele>1878.072754</ele>
        <time>2011-05-17T13:05:35Z</time>
      </trkpt>
      <trkpt lat="42.82935" lon="-0.57881">
        <ele>1874.708252</ele>
        <time>2011-05-17T13:05:50Z</time>
      </trkpt>
      <trkpt lat="42.82928" lon="-0.57901">
        <ele>1871.824219</ele>
        <time>2011-05-17T13:06:11Z</time>
      </trkpt>
      <trkpt lat="42.82921" lon="-0.57917">
        <ele>1868.94043</ele>
        <time>2011-05-17T13:06:27Z</time>
      </trkpt>
      <trkpt lat="42.82913" lon="-0.57936">
        <ele>1865.575684</ele>
        <time>2011-05-17T13:06:45Z</time>
      </trkpt>
      <trkpt lat="42.82907" lon="-0.57954">
        <ele>1863.172363</ele>
        <time>2011-05-17T13:07:02Z</time>
      </trkpt>
      <trkpt lat="42.82904" lon="-0.57963">
        <ele>1859.807617</ele>
        <time>2011-05-17T13:07:11Z</time>
      </trkpt>
      <trkpt lat="42.82901" lon="-0.57962">
        <ele>1857.404541</ele>
        <time>2011-05-17T13:07:19Z</time>
      </trkpt>
      <trkpt lat="42.82893" lon="-0.57935">
        <ele>1855.481934</ele>
        <time>2011-05-17T13:07:42Z</time>
      </trkpt>
      <trkpt lat="42.82892" lon="-0.57932">
        <ele>1854.040039</ele>
        <time>2011-05-17T13:07:45Z</time>
      </trkpt>
      <trkpt lat="42.82889" lon="-0.57926">
        <ele>1852.117188</ele>
        <time>2011-05-17T13:07:52Z</time>
      </trkpt>
      <trkpt lat="42.82887" lon="-0.57922">
        <ele>1852.117188</ele>
        <time>2011-05-17T13:07:56Z</time>
      </trkpt>
      <trkpt lat="42.82878" lon="-0.57903">
        <ele>1849.713867</ele>
        <time>2011-05-17T13:08:17Z</time>
      </trkpt>
      <trkpt lat="42.82874" lon="-0.5789">
        <ele>1848.271729</ele>
        <time>2011-05-17T13:08:28Z</time>
      </trkpt>
      <trkpt lat="42.82873" lon="-0.57883">
        <ele>1846.829834</ele>
        <time>2011-05-17T13:08:37Z</time>
      </trkpt>
      <trkpt lat="42.82862" lon="-0.57883">
        <ele>1843.465332</ele>
        <time>2011-05-17T13:08:51Z</time>
      </trkpt>
      <trkpt lat="42.82855" lon="-0.5789">
        <ele>1840.581299</ele>
        <time>2011-05-17T13:09:03Z</time>
      </trkpt>
      <trkpt lat="42.82851" lon="-0.57904">
        <ele>1837.69751</ele>
        <time>2011-05-17T13:09:18Z</time>
      </trkpt>
      <trkpt lat="42.8285" lon="-0.57907">
        <ele>1838.178223</ele>
        <time>2011-05-17T13:09:21Z</time>
      </trkpt>
      <trkpt lat="42.82848" lon="-0.57914">
        <ele>1837.69751</ele>
        <time>2011-05-17T13:09:26Z</time>
      </trkpt>
      <trkpt lat="42.82842" lon="-0.57923">
        <ele>1835.774658</ele>
        <time>2011-05-17T13:09:37Z</time>
      </trkpt>
      <trkpt lat="42.82833" lon="-0.57945">
        <ele>1832.890625</ele>
        <time>2011-05-17T13:09:55Z</time>
      </trkpt>
      <trkpt lat="42.82829" lon="-0.57967">
        <ele>1829.526123</ele>
        <time>2011-05-17T13:10:14Z</time>
      </trkpt>
      <trkpt lat="42.8283" lon="-0.57991">
        <ele>1825.680908</ele>
        <time>2011-05-17T13:10:34Z</time>
      </trkpt>
      <trkpt lat="42.82831" lon="-0.58006">
        <ele>1822.797119</ele>
        <time>2011-05-17T13:10:47Z</time>
      </trkpt>
      <trkpt lat="42.82831" lon="-0.5801">
        <ele>1822.316406</ele>
        <time>2011-05-17T13:10:50Z</time>
      </trkpt>
      <trkpt lat="42.82832" lon="-0.58018">
        <ele>1821.835693</ele>
        <time>2011-05-17T13:10:57Z</time>
      </trkpt>
      <trkpt lat="42.8283" lon="-0.58023">
        <ele>1820.393799</ele>
        <time>2011-05-17T13:11:01Z</time>
      </trkpt>
      <trkpt lat="42.82828" lon="-0.58038">
        <ele>1817.029053</ele>
        <time>2011-05-17T13:11:15Z</time>
      </trkpt>
      <trkpt lat="42.82817" lon="-0.58052">
        <ele>1815.106445</ele>
        <time>2011-05-17T13:11:32Z</time>
      </trkpt>
      <trkpt lat="42.82802" lon="-0.58068">
        <ele>1811.26123</ele>
        <time>2011-05-17T13:11:52Z</time>
      </trkpt>
      <trkpt lat="42.82789" lon="-0.5808">
        <ele>1808.85791</ele>
        <time>2011-05-17T13:12:12Z</time>
      </trkpt>
      <trkpt lat="42.82781" lon="-0.58091">
        <ele>1805.973877</ele>
        <time>2011-05-17T13:12:26Z</time>
      </trkpt>
      <trkpt lat="42.82772" lon="-0.58098">
        <ele>1803.570557</ele>
        <time>2011-05-17T13:12:38Z</time>
      </trkpt>
      <trkpt lat="42.82767" lon="-0.58101">
        <ele>1803.089844</ele>
        <time>2011-05-17T13:12:44Z</time>
      </trkpt>
      <trkpt lat="42.8275" lon="-0.58111">
        <ele>1799.244629</ele>
        <time>2011-05-17T13:13:03Z</time>
      </trkpt>
      <trkpt lat="42.82731" lon="-0.58121">
        <ele>1797.322021</ele>
        <time>2011-05-17T13:13:24Z</time>
      </trkpt>
      <trkpt lat="42.82711" lon="-0.58133">
        <ele>1795.399414</ele>
        <time>2011-05-17T13:13:45Z</time>
      </trkpt>
      <trkpt lat="42.82695" lon="-0.5813">
        <ele>1792.034912</ele>
        <time>2011-05-17T13:14:03Z</time>
      </trkpt>
      <trkpt lat="42.82695" lon="-0.58129">
        <ele>1792.034912</ele>
        <time>2011-05-17T13:14:04Z</time>
      </trkpt>
      <trkpt lat="42.82696" lon="-0.58107">
        <ele>1787.70874</ele>
        <time>2011-05-17T13:14:20Z</time>
      </trkpt>
      <trkpt lat="42.82696" lon="-0.58105">
        <ele>1787.70874</ele>
        <time>2011-05-17T13:14:21Z</time>
      </trkpt>
      <trkpt lat="42.82696" lon="-0.58098">
        <ele>1786.747314</ele>
        <time>2011-05-17T13:14:26Z</time>
      </trkpt>
      <trkpt lat="42.82696" lon="-0.5808">
        <ele>1783.382812</ele>
        <time>2011-05-17T13:14:40Z</time>
      </trkpt>
      <trkpt lat="42.82697" lon="-0.58059">
        <ele>1780.499023</ele>
        <time>2011-05-17T13:14:58Z</time>
      </trkpt>
      <trkpt lat="42.82693" lon="-0.5803">
        <ele>1777.61499</ele>
        <time>2011-05-17T13:15:19Z</time>
      </trkpt>
      <trkpt lat="42.82686" lon="-0.58003">
        <ele>1775.692383</ele>
        <time>2011-05-17T13:15:39Z</time>
      </trkpt>
      <trkpt lat="42.8268" lon="-0.57989">
        <ele>1772.808594</ele>
        <time>2011-05-17T13:15:54Z</time>
      </trkpt>
      <trkpt lat="42.82673" lon="-0.57991">
        <ele>1769.443848</ele>
        <time>2011-05-17T13:16:03Z</time>
      </trkpt>
      <trkpt lat="42.82669" lon="-0.57992">
        <ele>1768.482422</ele>
        <time>2011-05-17T13:16:07Z</time>
      </trkpt>
      <trkpt lat="42.82659" lon="-0.57988">
        <ele>1765.11792</ele>
        <time>2011-05-17T13:16:20Z</time>
      </trkpt>
      <trkpt lat="42.82658" lon="-0.57986">
        <ele>1765.11792</ele>
        <time>2011-05-17T13:16:21Z</time>
      </trkpt>
      <trkpt lat="42.82653" lon="-0.57977">
        <ele>1763.195312</ele>
        <time>2011-05-17T13:16:30Z</time>
      </trkpt>
      <trkpt lat="42.82638" lon="-0.5796">
        <ele>1759.830566</ele>
        <time>2011-05-17T13:16:49Z</time>
      </trkpt>
      <trkpt lat="42.82632" lon="-0.57944">
        <ele>1756.946777</ele>
        <time>2011-05-17T13:17:03Z</time>
      </trkpt>
      <trkpt lat="42.82626" lon="-0.57933">
        <ele>1753.582031</ele>
        <time>2011-05-17T13:17:14Z</time>
      </trkpt>
      <trkpt lat="42.82621" lon="-0.57929">
        <ele>1753.101318</ele>
        <time>2011-05-17T13:17:21Z</time>
      </trkpt>
      <trkpt lat="42.82611" lon="-0.57919">
        <ele>1752.139893</ele>
        <time>2011-05-17T13:17:34Z</time>
      </trkpt>
      <trkpt lat="42.82606" lon="-0.57921">
        <ele>1750.217529</ele>
        <time>2011-05-17T13:17:40Z</time>
      </trkpt>
      <trkpt lat="42.82602" lon="-0.57921">
        <ele>1747.333496</ele>
        <time>2011-05-17T13:17:59Z</time>
      </trkpt>
      <trkpt lat="42.82602" lon="-0.57922">
        <ele>1748.775391</ele>
        <time>2011-05-17T13:18:27Z</time>
      </trkpt>
      <trkpt lat="42.82592" lon="-0.57927">
        <ele>1745.891602</ele>
        <time>2011-05-17T13:18:55Z</time>
      </trkpt>
      <trkpt lat="42.82587" lon="-0.5793">
        <ele>1745.410889</ele>
        <time>2011-05-17T13:19:08Z</time>
      </trkpt>
      <trkpt lat="42.82566" lon="-0.57944">
        <ele>1741.565674</ele>
        <time>2011-05-17T13:19:28Z</time>
      </trkpt>
      <trkpt lat="42.82564" lon="-0.57946">
        <ele>1742.046387</ele>
        <time>2011-05-17T13:19:31Z</time>
      </trkpt>
      <trkpt lat="42.82561" lon="-0.57946">
        <ele>1740.123779</ele>
        <time>2011-05-17T13:19:34Z</time>
      </trkpt>
      <trkpt lat="42.82559" lon="-0.57924">
        <ele>1738.200928</ele>
        <time>2011-05-17T13:19:51Z</time>
      </trkpt>
      <trkpt lat="42.82557" lon="-0.57916">
        <ele>1738.200928</ele>
        <time>2011-05-17T13:19:58Z</time>
      </trkpt>
      <trkpt lat="42.82545" lon="-0.57896">
        <ele>1735.316895</ele>
        <time>2011-05-17T13:20:15Z</time>
      </trkpt>
      <trkpt lat="42.82541" lon="-0.57893">
        <ele>1734.836426</ele>
        <time>2011-05-17T13:20:19Z</time>
      </trkpt>
      <trkpt lat="42.82533" lon="-0.57877">
        <ele>1730.991211</ele>
        <time>2011-05-17T13:20:33Z</time>
      </trkpt>
      <trkpt lat="42.82528" lon="-0.57856">
        <ele>1728.107178</ele>
        <time>2011-05-17T13:20:50Z</time>
      </trkpt>
      <trkpt lat="42.82528" lon="-0.57854">
        <ele>1727.145996</ele>
        <time>2011-05-17T13:20:52Z</time>
      </trkpt>
      <trkpt lat="42.82514" lon="-0.57831">
        <ele>1723.781006</ele>
        <time>2011-05-17T13:21:12Z</time>
      </trkpt>
      <trkpt lat="42.82502" lon="-0.578">
        <ele>1722.819824</ele>
        <time>2011-05-17T13:21:35Z</time>
      </trkpt>
      <trkpt lat="42.82501" lon="-0.57789">
        <ele>1719.935791</ele>
        <time>2011-05-17T13:21:42Z</time>
      </trkpt>
      <trkpt lat="42.82502" lon="-0.57776">
        <ele>1718.493896</ele>
        <time>2011-05-17T13:21:51Z</time>
      </trkpt>
      <trkpt lat="42.82498" lon="-0.57763">
        <ele>1716.090576</ele>
        <time>2011-05-17T13:22:01Z</time>
      </trkpt>
      <trkpt lat="42.82488" lon="-0.57765">
        <ele>1714.648682</ele>
        <time>2011-05-17T13:22:12Z</time>
      </trkpt>
      <trkpt lat="42.82482" lon="-0.57788">
        <ele>1710.803467</ele>
        <time>2011-05-17T13:22:30Z</time>
      </trkpt>
      <trkpt lat="42.82471" lon="-0.57814">
        <ele>1708.400146</ele>
        <time>2011-05-17T13:22:51Z</time>
      </trkpt>
      <trkpt lat="42.8247" lon="-0.5782">
        <ele>1706.958008</ele>
        <time>2011-05-17T13:22:56Z</time>
      </trkpt>
      <trkpt lat="42.82469" lon="-0.57821">
        <ele>1707.438721</ele>
        <time>2011-05-17T13:22:57Z</time>
      </trkpt>
      <trkpt lat="42.82471" lon="-0.57845">
        <ele>1705.516113</ele>
        <time>2011-05-17T13:23:14Z</time>
      </trkpt>
      <trkpt lat="42.82471" lon="-0.5785">
        <ele>1704.074219</ele>
        <time>2011-05-17T13:23:19Z</time>
      </trkpt>
      <trkpt lat="42.8247" lon="-0.57856">
        <ele>1703.593506</ele>
        <time>2011-05-17T13:23:23Z</time>
      </trkpt>
      <trkpt lat="42.82472" lon="-0.57872">
        <ele>1703.112793</ele>
        <time>2011-05-17T13:23:34Z</time>
      </trkpt>
      <trkpt lat="42.82472" lon="-0.57897">
        <ele>1700.709473</ele>
        <time>2011-05-17T13:23:52Z</time>
      </trkpt>
      <trkpt lat="42.82471" lon="-0.57918">
        <ele>1700.229004</ele>
        <time>2011-05-17T13:24:08Z</time>
      </trkpt>
      <trkpt lat="42.82468" lon="-0.57932">
        <ele>1699.748291</ele>
        <time>2011-05-17T13:24:18Z</time>
      </trkpt>
      <trkpt lat="42.82466" lon="-0.5796">
        <ele>1698.306152</ele>
        <time>2011-05-17T13:24:37Z</time>
      </trkpt>
      <trkpt lat="42.82467" lon="-0.57971">
        <ele>1698.306152</ele>
        <time>2011-05-17T13:24:45Z</time>
      </trkpt>
      <trkpt lat="42.82463" lon="-0.57988">
        <ele>1697.825684</ele>
        <time>2011-05-17T13:24:57Z</time>
      </trkpt>
      <trkpt lat="42.8246" lon="-0.57996">
        <ele>1697.825684</ele>
        <time>2011-05-17T13:25:13Z</time>
      </trkpt>
      <trkpt lat="42.82455" lon="-0.58019">
        <ele>1696.383789</ele>
        <time>2011-05-17T13:25:31Z</time>
      </trkpt>
      <trkpt lat="42.82457" lon="-0.58022">
        <ele>1695.422363</ele>
        <time>2011-05-17T13:25:34Z</time>
      </trkpt>
      <trkpt lat="42.82469" lon="-0.58044">
        <ele>1694.460938</ele>
        <time>2011-05-17T13:25:52Z</time>
      </trkpt>
      <trkpt lat="42.82473" lon="-0.58052">
        <ele>1693.019043</ele>
        <time>2011-05-17T13:25:59Z</time>
      </trkpt>
      <trkpt lat="42.82473" lon="-0.58055">
        <ele>1693.019043</ele>
        <time>2011-05-17T13:26:01Z</time>
      </trkpt>
      <trkpt lat="42.8247" lon="-0.58078">
        <ele>1689.654297</ele>
        <time>2011-05-17T13:26:18Z</time>
      </trkpt>
      <trkpt lat="42.82472" lon="-0.58098">
        <ele>1686.289795</ele>
        <time>2011-05-17T13:26:33Z</time>
      </trkpt>
      <trkpt lat="42.82475" lon="-0.5812">
        <ele>1682.925049</ele>
        <time>2011-05-17T13:26:49Z</time>
      </trkpt>
      <trkpt lat="42.82478" lon="-0.58143">
        <ele>1681.002686</ele>
        <time>2011-05-17T13:27:05Z</time>
      </trkpt>
      <trkpt lat="42.82475" lon="-0.58167">
        <ele>1679.079834</ele>
        <time>2011-05-17T13:27:22Z</time>
      </trkpt>
      <trkpt lat="42.82474" lon="-0.58168">
        <ele>1679.079834</ele>
        <time>2011-05-17T13:27:26Z</time>
      </trkpt>
      <trkpt lat="42.82471" lon="-0.58204">
        <ele>1677.157471</ele>
        <time>2011-05-17T13:27:49Z</time>
      </trkpt>
      <trkpt lat="42.82473" lon="-0.58208">
        <ele>1676.676758</ele>
        <time>2011-05-17T13:27:53Z</time>
      </trkpt>
      <trkpt lat="42.82474" lon="-0.58213">
        <ele>1676.676758</ele>
        <time>2011-05-17T13:27:57Z</time>
      </trkpt>
      <trkpt lat="42.82467" lon="-0.58231">
        <ele>1673.79248</ele>
        <time>2011-05-17T13:28:14Z</time>
      </trkpt>
      <trkpt lat="42.82458" lon="-0.58243">
        <ele>1670.427979</ele>
        <time>2011-05-17T13:28:28Z</time>
      </trkpt>
      <trkpt lat="42.82453" lon="-0.58254">
        <ele>1667.543945</ele>
        <time>2011-05-17T13:28:41Z</time>
      </trkpt>
      <trkpt lat="42.82454" lon="-0.58268">
        <ele>1664.179443</ele>
        <time>2011-05-17T13:28:51Z</time>
      </trkpt>
      <trkpt lat="42.82452" lon="-0.58274">
        <ele>1663.69873</ele>
        <time>2011-05-17T13:28:57Z</time>
      </trkpt>
      <trkpt lat="42.82449" lon="-0.58279">
        <ele>1661.295654</ele>
        <time>2011-05-17T13:29:02Z</time>
      </trkpt>
      <trkpt lat="42.82437" lon="-0.58293">
        <ele>1659.853271</ele>
        <time>2011-05-17T13:29:17Z</time>
      </trkpt>
      <trkpt lat="42.82423" lon="-0.58304">
        <ele>1657.450195</ele>
        <time>2011-05-17T13:29:33Z</time>
      </trkpt>
      <trkpt lat="42.82416" lon="-0.58318">
        <ele>1656.48877</ele>
        <time>2011-05-17T13:29:48Z</time>
      </trkpt>
      <trkpt lat="42.82413" lon="-0.58324">
        <ele>1656.008057</ele>
        <time>2011-05-17T13:29:58Z</time>
      </trkpt>
      <trkpt lat="42.82408" lon="-0.58348">
        <ele>1654.085693</ele>
        <time>2011-05-17T13:30:18Z</time>
      </trkpt>
      <trkpt lat="42.82406" lon="-0.58361">
        <ele>1652.643555</ele>
        <time>2011-05-17T13:30:30Z</time>
      </trkpt>
      <trkpt lat="42.82404" lon="-0.58365">
        <ele>1651.20166</ele>
        <time>2011-05-17T13:30:33Z</time>
      </trkpt>
      <trkpt lat="42.824" lon="-0.58381">
        <ele>1647.837158</ele>
        <time>2011-05-17T13:30:44Z</time>
      </trkpt>
      <trkpt lat="42.82384" lon="-0.58397">
        <ele>1647.356445</ele>
        <time>2011-05-17T13:31:00Z</time>
      </trkpt>
      <trkpt lat="42.82382" lon="-0.58398">
        <ele>1647.356445</ele>
        <time>2011-05-17T13:31:02Z</time>
      </trkpt>
      <trkpt lat="42.82376" lon="-0.58411">
        <ele>1646.395264</ele>
        <time>2011-05-17T13:31:17Z</time>
      </trkpt>
      <trkpt lat="42.82364" lon="-0.58435">
        <ele>1644.472412</ele>
        <time>2011-05-17T13:31:36Z</time>
      </trkpt>
      <trkpt lat="42.82354" lon="-0.58462">
        <ele>1642.069092</ele>
        <time>2011-05-17T13:31:55Z</time>
      </trkpt>
      <trkpt lat="42.82349" lon="-0.5847">
        <ele>1640.626953</ele>
        <time>2011-05-17T13:32:01Z</time>
      </trkpt>
      <trkpt lat="42.8234" lon="-0.58493">
        <ele>1640.146484</ele>
        <time>2011-05-17T13:32:18Z</time>
      </trkpt>
      <trkpt lat="42.82337" lon="-0.5852">
        <ele>1641.588379</ele>
        <time>2011-05-17T13:32:37Z</time>
      </trkpt>
      <trkpt lat="42.82338" lon="-0.58539">
        <ele>1642.549805</ele>
        <time>2011-05-17T13:32:51Z</time>
      </trkpt>
      <trkpt lat="42.82349" lon="-0.58536">
        <ele>1643.510986</ele>
        <time>2011-05-17T13:33:00Z</time>
      </trkpt>
      <trkpt lat="42.82353" lon="-0.58539">
        <ele>1643.030273</ele>
        <time>2011-05-17T13:33:15Z</time>
      </trkpt>
      <trkpt lat="42.82352" lon="-0.58539">
        <ele>1642.549805</ele>
        <time>2011-05-17T13:33:33Z</time>
      </trkpt>
      <trkpt lat="42.82355" lon="-0.58539">
        <ele>1643.030273</ele>
        <time>2011-05-17T13:33:59Z</time>
      </trkpt>
      <trkpt lat="42.82351" lon="-0.58539">
        <ele>1643.030273</ele>
        <time>2011-05-17T13:34:22Z</time>
      </trkpt>
      <trkpt lat="42.82346" lon="-0.58541">
        <ele>1642.069092</ele>
        <time>2011-05-17T13:35:19Z</time>
      </trkpt>
      <trkpt lat="42.82343" lon="-0.58545">
        <ele>1642.069092</ele>
        <time>2011-05-17T13:35:33Z</time>
      </trkpt>
      <trkpt lat="42.82344" lon="-0.58548">
        <ele>1642.069092</ele>
        <time>2011-05-17T13:35:45Z</time>
      </trkpt>
      <trkpt lat="42.82349" lon="-0.58554">
        <ele>1642.069092</ele>
        <time>2011-05-17T13:36:02Z</time>
      </trkpt>
      <trkpt lat="42.82345" lon="-0.58555">
        <ele>1642.069092</ele>
        <time>2011-05-17T13:36:18Z</time>
      </trkpt>
      <trkpt lat="42.82348" lon="-0.58562">
        <ele>1640.146484</ele>
        <time>2011-05-17T13:36:31Z</time>
      </trkpt>
      <trkpt lat="42.82357" lon="-0.58571">
        <ele>1639.185059</ele>
        <time>2011-05-17T13:36:47Z</time>
      </trkpt>
      <trkpt lat="42.82346" lon="-0.58579">
        <ele>1637.743164</ele>
        <time>2011-05-17T13:37:04Z</time>
      </trkpt>
      <trkpt lat="42.8233" lon="-0.58584">
        <ele>1635.820557</ele>
        <time>2011-05-17T13:37:22Z</time>
      </trkpt>
      <trkpt lat="42.82323" lon="-0.58584">
        <ele>1635.339844</ele>
        <time>2011-05-17T13:37:28Z</time>
      </trkpt>
      <trkpt lat="42.82317" lon="-0.58596">
        <ele>1632.456055</ele>
        <time>2011-05-17T13:37:39Z</time>
      </trkpt>
      <trkpt lat="42.82312" lon="-0.58606">
        <ele>1631.494629</ele>
        <time>2011-05-17T13:37:51Z</time>
      </trkpt>
      <trkpt lat="42.82301" lon="-0.5859">
        <ele>1634.859375</ele>
        <time>2011-05-17T13:38:09Z</time>
      </trkpt>
      <trkpt lat="42.82292" lon="-0.58566">
        <ele>1638.223877</ele>
        <time>2011-05-17T13:38:29Z</time>
      </trkpt>
      <trkpt lat="42.82275" lon="-0.58547">
        <ele>1639.185059</ele>
        <time>2011-05-17T13:38:49Z</time>
      </trkpt>
      <trkpt lat="42.82271" lon="-0.58542">
        <ele>1637.743164</ele>
        <time>2011-05-17T13:39:03Z</time>
      </trkpt>
      <trkpt lat="42.82272" lon="-0.58542">
        <ele>1638.223877</ele>
        <time>2011-05-17T13:39:33Z</time>
      </trkpt>
      <trkpt lat="42.82268" lon="-0.58538">
        <ele>1636.781738</ele>
        <time>2011-05-17T13:40:06Z</time>
      </trkpt>
      <trkpt lat="42.82259" lon="-0.58527">
        <ele>1635.339844</ele>
        <time>2011-05-17T13:40:20Z</time>
      </trkpt>
      <trkpt lat="42.82237" lon="-0.58511">
        <ele>1634.859375</ele>
        <time>2011-05-17T13:40:44Z</time>
      </trkpt>
      <trkpt lat="42.8221" lon="-0.58513">
        <ele>1632.456055</ele>
        <time>2011-05-17T13:41:08Z</time>
      </trkpt>
      <trkpt lat="42.82182" lon="-0.58499">
        <ele>1630.533447</ele>
        <time>2011-05-17T13:41:33Z</time>
      </trkpt>
      <trkpt lat="42.82162" lon="-0.58505">
        <ele>1627.168701</ele>
        <time>2011-05-17T13:41:53Z</time>
      </trkpt>
      <trkpt lat="42.82161" lon="-0.58505">
        <ele>1626.687988</ele>
        <time>2011-05-17T13:41:54Z</time>
      </trkpt>
      <trkpt lat="42.82146" lon="-0.58482">
        <ele>1625.726562</ele>
        <time>2011-05-17T13:42:14Z</time>
      </trkpt>
      <trkpt lat="42.82129" lon="-0.58449">
        <ele>1625.24585</ele>
        <time>2011-05-17T13:42:38Z</time>
      </trkpt>
      <trkpt lat="42.8212" lon="-0.58432">
        <ele>1624.284668</ele>
        <time>2011-05-17T13:42:58Z</time>
      </trkpt>
      <trkpt lat="42.82118" lon="-0.58431">
        <ele>1623.803955</ele>
        <time>2011-05-17T13:43:06Z</time>
      </trkpt>
      <trkpt lat="42.82113" lon="-0.58424">
        <ele>1625.726562</ele>
        <time>2011-05-17T13:43:16Z</time>
      </trkpt>
      <trkpt lat="42.821" lon="-0.58414">
        <ele>1627.168701</ele>
        <time>2011-05-17T13:43:33Z</time>
      </trkpt>
      <trkpt lat="42.82095" lon="-0.58408">
        <ele>1627.64917</ele>
        <time>2011-05-17T13:43:47Z</time>
      </trkpt>
      <trkpt lat="42.82093" lon="-0.58414">
        <ele>1628.130127</ele>
        <time>2011-05-17T13:44:14Z</time>
      </trkpt>
      <trkpt lat="42.82084" lon="-0.58422">
        <ele>1625.24585</ele>
        <time>2011-05-17T13:44:30Z</time>
      </trkpt>
      <trkpt lat="42.8207" lon="-0.58419">
        <ele>1622.842773</ele>
        <time>2011-05-17T13:44:47Z</time>
      </trkpt>
      <trkpt lat="42.82069" lon="-0.58421">
        <ele>1622.362061</ele>
        <time>2011-05-17T13:44:49Z</time>
      </trkpt>
      <trkpt lat="42.82059" lon="-0.58422">
        <ele>1618.036133</ele>
        <time>2011-05-17T13:45:04Z</time>
      </trkpt>
      <trkpt lat="42.82056" lon="-0.58413">
        <ele>1615.152344</ele>
        <time>2011-05-17T13:45:17Z</time>
      </trkpt>
      <trkpt lat="42.8205" lon="-0.58409">
        <ele>1613.229736</ele>
        <time>2011-05-17T13:45:33Z</time>
      </trkpt>
      <trkpt lat="42.82042" lon="-0.58409">
        <ele>1610.345459</ele>
        <time>2011-05-17T13:45:44Z</time>
      </trkpt>
      <trkpt lat="42.8204" lon="-0.58403">
        <ele>1606.500244</ele>
        <time>2011-05-17T13:45:55Z</time>
      </trkpt>
      <trkpt lat="42.82048" lon="-0.5839">
        <ele>1604.097168</ele>
        <time>2011-05-17T13:46:15Z</time>
      </trkpt>
      <trkpt lat="42.82041" lon="-0.58386">
        <ele>1601.213135</ele>
        <time>2011-05-17T13:46:30Z</time>
      </trkpt>
      <trkpt lat="42.82033" lon="-0.58386">
        <ele>1600.251953</ele>
        <time>2011-05-17T13:46:56Z</time>
      </trkpt>
      <trkpt lat="42.82025" lon="-0.58387">
        <ele>1596.887207</ele>
        <time>2011-05-17T13:47:07Z</time>
      </trkpt>
      <trkpt lat="42.8202" lon="-0.58384">
        <ele>1594.003174</ele>
        <time>2011-05-17T13:47:16Z</time>
      </trkpt>
      <trkpt lat="42.82009" lon="-0.58383">
        <ele>1592.561279</ele>
        <time>2011-05-17T13:47:33Z</time>
      </trkpt>
      <trkpt lat="42.82013" lon="-0.58381">
        <ele>1589.196533</ele>
        <time>2011-05-17T13:47:41Z</time>
      </trkpt>
      <trkpt lat="42.8202" lon="-0.58367">
        <ele>1587.754639</ele>
        <time>2011-05-17T13:47:55Z</time>
      </trkpt>
      <trkpt lat="42.82028" lon="-0.58358">
        <ele>1585.351318</ele>
        <time>2011-05-17T13:48:09Z</time>
      </trkpt>
      <trkpt lat="42.82026" lon="-0.58353">
        <ele>1582.467529</ele>
        <time>2011-05-17T13:48:21Z</time>
      </trkpt>
      <trkpt lat="42.82025" lon="-0.58353">
        <ele>1581.986816</ele>
        <time>2011-05-17T13:48:22Z</time>
      </trkpt>
      <trkpt lat="42.82015" lon="-0.5835">
        <ele>1578.141357</ele>
        <time>2011-05-17T13:48:36Z</time>
      </trkpt>
      <trkpt lat="42.82004" lon="-0.58351">
        <ele>1576.699463</ele>
        <time>2011-05-17T13:48:55Z</time>
      </trkpt>
      <trkpt lat="42.81996" lon="-0.58356">
        <ele>1573.334961</ele>
        <time>2011-05-17T13:49:08Z</time>
      </trkpt>
      <trkpt lat="42.81997" lon="-0.5835">
        <ele>1572.373535</ele>
        <time>2011-05-17T13:49:21Z</time>
      </trkpt>
      <trkpt lat="42.81996" lon="-0.58344">
        <ele>1569.009033</ele>
        <time>2011-05-17T13:49:32Z</time>
      </trkpt>
      <trkpt lat="42.81991" lon="-0.58348">
        <ele>1566.125</ele>
        <time>2011-05-17T13:49:40Z</time>
      </trkpt>
      <trkpt lat="42.81982" lon="-0.5836">
        <ele>1564.202393</ele>
        <time>2011-05-17T13:49:56Z</time>
      </trkpt>
      <trkpt lat="42.81966" lon="-0.58373">
        <ele>1562.279541</ele>
        <time>2011-05-17T13:50:14Z</time>
      </trkpt>
      <trkpt lat="42.81955" lon="-0.58376">
        <ele>1560.356934</ele>
        <time>2011-05-17T13:50:28Z</time>
      </trkpt>
      <trkpt lat="42.81947" lon="-0.58375">
        <ele>1558.434326</ele>
        <time>2011-05-17T13:50:40Z</time>
      </trkpt>
      <trkpt lat="42.81941" lon="-0.58375">
        <ele>1555.069824</ele>
        <time>2011-05-17T13:50:53Z</time>
      </trkpt>
      <trkpt lat="42.81937" lon="-0.58379">
        <ele>1553.147217</ele>
        <time>2011-05-17T13:51:04Z</time>
      </trkpt>
      <trkpt lat="42.81934" lon="-0.58387">
        <ele>1549.782715</ele>
        <time>2011-05-17T13:51:17Z</time>
      </trkpt>
      <trkpt lat="42.81921" lon="-0.58393">
        <ele>1548.340576</ele>
        <time>2011-05-17T13:51:30Z</time>
      </trkpt>
      <trkpt lat="42.81913" lon="-0.58401">
        <ele>1546.417969</ele>
        <time>2011-05-17T13:51:41Z</time>
      </trkpt>
      <trkpt lat="42.81913" lon="-0.58407">
        <ele>1543.533936</ele>
        <time>2011-05-17T13:51:51Z</time>
      </trkpt>
      <trkpt lat="42.81897" lon="-0.58412">
        <ele>1542.092041</ele>
        <time>2011-05-17T13:52:10Z</time>
      </trkpt>
      <trkpt lat="42.81896" lon="-0.58422">
        <ele>1538.727539</ele>
        <time>2011-05-17T13:52:23Z</time>
      </trkpt>
      <trkpt lat="42.81893" lon="-0.58435">
        <ele>1538.727539</ele>
        <time>2011-05-17T13:52:34Z</time>
      </trkpt>
      <trkpt lat="42.8188" lon="-0.58442">
        <ele>1537.766113</ele>
        <time>2011-05-17T13:52:45Z</time>
      </trkpt>
      <trkpt lat="42.81864" lon="-0.58445">
        <ele>1534.401611</ele>
        <time>2011-05-17T13:53:03Z</time>
      </trkpt>
      <trkpt lat="42.81853" lon="-0.58449">
        <ele>1532.479004</ele>
        <time>2011-05-17T13:53:16Z</time>
      </trkpt>
      <trkpt lat="42.81847" lon="-0.58445">
        <ele>1531.036865</ele>
        <time>2011-05-17T13:53:27Z</time>
      </trkpt>
      <trkpt lat="42.81857" lon="-0.58435">
        <ele>1529.114014</ele>
        <time>2011-05-17T13:53:38Z</time>
      </trkpt>
      <trkpt lat="42.81858" lon="-0.58434">
        <ele>1529.114014</ele>
        <time>2011-05-17T13:53:39Z</time>
      </trkpt>
      <trkpt lat="42.81856" lon="-0.58428">
        <ele>1525.749512</ele>
        <time>2011-05-17T13:53:53Z</time>
      </trkpt>
      <trkpt lat="42.81846" lon="-0.58432">
        <ele>1524.307617</ele>
        <time>2011-05-17T13:54:05Z</time>
      </trkpt>
      <trkpt lat="42.81838" lon="-0.58436">
        <ele>1525.268799</ele>
        <time>2011-05-17T13:54:17Z</time>
      </trkpt>
      <trkpt lat="42.81832" lon="-0.58445">
        <ele>1523.826904</ele>
        <time>2011-05-17T13:54:31Z</time>
      </trkpt>
      <trkpt lat="42.81824" lon="-0.58454">
        <ele>1521.423584</ele>
        <time>2011-05-17T13:54:46Z</time>
      </trkpt>
      <trkpt lat="42.81811" lon="-0.58454">
        <ele>1519.981689</ele>
        <time>2011-05-17T13:54:58Z</time>
      </trkpt>
      <trkpt lat="42.81796" lon="-0.58454">
        <ele>1519.020508</ele>
        <time>2011-05-17T13:55:14Z</time>
      </trkpt>
      <trkpt lat="42.8179" lon="-0.58453">
        <ele>1517.578369</ele>
        <time>2011-05-17T13:55:20Z</time>
      </trkpt>
      <trkpt lat="42.81778" lon="-0.58451">
        <ele>1515.175049</ele>
        <time>2011-05-17T13:55:37Z</time>
      </trkpt>
      <trkpt lat="42.81764" lon="-0.5845">
        <ele>1513.252441</ele>
        <time>2011-05-17T13:55:51Z</time>
      </trkpt>
      <trkpt lat="42.81758" lon="-0.58449">
        <ele>1511.810547</ele>
        <time>2011-05-17T13:55:56Z</time>
      </trkpt>
      <trkpt lat="42.81749" lon="-0.58447">
        <ele>1510.368408</ele>
        <time>2011-05-17T13:56:06Z</time>
      </trkpt>
      <trkpt lat="42.81743" lon="-0.58447">
        <ele>1508.926514</ele>
        <time>2011-05-17T13:56:12Z</time>
      </trkpt>
      <trkpt lat="42.81729" lon="-0.58441">
        <ele>1506.04248</ele>
        <time>2011-05-17T13:56:27Z</time>
      </trkpt>
      <trkpt lat="42.81709" lon="-0.5844">
        <ele>1504.600586</ele>
        <time>2011-05-17T13:56:43Z</time>
      </trkpt>
      <trkpt lat="42.81706" lon="-0.58443">
        <ele>1504.120117</ele>
        <time>2011-05-17T13:56:55Z</time>
      </trkpt>
      <trkpt lat="42.81698" lon="-0.58454">
        <ele>1505.081299</ele>
        <time>2011-05-17T13:57:10Z</time>
      </trkpt>
      <trkpt lat="42.81694" lon="-0.58467">
        <ele>1506.04248</ele>
        <time>2011-05-17T13:57:21Z</time>
      </trkpt>
      <trkpt lat="42.81679" lon="-0.58476">
        <ele>1506.04248</ele>
        <time>2011-05-17T13:57:31Z</time>
      </trkpt>
      <trkpt lat="42.81664" lon="-0.58492">
        <ele>1507.965332</ele>
        <time>2011-05-17T13:57:47Z</time>
      </trkpt>
      <trkpt lat="42.81647" lon="-0.58505">
        <ele>1509.407227</ele>
        <time>2011-05-17T13:58:00Z</time>
      </trkpt>
      <trkpt lat="42.81629" lon="-0.58514">
        <ele>1509.407227</ele>
        <time>2011-05-17T13:58:14Z</time>
      </trkpt>
      <trkpt lat="42.81617" lon="-0.58521">
        <ele>1509.887695</ele>
        <time>2011-05-17T13:58:27Z</time>
      </trkpt>
      <trkpt lat="42.81602" lon="-0.58528">
        <ele>1508.926514</ele>
        <time>2011-05-17T13:58:42Z</time>
      </trkpt>
      <trkpt lat="42.81594" lon="-0.58533">
        <ele>1508.926514</ele>
        <time>2011-05-17T13:58:49Z</time>
      </trkpt>
      <trkpt lat="42.81581" lon="-0.58541">
        <ele>1507.965332</ele>
        <time>2011-05-17T13:59:03Z</time>
      </trkpt>
      <trkpt lat="42.8157" lon="-0.58549">
        <ele>1507.003906</ele>
        <time>2011-05-17T13:59:15Z</time>
      </trkpt>
      <trkpt lat="42.81553" lon="-0.58564">
        <ele>1506.04248</ele>
        <time>2011-05-17T13:59:31Z</time>
      </trkpt>
      <trkpt lat="42.81546" lon="-0.58575">
        <ele>1506.04248</ele>
        <time>2011-05-17T13:59:42Z</time>
      </trkpt>
      <trkpt lat="42.81534" lon="-0.58592">
        <ele>1505.562012</ele>
        <time>2011-05-17T13:59:55Z</time>
      </trkpt>
      <trkpt lat="42.81527" lon="-0.58609">
        <ele>1505.081299</ele>
        <time>2011-05-17T14:00:07Z</time>
      </trkpt>
      <trkpt lat="42.81522" lon="-0.58624">
        <ele>1505.081299</ele>
        <time>2011-05-17T14:00:19Z</time>
      </trkpt>
      <trkpt lat="42.81512" lon="-0.58634">
        <ele>1504.120117</ele>
        <time>2011-05-17T14:00:30Z</time>
      </trkpt>
      <trkpt lat="42.815" lon="-0.58648">
        <ele>1504.120117</ele>
        <time>2011-05-17T14:00:42Z</time>
      </trkpt>
      <trkpt lat="42.81481" lon="-0.58667">
        <ele>1503.158691</ele>
        <time>2011-05-17T14:00:58Z</time>
      </trkpt>
      <trkpt lat="42.81466" lon="-0.58674">
        <ele>1502.677979</ele>
        <time>2011-05-17T14:01:07Z</time>
      </trkpt>
      <trkpt lat="42.81459" lon="-0.58678">
        <ele>1502.677979</ele>
        <time>2011-05-17T14:01:17Z</time>
      </trkpt>
      <trkpt lat="42.81429" lon="-0.58687">
        <ele>1500.755371</ele>
        <time>2011-05-17T14:01:30Z</time>
      </trkpt>
      <trkpt lat="42.81421" lon="-0.58684">
        <ele>1499.313232</ele>
        <time>2011-05-17T14:01:39Z</time>
      </trkpt>
      <trkpt lat="42.81418" lon="-0.58685">
        <ele>1495.94873</ele>
        <time>2011-05-17T14:01:51Z</time>
      </trkpt>
      <trkpt lat="42.81409" lon="-0.58691">
        <ele>1493.064697</ele>
        <time>2011-05-17T14:02:03Z</time>
      </trkpt>
      <trkpt lat="42.81391" lon="-0.587">
        <ele>1492.584229</ele>
        <time>2011-05-17T14:02:14Z</time>
      </trkpt>
      <trkpt lat="42.81392" lon="-0.58703">
        <ele>1492.103516</ele>
        <time>2011-05-17T14:02:20Z</time>
      </trkpt>
      <trkpt lat="42.81384" lon="-0.58715">
        <ele>1490.661377</ele>
        <time>2011-05-17T14:02:31Z</time>
      </trkpt>
      <trkpt lat="42.81373" lon="-0.58727">
        <ele>1488.258301</ele>
        <time>2011-05-17T14:02:43Z</time>
      </trkpt>
      <trkpt lat="42.8136" lon="-0.58741">
        <ele>1486.335693</ele>
        <time>2011-05-17T14:02:58Z</time>
      </trkpt>
      <trkpt lat="42.81349" lon="-0.58756">
        <ele>1484.413086</ele>
        <time>2011-05-17T14:03:13Z</time>
      </trkpt>
      <trkpt lat="42.81334" lon="-0.58772">
        <ele>1482.490234</ele>
        <time>2011-05-17T14:03:28Z</time>
      </trkpt>
      <trkpt lat="42.81316" lon="-0.58786">
        <ele>1481.04834</ele>
        <time>2011-05-17T14:03:45Z</time>
      </trkpt>
      <trkpt lat="42.81305" lon="-0.58787">
        <ele>1480.086914</ele>
        <time>2011-05-17T14:03:56Z</time>
      </trkpt>
      <trkpt lat="42.81305" lon="-0.58779">
        <ele>1476.722412</ele>
        <time>2011-05-17T14:04:03Z</time>
      </trkpt>
      <trkpt lat="42.81304" lon="-0.58776">
        <ele>1476.241699</ele>
        <time>2011-05-17T14:04:06Z</time>
      </trkpt>
      <trkpt lat="42.81304" lon="-0.58773">
        <ele>1475.760986</ele>
        <time>2011-05-17T14:04:08Z</time>
      </trkpt>
      <trkpt lat="42.81307" lon="-0.58757">
        <ele>1472.396484</ele>
        <time>2011-05-17T14:04:20Z</time>
      </trkpt>
      <trkpt lat="42.81307" lon="-0.58744">
        <ele>1469.512695</ele>
        <time>2011-05-17T14:04:32Z</time>
      </trkpt>
      <trkpt lat="42.81307" lon="-0.58733">
        <ele>1465.667236</ele>
        <time>2011-05-17T14:04:43Z</time>
      </trkpt>
      <trkpt lat="42.81305" lon="-0.58726">
        <ele>1463.263916</ele>
        <time>2011-05-17T14:04:52Z</time>
      </trkpt>
      <trkpt lat="42.81302" lon="-0.58713">
        <ele>1460.379883</ele>
        <time>2011-05-17T14:05:06Z</time>
      </trkpt>
      <trkpt lat="42.81305" lon="-0.587">
        <ele>1456.534668</ele>
        <time>2011-05-17T14:05:18Z</time>
      </trkpt>
      <trkpt lat="42.81305" lon="-0.58699">
        <ele>1456.534668</ele>
        <time>2011-05-17T14:05:19Z</time>
      </trkpt>
      <trkpt lat="42.81307" lon="-0.58692">
        <ele>1454.131592</ele>
        <time>2011-05-17T14:05:30Z</time>
      </trkpt>
      <trkpt lat="42.81308" lon="-0.58686">
        <ele>1453.170166</ele>
        <time>2011-05-17T14:05:35Z</time>
      </trkpt>
      <trkpt lat="42.8131" lon="-0.58682">
        <ele>1452.20874</ele>
        <time>2011-05-17T14:05:38Z</time>
      </trkpt>
      <trkpt lat="42.8131" lon="-0.58677">
        <ele>1450.766602</ele>
        <time>2011-05-17T14:05:43Z</time>
      </trkpt>
      <trkpt lat="42.81309" lon="-0.58668">
        <ele>1447.4021</ele>
        <time>2011-05-17T14:05:55Z</time>
      </trkpt>
      <trkpt lat="42.81309" lon="-0.58662">
        <ele>1444.998779</ele>
        <time>2011-05-17T14:06:03Z</time>
      </trkpt>
      <trkpt lat="42.81295" lon="-0.58651">
        <ele>1442.595703</ele>
        <time>2011-05-17T14:06:19Z</time>
      </trkpt>
      <trkpt lat="42.81292" lon="-0.58645">
        <ele>1441.153564</ele>
        <time>2011-05-17T14:06:28Z</time>
      </trkpt>
      <trkpt lat="42.81294" lon="-0.58637">
        <ele>1437.789062</ele>
        <time>2011-05-17T14:06:35Z</time>
      </trkpt>
      <trkpt lat="42.81294" lon="-0.58632">
        <ele>1435.866211</ele>
        <time>2011-05-17T14:06:40Z</time>
      </trkpt>
      <trkpt lat="42.81298" lon="-0.58617">
        <ele>1432.501709</ele>
        <time>2011-05-17T14:06:55Z</time>
      </trkpt>
      <trkpt lat="42.81297" lon="-0.58611">
        <ele>1430.579102</ele>
        <time>2011-05-17T14:07:01Z</time>
      </trkpt>
      <trkpt lat="42.81298" lon="-0.58601">
        <ele>1427.2146</ele>
        <time>2011-05-17T14:07:10Z</time>
      </trkpt>
      <trkpt lat="42.81298" lon="-0.586">
        <ele>1427.2146</ele>
        <time>2011-05-17T14:07:11Z</time>
      </trkpt>
      <trkpt lat="42.81298" lon="-0.58596">
        <ele>1426.253174</ele>
        <time>2011-05-17T14:07:15Z</time>
      </trkpt>
      <trkpt lat="42.81297" lon="-0.58592">
        <ele>1425.772461</ele>
        <time>2011-05-17T14:07:18Z</time>
      </trkpt>
      <trkpt lat="42.81295" lon="-0.58578">
        <ele>1422.888672</ele>
        <time>2011-05-17T14:07:29Z</time>
      </trkpt>
      <trkpt lat="42.81293" lon="-0.58569">
        <ele>1419.523926</ele>
        <time>2011-05-17T14:07:36Z</time>
      </trkpt>
      <trkpt lat="42.81294" lon="-0.58552">
        <ele>1416.639893</ele>
        <time>2011-05-17T14:07:50Z</time>
      </trkpt>
      <trkpt lat="42.81298" lon="-0.58538">
        <ele>1413.275391</ele>
        <time>2011-05-17T14:08:01Z</time>
      </trkpt>
      <trkpt lat="42.81303" lon="-0.58518">
        <ele>1410.391357</ele>
        <time>2011-05-17T14:08:20Z</time>
      </trkpt>
      <trkpt lat="42.81303" lon="-0.58518">
        <ele>1410.87207</ele>
        <time>2011-05-17T14:08:21Z</time>
      </trkpt>
      <trkpt lat="42.81305" lon="-0.58504">
        <ele>1407.026855</ele>
        <time>2011-05-17T14:08:33Z</time>
      </trkpt>
      <trkpt lat="42.81305" lon="-0.58503">
        <ele>1407.026855</ele>
        <time>2011-05-17T14:08:34Z</time>
      </trkpt>
      <trkpt lat="42.81307" lon="-0.58488">
        <ele>1404.623535</ele>
        <time>2011-05-17T14:08:47Z</time>
      </trkpt>
      <trkpt lat="42.81312" lon="-0.58475">
        <ele>1401.258789</ele>
        <time>2011-05-17T14:08:58Z</time>
      </trkpt>
      <trkpt lat="42.81319" lon="-0.58453">
        <ele>1399.336182</ele>
        <time>2011-05-17T14:09:16Z</time>
      </trkpt>
      <trkpt lat="42.81319" lon="-0.58436">
        <ele>1397.894287</ele>
        <time>2011-05-17T14:09:31Z</time>
      </trkpt>
      <trkpt lat="42.81318" lon="-0.58432">
        <ele>1397.413574</ele>
        <time>2011-05-17T14:09:38Z</time>
      </trkpt>
      <trkpt lat="42.81313" lon="-0.58412">
        <ele>1394.049072</ele>
        <time>2011-05-17T14:09:54Z</time>
      </trkpt>
      <trkpt lat="42.81312" lon="-0.58411">
        <ele>1393.568359</ele>
        <time>2011-05-17T14:09:55Z</time>
      </trkpt>
      <trkpt lat="42.81309" lon="-0.58404">
        <ele>1393.087646</ele>
        <time>2011-05-17T14:10:09Z</time>
      </trkpt>
      <trkpt lat="42.81309" lon="-0.58409">
        <ele>1393.087646</ele>
        <time>2011-05-17T14:10:56Z</time>
      </trkpt>
      <trkpt lat="42.8131" lon="-0.58406">
        <ele>1390.203857</ele>
        <time>2011-05-17T14:13:50Z</time>
      </trkpt>
      <trkpt lat="42.81311" lon="-0.58408">
        <ele>1391.165039</ele>
        <time>2011-05-17T14:18:58Z</time>
      </trkpt>
      <trkpt lat="42.81311" lon="-0.58408">
        <ele>1390.684326</ele>
        <time>2011-05-17T14:19:07Z</time>
      </trkpt>
      <trkpt lat="42.81312" lon="-0.5841">
        <ele>1391.165039</ele>
        <time>2011-05-17T14:19:22Z</time>
      </trkpt>
      <trkpt lat="42.81317" lon="-0.58406">
        <ele>1389.723145</ele>
        <time>2011-05-17T14:19:29Z</time>
      </trkpt>
      <trkpt lat="42.81335" lon="-0.58386">
        <ele>1386.838867</ele>
        <time>2011-05-17T14:19:52Z</time>
      </trkpt>
      <trkpt lat="42.8134" lon="-0.58387">
        <ele>1385.396973</ele>
        <time>2011-05-17T14:20:00Z</time>
      </trkpt>
      <trkpt lat="42.81351" lon="-0.58374">
        <ele>1382.513184</ele>
        <time>2011-05-17T14:20:17Z</time>
      </trkpt>
      <trkpt lat="42.81359" lon="-0.58372">
        <ele>1379.148438</ele>
        <time>2011-05-17T14:20:32Z</time>
      </trkpt>
      <trkpt lat="42.81366" lon="-0.5837">
        <ele>1377.226074</ele>
        <time>2011-05-17T14:20:45Z</time>
      </trkpt>
      <trkpt lat="42.81377" lon="-0.58364">
        <ele>1375.783936</ele>
        <time>2011-05-17T14:20:59Z</time>
      </trkpt>
      <trkpt lat="42.81379" lon="-0.58348">
        <ele>1374.822754</ele>
        <time>2011-05-17T14:21:13Z</time>
      </trkpt>
      <trkpt lat="42.81391" lon="-0.58338">
        <ele>1371.457764</ele>
        <time>2011-05-17T14:21:28Z</time>
      </trkpt>
      <trkpt lat="42.81392" lon="-0.58329">
        <ele>1368.573975</ele>
        <time>2011-05-17T14:21:41Z</time>
      </trkpt>
      <trkpt lat="42.81395" lon="-0.58322">
        <ele>1366.651367</ele>
        <time>2011-05-17T14:21:55Z</time>
      </trkpt>
      <trkpt lat="42.81389" lon="-0.58315">
        <ele>1363.767334</ele>
        <time>2011-05-17T14:22:11Z</time>
      </trkpt>
      <trkpt lat="42.8139" lon="-0.58309">
        <ele>1361.844971</ele>
        <time>2011-05-17T14:22:25Z</time>
      </trkpt>
      <trkpt lat="42.81383" lon="-0.58309">
        <ele>1359.922119</ele>
        <time>2011-05-17T14:22:38Z</time>
      </trkpt>
      <trkpt lat="42.81381" lon="-0.58299">
        <ele>1356.557617</ele>
        <time>2011-05-17T14:22:50Z</time>
      </trkpt>
      <trkpt lat="42.81384" lon="-0.58289">
        <ele>1354.154297</ele>
        <time>2011-05-17T14:23:02Z</time>
      </trkpt>
      <trkpt lat="42.81384" lon="-0.58277">
        <ele>1350.789551</ele>
        <time>2011-05-17T14:23:15Z</time>
      </trkpt>
      <trkpt lat="42.81389" lon="-0.58265">
        <ele>1350.789551</ele>
        <time>2011-05-17T14:23:29Z</time>
      </trkpt>
      <trkpt lat="42.814" lon="-0.58257">
        <ele>1347.425049</ele>
        <time>2011-05-17T14:23:43Z</time>
      </trkpt>
      <trkpt lat="42.81408" lon="-0.58243">
        <ele>1346.463867</ele>
        <time>2011-05-17T14:23:54Z</time>
      </trkpt>
      <trkpt lat="42.81408" lon="-0.58235">
        <ele>1345.502441</ele>
        <time>2011-05-17T14:24:07Z</time>
      </trkpt>
      <trkpt lat="42.81397" lon="-0.5824">
        <ele>1343.579834</ele>
        <time>2011-05-17T14:24:16Z</time>
      </trkpt>
      <trkpt lat="42.81378" lon="-0.58249">
        <ele>1343.099121</ele>
        <time>2011-05-17T14:24:31Z</time>
      </trkpt>
      <trkpt lat="42.81375" lon="-0.58248">
        <ele>1343.099121</ele>
        <time>2011-05-17T14:24:34Z</time>
      </trkpt>
      <trkpt lat="42.81373" lon="-0.58242">
        <ele>1341.176514</ele>
        <time>2011-05-17T14:24:39Z</time>
      </trkpt>
      <trkpt lat="42.81375" lon="-0.5823">
        <ele>1340.695801</ele>
        <time>2011-05-17T14:24:47Z</time>
      </trkpt>
      <trkpt lat="42.81378" lon="-0.58225">
        <ele>1339.734375</ele>
        <time>2011-05-17T14:24:51Z</time>
      </trkpt>
      <trkpt lat="42.814" lon="-0.58214">
        <ele>1338.29248</ele>
        <time>2011-05-17T14:25:11Z</time>
      </trkpt>
      <trkpt lat="42.81423" lon="-0.5819">
        <ele>1336.369873</ele>
        <time>2011-05-17T14:25:33Z</time>
      </trkpt>
      <trkpt lat="42.81425" lon="-0.58189">
        <ele>1336.369873</ele>
        <time>2011-05-17T14:25:35Z</time>
      </trkpt>
      <trkpt lat="42.81436" lon="-0.58181">
        <ele>1335.408447</ele>
        <time>2011-05-17T14:25:47Z</time>
      </trkpt>
      <trkpt lat="42.81451" lon="-0.58167">
        <ele>1333.966553</ele>
        <time>2011-05-17T14:26:04Z</time>
      </trkpt>
      <trkpt lat="42.81452" lon="-0.58148">
        <ele>1331.563232</ele>
        <time>2011-05-17T14:26:16Z</time>
      </trkpt>
      <trkpt lat="42.81454" lon="-0.58132">
        <ele>1331.082764</ele>
        <time>2011-05-17T14:26:27Z</time>
      </trkpt>
      <trkpt lat="42.81465" lon="-0.581">
        <ele>1329.640625</ele>
        <time>2011-05-17T14:26:46Z</time>
      </trkpt>
      <trkpt lat="42.81469" lon="-0.58085">
        <ele>1328.19873</ele>
        <time>2011-05-17T14:26:55Z</time>
      </trkpt>
      <trkpt lat="42.81475" lon="-0.58053">
        <ele>1324.353516</ele>
        <time>2011-05-17T14:27:15Z</time>
      </trkpt>
      <trkpt lat="42.81479" lon="-0.58027">
        <ele>1321.949951</ele>
        <time>2011-05-17T14:27:33Z</time>
      </trkpt>
      <trkpt lat="42.81487" lon="-0.57995">
        <ele>1319.546875</ele>
        <time>2011-05-17T14:27:52Z</time>
      </trkpt>
      <trkpt lat="42.81494" lon="-0.57973">
        <ele>1316.662842</ele>
        <time>2011-05-17T14:28:04Z</time>
      </trkpt>
      <trkpt lat="42.81513" lon="-0.57941">
        <ele>1314.740234</ele>
        <time>2011-05-17T14:28:25Z</time>
      </trkpt>
      <trkpt lat="42.8153" lon="-0.57916">
        <ele>1312.817627</ele>
        <time>2011-05-17T14:28:44Z</time>
      </trkpt>
      <trkpt lat="42.81544" lon="-0.57899">
        <ele>1311.375732</ele>
        <time>2011-05-17T14:29:01Z</time>
      </trkpt>
      <trkpt lat="42.81565" lon="-0.57878">
        <ele>1308.972412</ele>
        <time>2011-05-17T14:29:23Z</time>
      </trkpt>
      <trkpt lat="42.81567" lon="-0.57872">
        <ele>1308.491699</ele>
        <time>2011-05-17T14:29:27Z</time>
      </trkpt>
      <trkpt lat="42.81565" lon="-0.57865">
        <ele>1308.01123</ele>
        <time>2011-05-17T14:29:32Z</time>
      </trkpt>
      <trkpt lat="42.81547" lon="-0.57873">
        <ele>1305.607666</ele>
        <time>2011-05-17T14:29:48Z</time>
      </trkpt>
      <trkpt lat="42.81546" lon="-0.57874">
        <ele>1305.607666</ele>
        <time>2011-05-17T14:29:49Z</time>
      </trkpt>
      <trkpt lat="42.81543" lon="-0.57877">
        <ele>1305.126953</ele>
        <time>2011-05-17T14:29:52Z</time>
      </trkpt>
      <trkpt lat="42.81525" lon="-0.57897">
        <ele>1303.685059</ele>
        <time>2011-05-17T14:30:13Z</time>
      </trkpt>
      <trkpt lat="42.81519" lon="-0.57902">
        <ele>1302.24292</ele>
        <time>2011-05-17T14:30:18Z</time>
      </trkpt>
      <trkpt lat="42.81493" lon="-0.57921">
        <ele>1299.839844</ele>
        <time>2011-05-17T14:30:40Z</time>
      </trkpt>
      <trkpt lat="42.81476" lon="-0.57941">
        <ele>1296.955811</ele>
        <time>2011-05-17T14:30:59Z</time>
      </trkpt>
      <trkpt lat="42.81459" lon="-0.57961">
        <ele>1294.55249</ele>
        <time>2011-05-17T14:31:17Z</time>
      </trkpt>
      <trkpt lat="42.81446" lon="-0.57984">
        <ele>1292.149414</ele>
        <time>2011-05-17T14:31:34Z</time>
      </trkpt>
      <trkpt lat="42.8144" lon="-0.57991">
        <ele>1291.187744</ele>
        <time>2011-05-17T14:31:40Z</time>
      </trkpt>
      <trkpt lat="42.81426" lon="-0.58014">
        <ele>1290.226562</ele>
        <time>2011-05-17T14:31:57Z</time>
      </trkpt>
      <trkpt lat="42.81409" lon="-0.58019">
        <ele>1288.784668</ele>
        <time>2011-05-17T14:32:10Z</time>
      </trkpt>
      <trkpt lat="42.81389" lon="-0.58013">
        <ele>1287.342529</ele>
        <time>2011-05-17T14:32:27Z</time>
      </trkpt>
      <trkpt lat="42.81391" lon="-0.58006">
        <ele>1286.861816</ele>
        <time>2011-05-17T14:32:31Z</time>
      </trkpt>
      <trkpt lat="42.81416" lon="-0.5799">
        <ele>1283.978027</ele>
        <time>2011-05-17T14:32:53Z</time>
      </trkpt>
      <trkpt lat="42.81418" lon="-0.57979">
        <ele>1282.05542</ele>
        <time>2011-05-17T14:33:09Z</time>
      </trkpt>
      <trkpt lat="42.81417" lon="-0.57978">
        <ele>1281.574707</ele>
        <time>2011-05-17T14:33:46Z</time>
      </trkpt>
      <trkpt lat="42.81417" lon="-0.5798">
        <ele>1280.613525</ele>
        <time>2011-05-17T14:34:16Z</time>
      </trkpt>
      <trkpt lat="42.81417" lon="-0.57979">
        <ele>1281.574707</ele>
        <time>2011-05-17T14:34:39Z</time>
      </trkpt>
    </trkseg>
  </trk>
</gpx>